Darstellungsparameter: Aktuell verwendete Einstellungen:
Skalierung der Graphiken ... ?
xyx+y,   Skalierungsfaktor:      Skalierung: Modus: x, Faktor: 1
Darstellungszeitraum ... ?
Vom - - bis: - -   Zeitraum: 30.04.2010 - 29.04.2020
Min/Max/Avg-Anzeige ... ?
Zeige MMA aktuell
Zeige MMA Monat
Zeige MMA alles
Zeige --A aktuell
Zeige --A Monat
Zeige --A alles
Keine MMA-Anzeige
MMA:
Average (ber die Originaldaten)
MMA-Basis: 30.04.2010 - 29.04.2020
Quicknavigation für Darstellung... ?
Tage:      1T, 2T, 3T, 5T -1T -2T -3T -5T +1T +2T +3T +5T
Wochen: 1W, 2W, 3W -1W -2W -3W +1W +2W +3W
Monate: 1M, 3M, 6M -1M -3M -6M +1M +3M +6M
Jahre:    1J, 3J, 5J, 10J -1J -3J -5J -10J +1J +3J +5J +10J
Nutze für die Darstellung ... ?
Originaldaten oder ...
Mittelwerte Minima Maxima auf...
Stundenbasis Tagesbasis Wochenbasis
Monatsbasis Jahresbasis      Datenbasis: Mittelwerte auf Stundenbasis
Darstellen als:
Statistik (Auto) Statistik J:M      Darstellung:
Zur Graphik,    zurück zur Übersicht aller Sensoren.
 
Tabellarische Datenbersicht: ?
 
Sensor: Nr:Datum:Temp:Abs-Feuchte:Windchill:Wind:
Aussen-T/F 1 30-04-2010 00:00:00 19.8 C 6.97 g/m*3 19.8 C 0 km/h
2 30-04-2010 01:00:00 20.74 C 6.75 g/m*3 20.74 C 0 km/h
3 30-04-2010 02:00:00 20.76 C 6.79 g/m*3 20.76 C 0 km/h
4 30-04-2010 03:00:00 20.04 C 7.41 g/m*3 20.04 C 0 km/h
5 30-04-2010 04:00:00 19.38 C 8.13 g/m*3 19.38 C 0 km/h
6 30-04-2010 05:00:00 18.24 C 8.51 g/m*3 18.24 C 0 km/h
7 30-04-2010 06:00:00 17.36 C 8.69 g/m*3 17.36 C 0 km/h
8 30-04-2010 07:00:00 17.44 C 8.79 g/m*3 17.44 C 0 km/h
9 30-04-2010 08:00:00 18.26 C 8.02 g/m*3 18.26 C 0 km/h
10 30-04-2010 09:00:00 18.38 C 7.26 g/m*3 18.38 C 0 km/h
11 30-04-2010 10:00:00 18.56 C 6.29 g/m*3 18.56 C 0 km/h
12 30-04-2010 11:00:00 19.22 C 5.94 g/m*3 19.22 C 0 km/h
13 30-04-2010 12:00:00 20.22 C 5.95 g/m*3 20.22 C 0 km/h
14 30-04-2010 13:00:00 20.82 C 5.62 g/m*3 20.82 C 0 km/h
15 30-04-2010 14:00:00 20.88 C 5.86 g/m*3 20.88 C 0 km/h
16 30-04-2010 15:00:00 20.64 C 6.1 g/m*3 20.64 C 0 km/h
17 30-04-2010 16:00:00 19.58 C 5.94 g/m*3 19.58 C 0 km/h
18 30-04-2010 17:00:00 19.68 C 6.07 g/m*3 19.68 C 0 km/h
19 30-04-2010 18:00:00 19.28 C 6.1 g/m*3 19.28 C 0 km/h
20 30-04-2010 19:00:00 18.42 C 6.27 g/m*3 18.42 C 0 km/h
21 30-04-2010 20:00:00 17.38 C 6.87 g/m*3 17.38 C 0 km/h
22 30-04-2010 21:00:00 15.08 C 8.61 g/m*3 15.08 C 0 km/h
23 30-04-2010 22:00:00 15.02 C 8.14 g/m*3 15.02 C 0 km/h
24 30-04-2010 23:00:00 13.52 C 6.77 g/m*3 13.52 C 0 km/h
25 01-05-2010 00:00:00 13.32 C 6.59 g/m*3 13.32 C 0 km/h
Sensor: Nr:Datum:Temp:Abs-Feuchte:Windchill:Wind:
Aussen-T/F 26 01-05-2010 01:00:00 13.2 C 6.87 g/m*3 13.2 C 0 km/h
27 01-05-2010 02:00:00 12.88 C 6.84 g/m*3 12.88 C 0 km/h
28 01-05-2010 03:00:00 12.62 C 6.65 g/m*3 12.62 C 0 km/h
29 01-05-2010 04:00:00 12.46 C 7.11 g/m*3 12.46 C 0 km/h
30 01-05-2010 05:00:00 12.26 C 7.45 g/m*3 12.26 C 0 km/h
31 01-05-2010 06:00:00 11.5 C 8.3 g/m*3 11.5 C 0 km/h
32 01-05-2010 07:00:00 11.66 C 8.51 g/m*3 11.66 C 0 km/h
33 01-05-2010 08:00:00 13.06 C 8.26 g/m*3 13.06 C 0 km/h
34 01-05-2010 09:00:00 14.14 C 8.01 g/m*3 14.14 C 0 km/h
35 01-05-2010 10:00:00 14.62 C 7.54 g/m*3 14.62 C 0 km/h
36 01-05-2010 11:00:00 16.46 C 6.58 g/m*3 16.46 C 0 km/h
37 01-05-2010 12:00:00 17.48 C 5.72 g/m*3 17.48 C 0 km/h
38 01-05-2010 13:00:00 19.2 C 5.14 g/m*3 19.2 C 0 km/h
39 01-05-2010 14:00:00 19.82 C 4.89 g/m*3 19.82 C 0 km/h
40 01-05-2010 15:00:00 19.08 C 4.91 g/m*3 19.08 C 0 km/h
41 01-05-2010 16:00:00 17.58 C 5.51 g/m*3 17.58 C 0 km/h
42 01-05-2010 17:00:00 17.68 C 5.73 g/m*3 17.68 C 0 km/h
43 01-05-2010 18:00:00 17.46 C 5.95 g/m*3 17.46 C 0 km/h
44 01-05-2010 19:00:00 16.76 C 5.93 g/m*3 16.76 C 0 km/h
45 01-05-2010 20:00:00 15.84 C 6.15 g/m*3 15.84 C 0 km/h
46 01-05-2010 21:00:00 14.98 C 6.43 g/m*3 14.98 C 0 km/h
47 01-05-2010 22:00:00 14.22 C 6.04 g/m*3 14.22 C 0 km/h
48 01-05-2010 23:00:00 14.1 C 6.34 g/m*3 14.1 C 0 km/h
49 02-05-2010 00:00:00 12.96 C 7.1 g/m*3 12.96 C 0 km/h
50 02-05-2010 01:00:00 12.54 C 7.25 g/m*3 12.54 C 0 km/h
Sensor: Nr:Datum:Temp:Abs-Feuchte:Windchill:Wind:
Aussen-T/F 51 02-05-2010 02:00:00 12.3 C 7.25 g/m*3 12.3 C 0 km/h
52 02-05-2010 03:00:00 11.84 C 7.24 g/m*3 11.84 C 0 km/h
53 02-05-2010 04:00:00 11.56 C 7.26 g/m*3 11.56 C 0 km/h
54 02-05-2010 05:00:00 11.06 C 7.09 g/m*3 11.06 C 0 km/h
55 02-05-2010 06:00:00 10.94 C 7.22 g/m*3 10.94 C 0 km/h
56 02-05-2010 07:00:00 11.28 C 7.42 g/m*3 11.28 C 0 km/h
57 02-05-2010 08:00:00 11.38 C 7.79 g/m*3 11.38 C 0 km/h
58 02-05-2010 09:00:00 12.2 C 8.09 g/m*3 12.2 C 0 km/h
59 02-05-2010 10:00:00 14.22 C 8.02 g/m*3 14.22 C 0 km/h
60 02-05-2010 11:00:00 17.26 C 7.38 g/m*3 17.26 C 0 km/h
61 02-05-2010 12:00:00 12.9 C 7.62 g/m*3 12.9 C 0 km/h
62 02-05-2010 13:00:00 11.9 C 8.73 g/m*3 11.9 C 0 km/h
63 02-05-2010 14:00:00 14.86 C 8.9 g/m*3 14.86 C 0 km/h
64 02-05-2010 15:00:00 17.16 C 7.33 g/m*3 17.16 C 0 km/h
65 02-05-2010 16:00:00 17.4 C 6.79 g/m*3 17.4 C 0 km/h
66 02-05-2010 17:00:00 14.92 C 8.6 g/m*3 14.92 C 0 km/h
67 02-05-2010 18:00:00 17.18 C 7.05 g/m*3 17.18 C 0 km/h
68 02-05-2010 19:00:00 17.46 C 6.75 g/m*3 17.46 C 0 km/h
69 02-05-2010 20:00:00 15.94 C 7.28 g/m*3 15.94 C 0 km/h
70 02-05-2010 21:00:00 12.62 C 7.69 g/m*3 12.62 C 0 km/h
71 02-05-2010 22:00:00 11.38 C 7.71 g/m*3 11.38 C 0 km/h
72 02-05-2010 23:00:00 10.4 C 7.46 g/m*3 10.4 C 0 km/h
73 03-05-2010 00:00:00 9.76 C 7.27 g/m*3 9.76 C 0 km/h
74 03-05-2010 01:00:00 8.96 C 7.11 g/m*3 8.96 C 0 km/h
75 03-05-2010 02:00:00 8.12 C 6.83 g/m*3 8.12 C 0 km/h
Sensor: Nr:Datum:Temp:Abs-Feuchte:Windchill:Wind:
Aussen-T/F 76 03-05-2010 03:00:00 8.1 C 7.02 g/m*3 8.1 C 0 km/h
77 03-05-2010 04:00:00 8.42 C 7.19 g/m*3 8.42 C 0 km/h
78 03-05-2010 05:00:00 8.6 C 7.13 g/m*3 8.6 C 0 km/h
79 03-05-2010 06:00:00 8.6 C 7.13 g/m*3 8.6 C 0 km/h
80 03-05-2010 07:00:00 8.4 C 7.11 g/m*3 8.4 C 0 km/h
81 03-05-2010 08:00:00 9.72 C 6.96 g/m*3 9.72 C 0 km/h
82 03-05-2010 09:00:00 10.56 C 6.74 g/m*3 10.56 C 0 km/h
83 03-05-2010 10:00:00 11 C 6.77 g/m*3 11 C 0 km/h
84 03-05-2010 11:00:00 12.94 C 6.71 g/m*3 12.94 C 0 km/h
85 03-05-2010 12:00:00 14.74 C 6.46 g/m*3 14.74 C 0 km/h
86 03-05-2010 13:00:00 14.56 C 6.44 g/m*3 14.56 C 0 km/h
87 03-05-2010 14:00:00 9.56 C 6.82 g/m*3 9.56 C 0 km/h
88 03-05-2010 15:00:00 9.74 C 7.99 g/m*3 9.74 C 0 km/h
89 03-05-2010 16:00:00 10.58 C 7.45 g/m*3 10.58 C 0 km/h
90 03-05-2010 17:00:00 10.82 C 7.26 g/m*3 10.82 C 0 km/h
91 03-05-2010 18:00:00 10.96 C 6.87 g/m*3 10.96 C 0 km/h
92 03-05-2010 19:00:00 10.5 C 6.54 g/m*3 10.5 C 0 km/h
93 03-05-2010 20:00:00 9.74 C 6.06 g/m*3 9.74 C 0 km/h
94 03-05-2010 21:00:00 9.08 C 6.26 g/m*3 9.08 C 0 km/h
95 03-05-2010 22:00:00 8.58 C 6.49 g/m*3 8.58 C 0 km/h
96 03-05-2010 23:00:00 8.36 C 6.5 g/m*3 8.36 C 0 km/h
97 04-05-2010 00:00:00 7.58 C 6.4 g/m*3 7.58 C 0 km/h
98 04-05-2010 01:00:00 8.2 C 6.5 g/m*3 8.2 C 0 km/h
99 04-05-2010 02:00:00 8.38 C 6.54 g/m*3 8.38 C 0 km/h
100 04-05-2010 03:00:00 8.28 C 6.62 g/m*3 8.28 C 0 km/h
Sensor: Nr:Datum:Temp:Abs-Feuchte:Windchill:Wind:
Aussen-T/F 101 04-05-2010 04:00:00 7.92 C 6.76 g/m*3 7.92 C 0 km/h
102 04-05-2010 05:00:00 8.14 C 6.84 g/m*3 8.14 C 0 km/h
103 04-05-2010 06:00:00 8.24 C 6.88 g/m*3 8.24 C 0 km/h
104 04-05-2010 07:00:00 8.66 C 6.94 g/m*3 8.66 C 0 km/h
105 04-05-2010 08:00:00 9.02 C 6.43 g/m*3 9.02 C 0 km/h
106 04-05-2010 09:00:00 9.28 C 6.25 g/m*3 9.28 C 0 km/h
107 04-05-2010 10:00:00 9.82 C 5.82 g/m*3 9.82 C 0 km/h
108 04-05-2010 11:00:00 10.76 C 5.21 g/m*3 10.76 C 0 km/h
109 04-05-2010 12:00:00 11.1 C 4.83 g/m*3 11.1 C 0 km/h
110 04-05-2010 13:00:00 11.98 C 4.58 g/m*3 11.98 C 0 km/h
111 04-05-2010 14:00:00 12.92 C 4.6 g/m*3 12.92 C 0 km/h
112 04-05-2010 15:00:00 13.44 C 4.5 g/m*3 13.44 C 0 km/h
113 04-05-2010 16:00:00 12.46 C 4.43 g/m*3 12.46 C 0 km/h
114 04-05-2010 17:00:00 11.54 C 4.33 g/m*3 11.54 C 0 km/h
115 04-05-2010 18:00:00 11.24 C 4.21 g/m*3 11.24 C 0 km/h
116 04-05-2010 19:00:00 11.28 C 4.14 g/m*3 11.28 C 0 km/h
117 04-05-2010 20:00:00 10.12 C 4.36 g/m*3 10.12 C 0 km/h
118 04-05-2010 21:00:00 9.42 C 4.49 g/m*3 9.42 C 0 km/h
119 04-05-2010 22:00:00 7.86 C 4.24 g/m*3 7.86 C 0 km/h
120 04-05-2010 23:00:00 7.28 C 4.06 g/m*3 7.28 C 0 km/h
121 05-05-2010 00:00:00 6.32 C 4.21 g/m*3 6.32 C 0 km/h
122 05-05-2010 01:00:00 5.48 C 4.35 g/m*3 5.48 C 0 km/h
123 05-05-2010 02:00:00 5.54 C 4.17 g/m*3 5.54 C 0 km/h
124 05-05-2010 03:00:00 4.74 C 4.14 g/m*3 4.74 C 0 km/h
125 05-05-2010 04:00:00 3.9 C 4.04 g/m*3 3.9 C 0 km/h
Sensor: Nr:Datum:Temp:Abs-Feuchte:Windchill:Wind:
Aussen-T/F 126 05-05-2010 05:00:00 3.48 C 3.91 g/m*3 3.48 C 0 km/h
127 05-05-2010 06:00:00 2.68 C 3.99 g/m*3 2.68 C 0 km/h
128 05-05-2010 07:00:00 2.88 C 4.27 g/m*3 2.88 C 0 km/h
129 05-05-2010 08:00:00 4.6 C 4.22 g/m*3 4.6 C 0 km/h
130 05-05-2010 09:00:00 7.04 C 3.85 g/m*3 7.04 C 0 km/h
131 05-05-2010 10:00:00 9.16 C 3.31 g/m*3 9.16 C 0 km/h
132 05-05-2010 11:00:00 11.34 C 2.76 g/m*3 11.34 C 0 km/h
133 05-05-2010 12:00:00 13.72 C 2.37 g/m*3 13.72 C 0 km/h
134 05-05-2010 13:00:00 16.54 C 2.82 g/m*3 16.54 C 0 km/h
135 05-05-2010 14:00:00 17.06 C 2.9 g/m*3 17.06 C 0 km/h
136 05-05-2010 15:00:00 18.1 C 3.09 g/m*3 18.1 C 0 km/h
137 05-05-2010 16:00:00 17.76 C 3.03 g/m*3 17.76 C 0 km/h
138 05-05-2010 17:00:00 15.68 C 2.67 g/m*3 15.68 C 0 km/h
139 05-05-2010 18:00:00 14.2 C 2.44 g/m*3 14.2 C 0 km/h
140 05-05-2010 19:00:00 13.44 C 2.35 g/m*3 13.44 C 0 km/h
141 05-05-2010 20:00:00 12.8 C 2.8 g/m*3 12.8 C 0 km/h
142 05-05-2010 21:00:00 12.34 C 2.87 g/m*3 12.34 C 0 km/h
143 05-05-2010 22:00:00 11.88 C 3.24 g/m*3 11.88 C 0 km/h
144 05-05-2010 23:00:00 11.5 C 3.31 g/m*3 11.5 C 0 km/h
145 06-05-2010 00:00:00 10.84 C 3.82 g/m*3 10.84 C 0 km/h
146 06-05-2010 01:00:00 7.6 C 5.74 g/m*3 7.6 C 0 km/h
147 06-05-2010 02:00:00 6.74 C 6.51 g/m*3 6.74 C 0 km/h
148 06-05-2010 03:00:00 6.74 C 6.9 g/m*3 6.74 C 0 km/h
149 06-05-2010 04:00:00 6.88 C 7.07 g/m*3 6.88 C 0 km/h
150 06-05-2010 05:00:00 6.66 C 7.05 g/m*3 6.66 C 0 km/h
Sensor: Nr:Datum:Temp:Abs-Feuchte:Windchill:Wind:
Aussen-T/F 151 06-05-2010 06:00:00 6.52 C 7 g/m*3 6.52 C 0 km/h
152 06-05-2010 07:00:00 6.38 C 6.99 g/m*3 6.38 C 0 km/h
153 06-05-2010 08:00:00 6.22 C 6.92 g/m*3 6.22 C 0 km/h
154 06-05-2010 09:00:00 6.56 C 7.06 g/m*3 6.56 C 0 km/h
155 06-05-2010 10:00:00 6.84 C 7.16 g/m*3 6.84 C 0 km/h
156 06-05-2010 11:00:00 7.04 C 7.16 g/m*3 7.04 C 0 km/h
157 06-05-2010 12:00:00 7.06 C 7.09 g/m*3 7.06 C 0 km/h
158 06-05-2010 13:00:00 7.42 C 7.2 g/m*3 7.42 C 0 km/h
159 06-05-2010 14:00:00 7.4 C 7.33 g/m*3 7.4 C 0 km/h
160 06-05-2010 15:00:00 7.1 C 7.25 g/m*3 7.1 C 0 km/h
161 06-05-2010 16:00:00 6.54 C 7.01 g/m*3 6.54 C 0 km/h
162 06-05-2010 17:00:00 6.46 C 6.88 g/m*3 6.46 C 0 km/h
163 06-05-2010 18:00:00 5.9 C 6.59 g/m*3 5.9 C 0 km/h
164 06-05-2010 19:00:00 5.82 C 6.6 g/m*3 5.82 C 0 km/h
165 06-05-2010 20:00:00 5.5 C 6.57 g/m*3 5.5 C 0 km/h
166 06-05-2010 21:00:00 5.38 C 6.55 g/m*3 5.38 C 0 km/h
167 06-05-2010 22:00:00 5.4 C 6.63 g/m*3 5.4 C 0 km/h
168 06-05-2010 23:00:00 5.36 C 6.61 g/m*3 5.36 C 0 km/h
169 07-05-2010 00:00:00 5.4 C 6.63 g/m*3 5.4 C 0 km/h
170 07-05-2010 01:00:00 5.4 C 6.63 g/m*3 5.4 C 0 km/h
171 07-05-2010 02:00:00 5.4 C 6.63 g/m*3 5.4 C 0 km/h
172 07-05-2010 03:00:00 5.32 C 6.59 g/m*3 5.32 C 0 km/h
173 07-05-2010 04:00:00 5.18 C 6.53 g/m*3 5.18 C 0 km/h
174 07-05-2010 05:00:00 4.88 C 6.4 g/m*3 4.88 C 0 km/h
175 07-05-2010 06:00:00 4.6 C 6.29 g/m*3 4.6 C 0 km/h
Sensor: Nr:Datum:Temp:Abs-Feuchte:Windchill:Wind:
Aussen-T/F 176 07-05-2010 07:00:00 4.68 C 6.32 g/m*3 4.68 C 0 km/h
177 07-05-2010 08:00:00 4.82 C 6.35 g/m*3 4.82 C 0 km/h
178 07-05-2010 09:00:00 4.86 C 6.17 g/m*3 4.86 C 0 km/h
179 07-05-2010 10:00:00 5.52 C 6.17 g/m*3 5.52 C 0 km/h
180 07-05-2010 11:00:00 7.02 C 6.66 g/m*3 7.02 C 0 km/h
181 07-05-2010 12:00:00 7.14 C 6.35 g/m*3 7.14 C 0 km/h
182 07-05-2010 13:00:00 7.8 C 6.51 g/m*3 7.8 C 0 km/h
183 07-05-2010 14:00:00 8.42 C 6.81 g/m*3 8.42 C 0 km/h
184 07-05-2010 15:00:00 8.2 C 6.82 g/m*3 8.2 C 0 km/h
185 07-05-2010 16:00:00 9.16 C 6.93 g/m*3 9.16 C 0 km/h
186 07-05-2010 17:00:00 9.42 C 7.08 g/m*3 9.42 C 0 km/h
187 07-05-2010 18:00:00 9.14 C 7.03 g/m*3 9.14 C 0 km/h
188 07-05-2010 19:00:00 7.9 C 7.06 g/m*3 7.9 C 0 km/h
189 07-05-2010 20:00:00 7.16 C 7.06 g/m*3 7.16 C 0 km/h
190 07-05-2010 21:00:00 6.68 C 7.03 g/m*3 6.68 C 0 km/h
191 07-05-2010 22:00:00 5.8 C 6.68 g/m*3 5.8 C 0 km/h
192 07-05-2010 23:00:00 5.96 C 6.82 g/m*3 5.96 C 0 km/h
193 08-05-2010 00:00:00 5.9 C 6.78 g/m*3 5.9 C 0 km/h
194 08-05-2010 01:00:00 4.96 C 6.38 g/m*3 4.96 C 0 km/h
195 08-05-2010 02:00:00 4.5 C 6.23 g/m*3 4.5 C 0 km/h
196 08-05-2010 03:00:00 4.6 C 6.29 g/m*3 4.6 C 0 km/h
197 08-05-2010 04:00:00 4.34 C 6.18 g/m*3 4.34 C 0 km/h
198 08-05-2010 05:00:00 4.34 C 6.18 g/m*3 4.34 C 0 km/h
199 08-05-2010 06:00:00 4.66 C 6.31 g/m*3 4.66 C 0 km/h
200 08-05-2010 07:00:00 5.22 C 6.55 g/m*3 5.22 C 0 km/h
Sensor: Nr:Datum:Temp:Abs-Feuchte:Windchill:Wind:
Aussen-T/F 201 08-05-2010 08:00:00 6.08 C 6.63 g/m*3 6.08 C 0 km/h
202 08-05-2010 09:00:00 8.26 C 6.96 g/m*3 8.26 C 0 km/h
203 08-05-2010 10:00:00 9.66 C 6.82 g/m*3 9.66 C 0 km/h
204 08-05-2010 11:00:00 13.06 C 6.76 g/m*3 13.06 C 0 km/h
205 08-05-2010 12:00:00 15.24 C 5.07 g/m*3 15.24 C 0 km/h
206 08-05-2010 13:00:00 16.84 C 5.22 g/m*3 16.84 C 0 km/h
207 08-05-2010 14:00:00 15.62 C 4.23 g/m*3 15.62 C 0 km/h
208 08-05-2010 15:00:00 15.92 C 4.37 g/m*3 15.92 C 0 km/h
209 08-05-2010 16:00:00 16.9 C 4.4 g/m*3 16.9 C 0 km/h
210 08-05-2010 17:00:00 18 C 4.18 g/m*3 18 C 0 km/h
211 08-05-2010 18:00:00 19.56 C 4.11 g/m*3 19.56 C 0 km/h
212 08-05-2010 19:00:00 18.28 C 4.31 g/m*3 18.28 C 0 km/h
213 08-05-2010 20:00:00 15.78 C 5.97 g/m*3 15.78 C 0 km/h
214 08-05-2010 21:00:00 13.44 C 6.11 g/m*3 13.44 C 0 km/h
215 08-05-2010 22:00:00 11.96 C 6.08 g/m*3 11.96 C 0 km/h
216 08-05-2010 23:00:00 11.06 C 6.25 g/m*3 11.06 C 0 km/h
217 09-05-2010 00:00:00 9.8 C 6.42 g/m*3 9.8 C 0 km/h
218 09-05-2010 01:00:00 8.82 C 6.48 g/m*3 8.82 C 0 km/h
219 09-05-2010 02:00:00 8.62 C 6.63 g/m*3 8.62 C 0 km/h
220 09-05-2010 03:00:00 8.46 C 6.64 g/m*3 8.46 C 0 km/h
221 09-05-2010 04:00:00 8.5 C 6.66 g/m*3 8.5 C 0 km/h
222 09-05-2010 05:00:00 7.64 C 6.51 g/m*3 7.64 C 0 km/h
223 09-05-2010 06:00:00 7.98 C 6.75 g/m*3 7.98 C 0 km/h
224 09-05-2010 07:00:00 8.8 C 6.88 g/m*3 8.8 C 0 km/h
225 09-05-2010 08:00:00 9.84 C 6.98 g/m*3 9.84 C 0 km/h
Sensor: Nr:Datum:Temp:Abs-Feuchte:Windchill:Wind:
Aussen-T/F 226 09-05-2010 09:00:00 11.3 C 7.04 g/m*3 11.3 C 0 km/h
227 09-05-2010 10:00:00 12.3 C 7.25 g/m*3 12.3 C 0 km/h
228 09-05-2010 11:00:00 12.28 C 7.4 g/m*3 12.28 C 0 km/h
229 09-05-2010 12:00:00 13.42 C 7.26 g/m*3 13.42 C 0 km/h
230 09-05-2010 13:00:00 17.02 C 6.66 g/m*3 17.02 C 0 km/h
231 09-05-2010 14:00:00 17.16 C 6.14 g/m*3 17.16 C 0 km/h
232 09-05-2010 15:00:00 17.52 C 6.3 g/m*3 17.52 C 0 km/h
233 09-05-2010 16:00:00 18.5 C 6.14 g/m*3 18.5 C 0 km/h
234 09-05-2010 17:00:00 19.08 C 5.44 g/m*3 19.08 C 0 km/h
235 09-05-2010 18:00:00 18.7 C 5.8 g/m*3 18.7 C 0 km/h
236 09-05-2010 19:00:00 16.88 C 6.84 g/m*3 16.88 C 0 km/h
237 09-05-2010 20:00:00 14.82 C 6.87 g/m*3 14.82 C 0 km/h
238 09-05-2010 21:00:00 12.5 C 7.08 g/m*3 12.5 C 0 km/h
239 09-05-2010 22:00:00 11.12 C 7.06 g/m*3 11.12 C 0 km/h
240 09-05-2010 23:00:00 10.74 C 7.11 g/m*3 10.74 C 0 km/h
241 10-05-2010 00:00:00 10.22 C 7.15 g/m*3 10.22 C 0 km/h
242 10-05-2010 01:00:00 9.86 C 7.28 g/m*3 9.86 C 0 km/h
243 10-05-2010 02:00:00 9.48 C 7.24 g/m*3 9.48 C 0 km/h
244 10-05-2010 03:00:00 8.88 C 7.19 g/m*3 8.88 C 0 km/h
245 10-05-2010 04:00:00 8.62 C 7.26 g/m*3 8.62 C 0 km/h
246 10-05-2010 05:00:00 8.66 C 7.28 g/m*3 8.66 C 0 km/h
247 10-05-2010 06:00:00 8.82 C 7.3 g/m*3 8.82 C 0 km/h
248 10-05-2010 07:00:00 9.62 C 7.58 g/m*3 9.62 C 0 km/h
249 10-05-2010 08:00:00 10.64 C 7.59 g/m*3 10.64 C 0 km/h
250 10-05-2010 09:00:00 10.88 C 7.27 g/m*3 10.88 C 0 km/h
Sensor: Nr:Datum:Temp:Abs-Feuchte:Windchill:Wind:
Aussen-T/F 251 10-05-2010 10:00:00 11.34 C 7.1 g/m*3 11.34 C 0 km/h
252 10-05-2010 11:00:00 11.5 C 7.09 g/m*3 11.5 C 0 km/h
253 10-05-2010 12:00:00 12.6 C 6.95 g/m*3 12.6 C 0 km/h
254 10-05-2010 13:00:00 14.48 C 6.34 g/m*3 14.48 C 0 km/h
255 10-05-2010 14:00:00 15 C 5.98 g/m*3 15 C 0 km/h
256 10-05-2010 15:00:00 15.1 C 5.78 g/m*3 15.1 C 0 km/h
257 10-05-2010 16:00:00 15.84 C 5.56 g/m*3 15.84 C 0 km/h
258 10-05-2010 17:00:00 15.78 C 5.38 g/m*3 15.78 C 0 km/h
259 10-05-2010 18:00:00 16.84 C 4.9 g/m*3 16.84 C 0 km/h
260 10-05-2010 19:00:00 15.02 C 4.96 g/m*3 15.02 C 0 km/h
261 10-05-2010 20:00:00 14.02 C 5.05 g/m*3 14.02 C 0 km/h
262 10-05-2010 21:00:00 12.02 C 5.46 g/m*3 12.02 C 0 km/h
263 10-05-2010 22:00:00 11.42 C 5.63 g/m*3 11.42 C 0 km/h
264 10-05-2010 23:00:00 11.34 C 5.81 g/m*3 11.34 C 0 km/h
265 11-05-2010 00:00:00 10.88 C 5.76 g/m*3 10.88 C 0 km/h
266 11-05-2010 01:00:00 10.42 C 5.93 g/m*3 10.42 C 0 km/h
267 11-05-2010 02:00:00 10.1 C 6.03 g/m*3 10.1 C 0 km/h
268 11-05-2010 03:00:00 9.78 C 6.15 g/m*3 9.78 C 0 km/h
269 11-05-2010 04:00:00 9.46 C 6.16 g/m*3 9.46 C 0 km/h
270 11-05-2010 05:00:00 9.38 C 6.16 g/m*3 9.38 C 0 km/h
271 11-05-2010 06:00:00 9.24 C 6.16 g/m*3 9.24 C 0 km/h
272 11-05-2010 07:00:00 9.6 C 6.32 g/m*3 9.6 C 0 km/h
273 11-05-2010 08:00:00 10.9 C 6.27 g/m*3 10.9 C 0 km/h
274 11-05-2010 09:00:00 12.16 C 6.03 g/m*3 12.16 C 0 km/h
275 11-05-2010 10:00:00 12.58 C 6.05 g/m*3 12.58 C 0 km/h
Sensor: Nr:Datum:Temp:Abs-Feuchte:Windchill:Wind:
Aussen-T/F 276 11-05-2010 11:00:00 12.52 C 6.19 g/m*3 12.52 C 0 km/h
277 11-05-2010 12:00:00 14.2 C 6.15 g/m*3 14.2 C 0 km/h
278 11-05-2010 13:00:00 13.74 C 6.27 g/m*3 13.74 C 0 km/h
279 11-05-2010 14:00:00 14.04 C 6.41 g/m*3 14.04 C 0 km/h
280 11-05-2010 15:00:00 14.4 C 6.43 g/m*3 14.4 C 0 km/h
281 11-05-2010 16:00:00 15.24 C 6.58 g/m*3 15.24 C 0 km/h
282 11-05-2010 17:00:00 14.84 C 6.73 g/m*3 14.84 C 0 km/h
283 11-05-2010 18:00:00 12.88 C 7.61 g/m*3 12.88 C 0 km/h
284 11-05-2010 19:00:00 10.94 C 8.32 g/m*3 10.94 C 0 km/h
285 11-05-2010 20:00:00 10.12 C 8.45 g/m*3 10.12 C 0 km/h
286 11-05-2010 21:00:00 9.86 C 8.61 g/m*3 9.86 C 0 km/h
287 11-05-2010 22:00:00 9.68 C 8.62 g/m*3 9.68 C 0 km/h
288 11-05-2010 23:00:00 9.8 C 8.72 g/m*3 9.8 C 0 km/h
289 12-05-2010 00:00:00 9.32 C 8.46 g/m*3 9.32 C 0 km/h
290 12-05-2010 01:00:00 8.52 C 8.07 g/m*3 8.52 C 0 km/h
291 12-05-2010 02:00:00 7.72 C 7.7 g/m*3 7.72 C 0 km/h
292 12-05-2010 03:00:00 7.12 C 7.32 g/m*3 7.12 C 0 km/h
293 12-05-2010 04:00:00 6.88 C 7 g/m*3 6.88 C 0 km/h
294 12-05-2010 05:00:00 6.8 C 6.67 g/m*3 6.8 C 0 km/h
295 12-05-2010 06:00:00 6.78 C 6.57 g/m*3 6.78 C 0 km/h
296 12-05-2010 07:00:00 7.08 C 6.62 g/m*3 7.08 C 0 km/h
297 12-05-2010 08:00:00 7.64 C 6.54 g/m*3 7.64 C 0 km/h
298 12-05-2010 09:00:00 8.28 C 6.23 g/m*3 8.28 C 0 km/h
299 12-05-2010 10:00:00 8.6 C 5.98 g/m*3 8.6 C 0 km/h
300 12-05-2010 11:00:00 9.18 C 5.71 g/m*3 9.18 C 0 km/h
Sensor: Nr:Datum:Temp:Abs-Feuchte:Windchill:Wind:
Aussen-T/F 301 12-05-2010 12:00:00 10.06 C 5.43 g/m*3 10.06 C 0 km/h
302 12-05-2010 13:00:00 10.68 C 5.3 g/m*3 10.68 C 0 km/h
303 12-05-2010 14:00:00 10.52 C 5.13 g/m*3 10.52 C 0 km/h
304 12-05-2010 15:00:00 10.84 C 5.01 g/m*3 10.84 C 0 km/h
305 12-05-2010 16:00:00 10.52 C 5.24 g/m*3 10.52 C 0 km/h
306 12-05-2010 17:00:00 9.74 C 5.29 g/m*3 9.74 C 0 km/h
307 12-05-2010 18:00:00 9.22 C 5.45 g/m*3 9.22 C 0 km/h
308 12-05-2010 19:00:00 8.9 C 5.69 g/m*3 8.9 C 0 km/h
309 12-05-2010 20:00:00 8.56 C 5.85 g/m*3 8.56 C 0 km/h
310 12-05-2010 21:00:00 8.44 C 6 g/m*3 8.44 C 0 km/h
311 12-05-2010 22:00:00 7.76 C 6.41 g/m*3 7.76 C 0 km/h
312 12-05-2010 23:00:00 7.8 C 6.68 g/m*3 7.8 C 0 km/h
313 13-05-2010 00:00:00 7.58 C 6.47 g/m*3 7.58 C 0 km/h
314 13-05-2010 01:00:00 7.34 C 6.51 g/m*3 7.34 C 0 km/h
315 13-05-2010 02:00:00 7.42 C 6.58 g/m*3 7.42 C 0 km/h
316 13-05-2010 03:00:00 7.3 C 6.51 g/m*3 7.3 C 0 km/h
317 13-05-2010 04:00:00 7 C 6.59 g/m*3 7 C 0 km/h
318 13-05-2010 05:00:00 6.76 C 6.65 g/m*3 6.76 C 0 km/h
319 13-05-2010 06:00:00 6.64 C 6.66 g/m*3 6.64 C 0 km/h
320 13-05-2010 07:00:00 6.8 C 6.7 g/m*3 6.8 C 0 km/h
321 13-05-2010 08:00:00 6.94 C 6.27 g/m*3 6.94 C 0 km/h
322 13-05-2010 09:00:00 7.94 C 6 g/m*3 7.94 C 0 km/h
323 13-05-2010 10:00:00 9.46 C 5.43 g/m*3 9.46 C 0 km/h
324 13-05-2010 11:00:00 9.9 C 5.06 g/m*3 9.9 C 0 km/h
325 13-05-2010 12:00:00 10.06 C 4.85 g/m*3 10.06 C 0 km/h
Sensor: Nr:Datum:Temp:Abs-Feuchte:Windchill:Wind:
Aussen-T/F 326 13-05-2010 13:00:00 9.74 C 4.99 g/m*3 9.74 C 0 km/h
327 13-05-2010 14:00:00 10.6 C 5.02 g/m*3 10.6 C 0 km/h
328 13-05-2010 15:00:00 10.1 C 4.99 g/m*3 10.1 C 0 km/h
329 13-05-2010 16:00:00 8.66 C 6.02 g/m*3 8.66 C 0 km/h
330 13-05-2010 17:00:00 8.22 C 6.37 g/m*3 8.22 C 0 km/h
331 13-05-2010 18:00:00 8.56 C 6.91 g/m*3 8.56 C 0 km/h
332 13-05-2010 19:00:00 7.4 C 6.78 g/m*3 7.4 C 0 km/h
333 13-05-2010 20:00:00 7.44 C 6.98 g/m*3 7.44 C 0 km/h
334 13-05-2010 21:00:00 7.44 C 7.11 g/m*3 7.44 C 0 km/h
335 13-05-2010 22:00:00 7.3 C 7.11 g/m*3 7.3 C 0 km/h
336 13-05-2010 23:00:00 7.24 C 7.13 g/m*3 7.24 C 0 km/h
337 14-05-2010 00:00:00 6.96 C 7.16 g/m*3 6.96 C 0 km/h
338 14-05-2010 01:00:00 7.04 C 7.24 g/m*3 7.04 C 0 km/h
339 14-05-2010 02:00:00 7 C 7.24 g/m*3 7 C 0 km/h
340 14-05-2010 03:00:00 6.98 C 7.27 g/m*3 6.98 C 0 km/h
341 14-05-2010 04:00:00 6.94 C 7.26 g/m*3 6.94 C 0 km/h
342 14-05-2010 05:00:00 6.88 C 7.26 g/m*3 6.88 C 0 km/h
343 14-05-2010 06:00:00 7.1 C 7.33 g/m*3 7.1 C 0 km/h
344 14-05-2010 07:00:00 7.4 C 7.38 g/m*3 7.4 C 0 km/h
345 14-05-2010 08:00:00 7.92 C 7.35 g/m*3 7.92 C 0 km/h
346 14-05-2010 09:00:00 8.18 C 7.18 g/m*3 8.18 C 0 km/h
347 14-05-2010 10:00:00 9.58 C 7.19 g/m*3 9.58 C 0 km/h
348 14-05-2010 11:00:00 10.38 C 6.76 g/m*3 10.38 C 0 km/h
349 14-05-2010 12:00:00 9.16 C 6.89 g/m*3 9.16 C 0 km/h
350 14-05-2010 13:00:00 9.46 C 7.59 g/m*3 9.46 C 0 km/h
Sensor: Nr:Datum:Temp:Abs-Feuchte:Windchill:Wind:
Aussen-T/F 351 14-05-2010 14:00:00 9.58 C 7.74 g/m*3 9.58 C 0 km/h
352 14-05-2010 15:00:00 11.86 C 7.61 g/m*3 11.86 C 0 km/h
353 14-05-2010 16:00:00 12.98 C 6.77 g/m*3 12.98 C 0 km/h
354 14-05-2010 17:00:00 11.54 C 6.61 g/m*3 11.54 C 0 km/h
355 14-05-2010 18:00:00 11.56 C 6.76 g/m*3 11.56 C 0 km/h
356 14-05-2010 19:00:00 10.46 C 7 g/m*3 10.46 C 0 km/h
357 14-05-2010 20:00:00 9.94 C 6.93 g/m*3 9.94 C 0 km/h
358 14-05-2010 21:00:00 9.14 C 6.87 g/m*3 9.14 C 0 km/h
359 14-05-2010 22:00:00 9.08 C 7.07 g/m*3 9.08 C 0 km/h
360 14-05-2010 23:00:00 8.24 C 7.17 g/m*3 8.24 C 0 km/h
361 15-05-2010 00:00:00 7.9 C 7.2 g/m*3 7.9 C 0 km/h
362 15-05-2010 01:00:00 7.7 C 7.14 g/m*3 7.7 C 0 km/h
363 15-05-2010 02:00:00 7.64 C 7.17 g/m*3 7.64 C 0 km/h
364 15-05-2010 03:00:00 7.6 C 7.22 g/m*3 7.6 C 0 km/h
365 15-05-2010 04:00:00 7.6 C 7.25 g/m*3 7.6 C 0 km/h
366 15-05-2010 05:00:00 7.26 C 7.17 g/m*3 7.26 C 0 km/h
367 15-05-2010 06:00:00 7.1 C 7.14 g/m*3 7.1 C 0 km/h
368 15-05-2010 07:00:00 7.6 C 7.4 g/m*3 7.6 C 0 km/h
369 15-05-2010 08:00:00 8.48 C 7.26 g/m*3 8.48 C 0 km/h
370 15-05-2010 09:00:00 9.48 C 6.82 g/m*3 9.48 C 0 km/h
371 15-05-2010 10:00:00 10.8 C 6.42 g/m*3 10.8 C 0 km/h
372 15-05-2010 11:00:00 11.2 C 6.12 g/m*3 11.2 C 0 km/h
373 15-05-2010 12:00:00 11.64 C 5.44 g/m*3 11.64 C 0 km/h
374 15-05-2010 13:00:00 12.06 C 4.84 g/m*3 12.06 C 0 km/h
375 15-05-2010 14:00:00 14.26 C 4.19 g/m*3 14.26 C 0 km/h
Sensor: Nr:Datum:Temp:Abs-Feuchte:Windchill:Wind:
Aussen-T/F 376 15-05-2010 15:00:00 15.5 C 3.01 g/m*3 15.5 C 0 km/h
377 15-05-2010 16:00:00 14.78 C 2.76 g/m*3 14.78 C 0 km/h
378 15-05-2010 17:00:00 14 C 3.16 g/m*3 14 C 0 km/h
379 15-05-2010 18:00:00 13.82 C 3.46 g/m*3 13.82 C 0 km/h
380 15-05-2010 19:00:00 14.58 C 3.4 g/m*3 14.58 C 0 km/h
381 15-05-2010 20:00:00 12.5 C 4.49 g/m*3 12.5 C 0 km/h
382 15-05-2010 21:00:00 10.98 C 4.68 g/m*3 10.98 C 0 km/h
383 15-05-2010 22:00:00 11.06 C 4.82 g/m*3 11.06 C 0 km/h
384 15-05-2010 23:00:00 10.84 C 4.97 g/m*3 10.84 C 0 km/h
385 16-05-2010 00:00:00 10.1 C 5.33 g/m*3 10.1 C 0 km/h
386 16-05-2010 01:00:00 9.34 C 5.68 g/m*3 9.34 C 0 km/h
387 16-05-2010 02:00:00 8.04 C 5.88 g/m*3 8.04 C 0 km/h
388 16-05-2010 03:00:00 7.48 C 5.9 g/m*3 7.48 C 0 km/h
389 16-05-2010 04:00:00 7.6 C 5.95 g/m*3 7.6 C 0 km/h
390 16-05-2010 05:00:00 7.3 C 5.93 g/m*3 7.3 C 0 km/h
391 16-05-2010 06:00:00 7.42 C 5.99 g/m*3 7.42 C 0 km/h
392 16-05-2010 07:00:00 7.84 C 6.07 g/m*3 7.84 C 0 km/h
393 16-05-2010 08:00:00 8.72 C 6.1 g/m*3 8.72 C 0 km/h
394 16-05-2010 09:00:00 10.96 C 4.87 g/m*3 10.96 C 0 km/h
395 16-05-2010 10:00:00 12.56 C 4.19 g/m*3 12.56 C 0 km/h
396 16-05-2010 11:00:00 14.84 C 3.99 g/m*3 14.84 C 0 km/h
397 16-05-2010 12:00:00 16.64 C 3.6 g/m*3 16.64 C 0 km/h
398 16-05-2010 13:00:00 17.66 C 3.52 g/m*3 17.66 C 0 km/h
399 16-05-2010 14:00:00 17.92 C 3.55 g/m*3 17.92 C 0 km/h
400 16-05-2010 15:00:00 19.5 C 3.36 g/m*3 19.5 C 0 km/h
Sensor: Nr:Datum:Temp:Abs-Feuchte:Windchill:Wind:
Aussen-T/F 401 16-05-2010 16:00:00 20.54 C 3.57 g/m*3 20.54 C 0 km/h
402 16-05-2010 17:00:00 21.3 C 3.73 g/m*3 21.3 C 0 km/h
403 16-05-2010 18:00:00 19.82 C 3.52 g/m*3 19.82 C 0 km/h
404 16-05-2010 19:00:00 18.86 C 3.68 g/m*3 18.86 C 0 km/h
405 16-05-2010 20:00:00 17.96 C 4.47 g/m*3 17.96 C 0 km/h
406 16-05-2010 21:00:00 14.28 C 4.81 g/m*3 14.28 C 0 km/h
407 16-05-2010 22:00:00 12.36 C 5.34 g/m*3 12.36 C 0 km/h
408 16-05-2010 23:00:00 10.86 C 5.81 g/m*3 10.86 C 0 km/h
409 17-05-2010 00:00:00 10.12 C 5.96 g/m*3 10.12 C 0 km/h
410 17-05-2010 01:00:00 9.36 C 5.99 g/m*3 9.36 C 0 km/h
411 17-05-2010 02:00:00 8.56 C 6.14 g/m*3 8.56 C 0 km/h
412 17-05-2010 03:00:00 7.64 C 6.12 g/m*3 7.64 C 0 km/h
413 17-05-2010 04:00:00 6.96 C 6.11 g/m*3 6.96 C 0 km/h
414 17-05-2010 05:00:00 6.22 C 6.08 g/m*3 6.22 C 0 km/h
415 17-05-2010 06:00:00 6 C 6.05 g/m*3 6 C 0 km/h
416 17-05-2010 07:00:00 7.08 C 6.18 g/m*3 7.08 C 0 km/h
417 17-05-2010 08:00:00 9.42 C 6.28 g/m*3 9.42 C 0 km/h
418 17-05-2010 09:00:00 11.88 C 6.43 g/m*3 11.88 C 0 km/h
419 17-05-2010 10:00:00 13.7 C 6.39 g/m*3 13.7 C 0 km/h
420 17-05-2010 11:00:00 13.6 C 6.87 g/m*3 13.6 C 0 km/h
421 17-05-2010 12:00:00 13.88 C 7.45 g/m*3 13.88 C 0 km/h
422 17-05-2010 13:00:00 16.62 C 6.68 g/m*3 16.62 C 0 km/h
423 17-05-2010 14:00:00 15.88 C 6.98 g/m*3 15.88 C 0 km/h
424 17-05-2010 15:00:00 12.66 C 9.22 g/m*3 12.66 C 0 km/h
425 17-05-2010 16:00:00 13.44 C 9.46 g/m*3 13.44 C 0 km/h
Sensor: Nr:Datum:Temp:Abs-Feuchte:Windchill:Wind:
Aussen-T/F 426 17-05-2010 17:00:00 13.86 C 8.92 g/m*3 13.86 C 0 km/h
427 17-05-2010 18:00:00 12.1 C 7.59 g/m*3 12.1 C 0 km/h
428 17-05-2010 19:00:00 10.04 C 7.8 g/m*3 10.04 C 0 km/h
429 17-05-2010 20:00:00 9.46 C 7.86 g/m*3 9.46 C 0 km/h
430 17-05-2010 21:00:00 8.88 C 7.82 g/m*3 8.88 C 0 km/h
431 17-05-2010 22:00:00 8.5 C 7.82 g/m*3 8.5 C 0 km/h
432 17-05-2010 23:00:00 7.8 C 7.52 g/m*3 7.8 C 0 km/h
433 18-05-2010 00:00:00 7.08 C 7.18 g/m*3 7.08 C 0 km/h
434 18-05-2010 01:00:00 6.46 C 6.94 g/m*3 6.46 C 0 km/h
435 18-05-2010 02:00:00 6.1 C 6.79 g/m*3 6.1 C 0 km/h
436 18-05-2010 03:00:00 5.8 C 6.69 g/m*3 5.8 C 0 km/h
437 18-05-2010 04:00:00 6.28 C 6.93 g/m*3 6.28 C 0 km/h
438 18-05-2010 05:00:00 6.5 C 7 g/m*3 6.5 C 0 km/h
439 18-05-2010 06:00:00 7.14 C 7.21 g/m*3 7.14 C 0 km/h
440 18-05-2010 07:00:00 8.2 C 7.47 g/m*3 8.2 C 0 km/h
441 18-05-2010 08:00:00 9.04 C 6.68 g/m*3 9.04 C 0 km/h
442 18-05-2010 09:00:00 9.7 C 6.27 g/m*3 9.7 C 0 km/h
443 18-05-2010 10:00:00 10.84 C 5.79 g/m*3 10.84 C 0 km/h
444 18-05-2010 11:00:00 12.74 C 5.31 g/m*3 12.74 C 0 km/h
445 18-05-2010 12:00:00 14.04 C 4.93 g/m*3 14.04 C 0 km/h
446 18-05-2010 13:00:00 16.76 C 4.48 g/m*3 16.76 C 0 km/h
447 18-05-2010 14:00:00 15.6 C 4.2 g/m*3 15.6 C 0 km/h
448 18-05-2010 15:00:00 16.48 C 4.15 g/m*3 16.48 C 0 km/h
449 18-05-2010 16:00:00 17.74 C 3.51 g/m*3 17.74 C 0 km/h
450 18-05-2010 17:00:00 17.16 C 3.77 g/m*3 17.16 C 0 km/h
Sensor: Nr:Datum:Temp:Abs-Feuchte:Windchill:Wind:
Aussen-T/F 451 18-05-2010 18:00:00 17.18 C 3.95 g/m*3 17.18 C 0 km/h
452 18-05-2010 19:00:00 15.32 C 4.45 g/m*3 15.32 C 0 km/h
453 18-05-2010 20:00:00 14.26 C 4.83 g/m*3 14.26 C 0 km/h
454 18-05-2010 21:00:00 12.8 C 4.68 g/m*3 12.8 C 0 km/h
455 18-05-2010 22:00:00 11.44 C 4.57 g/m*3 11.44 C 0 km/h
456 18-05-2010 23:00:00 9.98 C 5.41 g/m*3 9.98 C 0 km/h
457 19-05-2010 00:00:00 9.32 C 5.76 g/m*3 9.32 C 0 km/h
458 19-05-2010 01:00:00 9.28 C 5.37 g/m*3 9.28 C 0 km/h
459 19-05-2010 02:00:00 9.06 C 5.33 g/m*3 9.06 C 0 km/h
460 19-05-2010 03:00:00 8.68 C 5.36 g/m*3 8.68 C 0 km/h
461 19-05-2010 04:00:00 8.16 C 5.55 g/m*3 8.16 C 0 km/h
462 19-05-2010 05:00:00 7.92 C 5.86 g/m*3 7.92 C 0 km/h
463 19-05-2010 06:00:00 8.04 C 5.93 g/m*3 8.04 C 0 km/h
464 19-05-2010 07:00:00 8.66 C 5.9 g/m*3 8.66 C 0 km/h
465 19-05-2010 08:00:00 9.14 C 5.62 g/m*3 9.14 C 0 km/h
466 19-05-2010 09:00:00 9.18 C 5.73 g/m*3 9.18 C 0 km/h
467 19-05-2010 10:00:00 9.62 C 5.72 g/m*3 9.62 C 0 km/h
468 19-05-2010 11:00:00 10.22 C 5.81 g/m*3 10.22 C 0 km/h
469 19-05-2010 12:00:00 11.02 C 5.83 g/m*3 11.02 C 0 km/h
470 19-05-2010 13:00:00 11.54 C 5.92 g/m*3 11.54 C 0 km/h
471 19-05-2010 14:00:00 11.46 C 6.78 g/m*3 11.46 C 0 km/h
472 19-05-2010 15:00:00 11.4 C 7.76 g/m*3 11.4 C 0 km/h
473 19-05-2010 16:00:00 10.78 C 8.08 g/m*3 10.78 C 0 km/h
474 19-05-2010 17:00:00 10.68 C 8.32 g/m*3 10.68 C 0 km/h
475 19-05-2010 18:00:00 11.14 C 8.22 g/m*3 11.14 C 0 km/h
Sensor: Nr:Datum:Temp:Abs-Feuchte:Windchill:Wind:
Aussen-T/F 476 19-05-2010 19:00:00 11.48 C 8.03 g/m*3 11.48 C 0 km/h
477 19-05-2010 20:00:00 11.76 C 7.73 g/m*3 11.76 C 0 km/h
478 19-05-2010 21:00:00 12.94 C 5.83 g/m*3 12.94 C 0 km/h
479 19-05-2010 22:00:00 13.06 C 5.69 g/m*3 13.06 C 0 km/h
480 19-05-2010 23:00:00 12.8 C 5.82 g/m*3 12.8 C 0 km/h
481 20-05-2010 00:00:00 12.9 C 5.21 g/m*3 12.9 C 0 km/h
482 20-05-2010 01:00:00 12.5 C 5.41 g/m*3 12.5 C 0 km/h
483 20-05-2010 02:00:00 11.9 C 5.61 g/m*3 11.9 C 0 km/h
484 20-05-2010 03:00:00 11.52 C 5.5 g/m*3 11.52 C 0 km/h
485 20-05-2010 04:00:00 11.16 C 5.3 g/m*3 11.16 C 0 km/h
486 20-05-2010 05:00:00 11.02 C 5.23 g/m*3 11.02 C 0 km/h
487 20-05-2010 06:00:00 11.02 C 5.19 g/m*3 11.02 C 0 km/h
488 20-05-2010 07:00:00 11.26 C 5.25 g/m*3 11.26 C 0 km/h
489 20-05-2010 08:00:00 11.14 C 5.35 g/m*3 11.14 C 0 km/h
490 20-05-2010 09:00:00 11.82 C 5.42 g/m*3 11.82 C 0 km/h
491 20-05-2010 10:00:00 12.3 C 5.39 g/m*3 12.3 C 0 km/h
492 20-05-2010 11:00:00 13.1 C 5.16 g/m*3 13.1 C 0 km/h
493 20-05-2010 12:00:00 14.04 C 4.89 g/m*3 14.04 C 0 km/h
494 20-05-2010 13:00:00 13.42 C 6.08 g/m*3 13.42 C 0 km/h
495 20-05-2010 14:00:00 13.58 C 7.59 g/m*3 13.58 C 0 km/h
496 20-05-2010 15:00:00 12.74 C 7.68 g/m*3 12.74 C 0 km/h
497 20-05-2010 16:00:00 12.76 C 7.71 g/m*3 12.76 C 0 km/h
498 20-05-2010 17:00:00 14 C 7.74 g/m*3 14 C 0 km/h
499 20-05-2010 18:00:00 14.7 C 7.88 g/m*3 14.7 C 0 km/h
500 20-05-2010 19:00:00 14.8 C 8.18 g/m*3 14.8 C 0 km/h
Sensor: Nr:Datum:Temp:Abs-Feuchte:Windchill:Wind:
Aussen-T/F 501 20-05-2010 20:00:00 14.36 C 7.92 g/m*3 14.36 C 0 km/h
502 20-05-2010 21:00:00 12.98 C 7.61 g/m*3 12.98 C 0 km/h
503 20-05-2010 22:00:00 12.3 C 7.21 g/m*3 12.3 C 0 km/h
504 20-05-2010 23:00:00 11.9 C 7.54 g/m*3 11.9 C 0 km/h
505 21-05-2010 00:00:00 10.64 C 7.3 g/m*3 10.64 C 0 km/h
506 21-05-2010 01:00:00 10.14 C 7.3 g/m*3 10.14 C 0 km/h
507 21-05-2010 02:00:00 9.5 C 7.26 g/m*3 9.5 C 0 km/h
508 21-05-2010 03:00:00 8.62 C 7.26 g/m*3 8.62 C 0 km/h
509 21-05-2010 04:00:00 7.88 C 7.12 g/m*3 7.88 C 0 km/h
510 21-05-2010 05:00:00 8.1 C 7.32 g/m*3 8.1 C 0 km/h
511 21-05-2010 06:00:00 8.08 C 7.43 g/m*3 8.08 C 0 km/h
512 21-05-2010 07:00:00 8.52 C 7.57 g/m*3 8.52 C 0 km/h
513 21-05-2010 08:00:00 9.2 C 7.55 g/m*3 9.2 C 0 km/h
514 21-05-2010 09:00:00 10.82 C 7.9 g/m*3 10.82 C 0 km/h
515 21-05-2010 10:00:00 14.58 C 8.3 g/m*3 14.58 C 0 km/h
516 21-05-2010 11:00:00 18.46 C 7.36 g/m*3 18.46 C 0 km/h
517 21-05-2010 12:00:00 20.54 C 6.03 g/m*3 20.54 C 0 km/h
518 21-05-2010 13:00:00 23.78 C 5.11 g/m*3 23.78 C 0 km/h
519 21-05-2010 14:00:00 23.88 C 5.23 g/m*3 23.88 C 0 km/h
520 21-05-2010 15:00:00 25.42 C 5.14 g/m*3 25.42 C 0 km/h
521 21-05-2010 16:00:00 25.28 C 4.86 g/m*3 25.28 C 0 km/h
522 21-05-2010 17:00:00 26.14 C 4.91 g/m*3 26.14 C 0 km/h
523 21-05-2010 18:00:00 25.94 C 5.05 g/m*3 25.94 C 0 km/h
524 21-05-2010 19:00:00 24.44 C 5.8 g/m*3 24.44 C 0 km/h
525 21-05-2010 20:00:00 22.66 C 6.25 g/m*3 22.66 C 0 km/h
Sensor: Nr:Datum:Temp:Abs-Feuchte:Windchill:Wind:
Aussen-T/F 526 21-05-2010 21:00:00 20.08 C 6.6 g/m*3 20.08 C 0 km/h
527 21-05-2010 22:00:00 18.08 C 7.16 g/m*3 18.08 C 0 km/h
528 21-05-2010 23:00:00 16.26 C 7.28 g/m*3 16.26 C 0 km/h
529 22-05-2010 00:00:00 15.08 C 7.63 g/m*3 15.08 C 0 km/h
530 22-05-2010 01:00:00 13.88 C 7.83 g/m*3 13.88 C 0 km/h
531 22-05-2010 02:00:00 12.74 C 7.92 g/m*3 12.74 C 0 km/h
532 22-05-2010 03:00:00 12 C 7.93 g/m*3 12 C 0 km/h
533 22-05-2010 04:00:00 11.06 C 7.9 g/m*3 11.06 C 0 km/h
534 22-05-2010 05:00:00 10.3 C 7.78 g/m*3 10.3 C 0 km/h
535 22-05-2010 06:00:00 9.96 C 7.74 g/m*3 9.96 C 0 km/h
536 22-05-2010 07:00:00 10.54 C 7.97 g/m*3 10.54 C 0 km/h
537 22-05-2010 08:00:00 12.32 C 7.96 g/m*3 12.32 C 0 km/h
538 22-05-2010 09:00:00 14 C 7.33 g/m*3 14 C 0 km/h
539 22-05-2010 10:00:00 16.16 C 6.3 g/m*3 16.16 C 0 km/h
540 22-05-2010 11:00:00 18.3 C 6.1 g/m*3 18.3 C 0 km/h
541 22-05-2010 12:00:00 21.18 C 5.85 g/m*3 21.18 C 0 km/h
542 22-05-2010 13:00:00 24.24 C 5.6 g/m*3 24.24 C 0 km/h
543 22-05-2010 14:00:00 23.96 C 5.6 g/m*3 23.96 C 0 km/h
544 22-05-2010 15:00:00 25.34 C 5.96 g/m*3 25.34 C 0 km/h
545 22-05-2010 16:00:00 25.9 C 6.15 g/m*3 25.9 C 0 km/h
546 22-05-2010 17:00:00 26.88 C 6.39 g/m*3 26.88 C 0 km/h
547 22-05-2010 18:00:00 26.56 C 6.53 g/m*3 26.56 C 0 km/h
548 22-05-2010 19:00:00 26.3 C 6.68 g/m*3 26.3 C 0 km/h
549 22-05-2010 20:00:00 24.48 C 7.24 g/m*3 24.48 C 0 km/h
550 22-05-2010 21:00:00 21.4 C 7.39 g/m*3 21.4 C 0 km/h
Sensor: Nr:Datum:Temp:Abs-Feuchte:Windchill:Wind:
Aussen-T/F 551 22-05-2010 22:00:00 19.34 C 7.12 g/m*3 19.34 C 0 km/h
552 22-05-2010 23:00:00 17.9 C 7.48 g/m*3 17.9 C 0 km/h
553 23-05-2010 00:00:00 16.64 C 7.84 g/m*3 16.64 C 0 km/h
554 23-05-2010 01:00:00 15.14 C 8.23 g/m*3 15.14 C 0 km/h
555 23-05-2010 02:00:00 14.14 C 8.39 g/m*3 14.14 C 0 km/h
556 23-05-2010 03:00:00 13.42 C 8.5 g/m*3 13.42 C 0 km/h
557 23-05-2010 04:00:00 12.58 C 8.49 g/m*3 12.58 C 0 km/h
558 23-05-2010 05:00:00 11.92 C 8.38 g/m*3 11.92 C 0 km/h
559 23-05-2010 06:00:00 11.52 C 8.34 g/m*3 11.52 C 0 km/h
560 23-05-2010 07:00:00 11.94 C 8.66 g/m*3 11.94 C 0 km/h
561 23-05-2010 08:00:00 13.84 C 9.24 g/m*3 13.84 C 0 km/h
562 23-05-2010 09:00:00 16.18 C 9.28 g/m*3 16.18 C 0 km/h
563 23-05-2010 10:00:00 19.2 C 9.33 g/m*3 19.2 C 0 km/h
564 23-05-2010 11:00:00 20.9 C 8.63 g/m*3 20.9 C 0 km/h
565 23-05-2010 12:00:00 23.64 C 7.03 g/m*3 23.64 C 0 km/h
566 23-05-2010 13:00:00 26.36 C 5.07 g/m*3 26.36 C 0 km/h
567 23-05-2010 14:00:00 26.1 C 5.63 g/m*3 26.1 C 0 km/h
568 23-05-2010 15:00:00 27.88 C 5.78 g/m*3 27.88 C 0 km/h
569 23-05-2010 16:00:00 28.74 C 5.66 g/m*3 28.74 C 0 km/h
570 23-05-2010 17:00:00 29.64 C 6.07 g/m*3 29.64 C 0 km/h
571 23-05-2010 18:00:00 28.82 C 6.6 g/m*3 28.82 C 0 km/h
572 23-05-2010 19:00:00 28.12 C 6.79 g/m*3 28.12 C 0 km/h
573 23-05-2010 20:00:00 26.48 C 7.35 g/m*3 26.48 C 0 km/h
574 23-05-2010 21:00:00 23.54 C 7.8 g/m*3 23.54 C 0 km/h
575 23-05-2010 22:00:00 21.36 C 8.49 g/m*3 21.36 C 0 km/h
Sensor: Nr:Datum:Temp:Abs-Feuchte:Windchill:Wind:
Aussen-T/F 576 23-05-2010 23:00:00 19.6 C 8.95 g/m*3 19.6 C 0 km/h
577 24-05-2010 00:00:00 17.84 C 9.19 g/m*3 17.84 C 0 km/h
578 24-05-2010 01:00:00 16.58 C 9.4 g/m*3 16.58 C 0 km/h
579 24-05-2010 02:00:00 15.46 C 9.44 g/m*3 15.46 C 0 km/h
580 24-05-2010 03:00:00 14.5 C 9.3 g/m*3 14.5 C 0 km/h
581 24-05-2010 04:00:00 13.82 C 9.19 g/m*3 13.82 C 0 km/h
582 24-05-2010 05:00:00 13.12 C 8.87 g/m*3 13.12 C 0 km/h
583 24-05-2010 06:00:00 12.74 C 8.95 g/m*3 12.74 C 0 km/h
584 24-05-2010 07:00:00 13.6 C 9.25 g/m*3 13.6 C 0 km/h
585 24-05-2010 08:00:00 14.88 C 9.52 g/m*3 14.88 C 0 km/h
586 24-05-2010 09:00:00 17.62 C 9.79 g/m*3 17.62 C 0 km/h
587 24-05-2010 10:00:00 21.1 C 9.51 g/m*3 21.1 C 0 km/h
588 24-05-2010 11:00:00 23.82 C 8.79 g/m*3 23.82 C 0 km/h
589 24-05-2010 12:00:00 26.18 C 7.23 g/m*3 26.18 C 0 km/h
590 24-05-2010 13:00:00 26.9 C 6.5 g/m*3 26.9 C 0 km/h
591 24-05-2010 14:00:00 28.28 C 6.41 g/m*3 28.28 C 0 km/h
592 24-05-2010 15:00:00 28.18 C 6.43 g/m*3 28.18 C 0 km/h
593 24-05-2010 16:00:00 27.62 C 6.5 g/m*3 27.62 C 0 km/h
594 24-05-2010 17:00:00 28.2 C 5.66 g/m*3 28.2 C 0 km/h
595 24-05-2010 18:00:00 28.58 C 5.67 g/m*3 28.58 C 0 km/h
596 24-05-2010 19:00:00 28.36 C 5.77 g/m*3 28.36 C 0 km/h
597 24-05-2010 20:00:00 26.64 C 6.61 g/m*3 26.64 C 0 km/h
598 24-05-2010 21:00:00 23.78 C 7.22 g/m*3 23.78 C 0 km/h
599 24-05-2010 22:00:00 21.86 C 7.93 g/m*3 21.86 C 0 km/h
600 24-05-2010 23:00:00 19.86 C 8.3 g/m*3 19.86 C 0 km/h
Sensor: Nr:Datum:Temp:Abs-Feuchte:Windchill:Wind:
Aussen-T/F 601 25-05-2010 00:00:00 18.5 C 8.54 g/m*3 18.5 C 0 km/h
602 25-05-2010 01:00:00 17.18 C 8.86 g/m*3 17.18 C 0 km/h
603 25-05-2010 02:00:00 16 C 8.94 g/m*3 16 C 0 km/h
604 25-05-2010 03:00:00 14.96 C 9.11 g/m*3 14.96 C 0 km/h
605 25-05-2010 04:00:00 14.18 C 9.17 g/m*3 14.18 C 0 km/h
606 25-05-2010 05:00:00 13.9 C 9.11 g/m*3 13.9 C 0 km/h
607 25-05-2010 06:00:00 14.58 C 9.22 g/m*3 14.58 C 0 km/h
608 25-05-2010 07:00:00 15.6 C 9.12 g/m*3 15.6 C 0 km/h
609 25-05-2010 08:00:00 16.78 C 9.14 g/m*3 16.78 C 0 km/h
610 25-05-2010 09:00:00 18.62 C 8.03 g/m*3 18.62 C 0 km/h
611 25-05-2010 10:00:00 20.62 C 6.84 g/m*3 20.62 C 0 km/h
612 25-05-2010 11:00:00 21.64 C 6.46 g/m*3 21.64 C 0 km/h
613 25-05-2010 12:00:00 23.94 C 5.68 g/m*3 23.94 C 0 km/h
614 25-05-2010 13:00:00 26.72 C 5.32 g/m*3 26.72 C 0 km/h
615 25-05-2010 14:00:00 26.32 C 5.55 g/m*3 26.32 C 0 km/h
616 25-05-2010 15:00:00 26.9 C 5.73 g/m*3 26.9 C 0 km/h
617 25-05-2010 16:00:00 27.92 C 5.85 g/m*3 27.92 C 0 km/h
618 25-05-2010 17:00:00 28.06 C 6 g/m*3 28.06 C 0 km/h
619 25-05-2010 18:00:00 26.32 C 5.7 g/m*3 26.32 C 0 km/h
620 25-05-2010 19:00:00 24.46 C 5.94 g/m*3 24.46 C 0 km/h
621 25-05-2010 20:00:00 22.84 C 6.23 g/m*3 22.84 C 0 km/h
622 25-05-2010 21:00:00 21.18 C 6.89 g/m*3 21.18 C 0 km/h
623 25-05-2010 22:00:00 19.44 C 6.89 g/m*3 19.44 C 0 km/h
624 25-05-2010 23:00:00 18.84 C 6.84 g/m*3 18.84 C 0 km/h
625 26-05-2010 00:00:00 18.52 C 6.56 g/m*3 18.52 C 0 km/h
Sensor: Nr:Datum:Temp:Abs-Feuchte:Windchill:Wind:
Aussen-T/F 626 26-05-2010 01:00:00 16.86 C 6.94 g/m*3 16.86 C 0 km/h
627 26-05-2010 02:00:00 14.42 C 8.56 g/m*3 14.42 C 0 km/h
628 26-05-2010 03:00:00 14.6 C 8.43 g/m*3 14.6 C 0 km/h
629 26-05-2010 04:00:00 14.72 C 7.69 g/m*3 14.72 C 0 km/h
630 26-05-2010 05:00:00 14.66 C 7.36 g/m*3 14.66 C 0 km/h
631 26-05-2010 06:00:00 14.68 C 7.8 g/m*3 14.68 C 0 km/h
632 26-05-2010 07:00:00 15.68 C 6.66 g/m*3 15.68 C 0 km/h
633 26-05-2010 08:00:00 15.96 C 6.44 g/m*3 15.96 C 0 km/h
634 26-05-2010 09:00:00 16.68 C 6.47 g/m*3 16.68 C 0 km/h
635 26-05-2010 10:00:00 15.12 C 8.11 g/m*3 15.12 C 0 km/h
636 26-05-2010 11:00:00 13.24 C 9.6 g/m*3 13.24 C 0 km/h
637 26-05-2010 12:00:00 13.1 C 9.86 g/m*3 13.1 C 0 km/h
638 26-05-2010 13:00:00 12.88 C 9.77 g/m*3 12.88 C 0 km/h
639 26-05-2010 14:00:00 15.2 C 9.73 g/m*3 15.2 C 0 km/h
640 26-05-2010 15:00:00 14.76 C 9.83 g/m*3 14.76 C 0 km/h
641 26-05-2010 16:00:00 18.96 C 10.63 g/m*3 18.96 C 0 km/h
642 26-05-2010 17:00:00 16.38 C 11.38 g/m*3 16.38 C 0 km/h
643 26-05-2010 18:00:00 17.22 C 12.64 g/m*3 17.22 C 0 km/h
644 26-05-2010 19:00:00 18.98 C 12.83 g/m*3 18.98 C 0 km/h
645 26-05-2010 20:00:00 16.86 C 11.77 g/m*3 16.86 C 0 km/h
646 26-05-2010 21:00:00 15.2 C 10.64 g/m*3 15.2 C 0 km/h
647 26-05-2010 22:00:00 12.86 C 8.84 g/m*3 12.86 C 0 km/h
648 26-05-2010 23:00:00 12.52 C 8.5 g/m*3 12.52 C 0 km/h
649 27-05-2010 00:00:00 12.36 C 8.39 g/m*3 12.36 C 0 km/h
650 27-05-2010 01:00:00 11.9 C 8.15 g/m*3 11.9 C 0 km/h
Sensor: Nr:Datum:Temp:Abs-Feuchte:Windchill:Wind:
Aussen-T/F 651 27-05-2010 02:00:00 11.24 C 8.11 g/m*3 11.24 C 0 km/h
652 27-05-2010 03:00:00 11.16 C 7.97 g/m*3 11.16 C 0 km/h
653 27-05-2010 04:00:00 10.88 C 7.85 g/m*3 10.88 C 0 km/h
654 27-05-2010 05:00:00 10.74 C 7.78 g/m*3 10.74 C 0 km/h
655 27-05-2010 06:00:00 11 C 7.85 g/m*3 11 C 0 km/h
656 27-05-2010 07:00:00 11.3 C 7.96 g/m*3 11.3 C 0 km/h
657 27-05-2010 08:00:00 11.72 C 8.06 g/m*3 11.72 C 0 km/h
658 27-05-2010 09:00:00 12.02 C 7.79 g/m*3 12.02 C 0 km/h
659 27-05-2010 10:00:00 13.04 C 7.55 g/m*3 13.04 C 0 km/h
660 27-05-2010 11:00:00 14.8 C 7.12 g/m*3 14.8 C 0 km/h
661 27-05-2010 12:00:00 16.14 C 6.73 g/m*3 16.14 C 0 km/h
662 27-05-2010 13:00:00 17.44 C 6.57 g/m*3 17.44 C 0 km/h
663 27-05-2010 14:00:00 20.62 C 6.63 g/m*3 20.62 C 0 km/h
664 27-05-2010 15:00:00 22.3 C 6.4 g/m*3 22.3 C 0 km/h
665 27-05-2010 16:00:00 23.36 C 6.46 g/m*3 23.36 C 0 km/h
666 27-05-2010 17:00:00 23.44 C 6.66 g/m*3 23.44 C 0 km/h
667 27-05-2010 18:00:00 23.08 C 7.14 g/m*3 23.08 C 0 km/h
668 27-05-2010 19:00:00 20.84 C 8.35 g/m*3 20.84 C 0 km/h
669 27-05-2010 20:00:00 18.04 C 8.9 g/m*3 18.04 C 0 km/h
670 27-05-2010 21:00:00 15.78 C 9.55 g/m*3 15.78 C 0 km/h
671 27-05-2010 22:00:00 16.06 C 9.27 g/m*3 16.06 C 0 km/h
672 27-05-2010 23:00:00 15.56 C 9.71 g/m*3 15.56 C 0 km/h
673 28-05-2010 00:00:00 15 C 9.64 g/m*3 15 C 0 km/h
674 28-05-2010 01:00:00 15.14 C 9.16 g/m*3 15.14 C 0 km/h
675 28-05-2010 02:00:00 14.86 C 9.23 g/m*3 14.86 C 0 km/h
Sensor: Nr:Datum:Temp:Abs-Feuchte:Windchill:Wind:
Aussen-T/F 676 28-05-2010 03:00:00 14.78 C 9.16 g/m*3 14.78 C 0 km/h
677 28-05-2010 04:00:00 14.36 C 9.2 g/m*3 14.36 C 0 km/h
678 28-05-2010 05:00:00 13.7 C 9.88 g/m*3 13.7 C 0 km/h
679 28-05-2010 06:00:00 13.62 C 10.11 g/m*3 13.62 C 0 km/h
680 28-05-2010 07:00:00 13.98 C 10.48 g/m*3 13.98 C 0 km/h
681 28-05-2010 08:00:00 14.36 C 10.58 g/m*3 14.36 C 0 km/h
682 28-05-2010 09:00:00 15.12 C 9.71 g/m*3 15.12 C 0 km/h
683 28-05-2010 10:00:00 15.64 C 8.56 g/m*3 15.64 C 0 km/h
684 28-05-2010 11:00:00 17.2 C 7.26 g/m*3 17.2 C 0 km/h
685 28-05-2010 12:00:00 18.4 C 7.14 g/m*3 18.4 C 0 km/h
686 28-05-2010 13:00:00 20.24 C 6.62 g/m*3 20.24 C 0 km/h
687 28-05-2010 14:00:00 19.4 C 6.21 g/m*3 19.4 C 0 km/h
688 28-05-2010 15:00:00 21.72 C 5.46 g/m*3 21.72 C 0 km/h
689 28-05-2010 16:00:00 23.06 C 4.37 g/m*3 23.06 C 0 km/h
690 28-05-2010 17:00:00 23.2 C 4.16 g/m*3 23.2 C 0 km/h
691 28-05-2010 18:00:00 22.62 C 4.1 g/m*3 22.62 C 0 km/h
692 28-05-2010 19:00:00 22.14 C 4.66 g/m*3 22.14 C 0 km/h
693 28-05-2010 20:00:00 19.68 C 4.99 g/m*3 19.68 C 0 km/h
694 28-05-2010 21:00:00 17.54 C 5.35 g/m*3 17.54 C 0 km/h
695 28-05-2010 22:00:00 15.56 C 5.94 g/m*3 15.56 C 0 km/h
696 28-05-2010 23:00:00 14.06 C 6.22 g/m*3 14.06 C 0 km/h
697 29-05-2010 00:00:00 12.86 C 6.63 g/m*3 12.86 C 0 km/h
698 29-05-2010 01:00:00 11.92 C 6.77 g/m*3 11.92 C 0 km/h
699 29-05-2010 02:00:00 10.82 C 6.95 g/m*3 10.82 C 0 km/h
700 29-05-2010 03:00:00 9.98 C 7.02 g/m*3 9.98 C 0 km/h
Sensor: Nr:Datum:Temp:Abs-Feuchte:Windchill:Wind:
Aussen-T/F 701 29-05-2010 04:00:00 9.7 C 7.08 g/m*3 9.7 C 0 km/h
702 29-05-2010 05:00:00 9.48 C 7 g/m*3 9.48 C 0 km/h
703 29-05-2010 06:00:00 9.78 C 7.13 g/m*3 9.78 C 0 km/h
704 29-05-2010 07:00:00 10.18 C 7.15 g/m*3 10.18 C 0 km/h
705 29-05-2010 08:00:00 11.24 C 7.19 g/m*3 11.24 C 0 km/h
706 29-05-2010 09:00:00 12.86 C 7.06 g/m*3 12.86 C 0 km/h
707 29-05-2010 10:00:00 16.9 C 7.11 g/m*3 16.9 C 0 km/h
708 29-05-2010 11:00:00 18.66 C 7.32 g/m*3 18.66 C 0 km/h
709 29-05-2010 12:00:00 21.72 C 5.46 g/m*3 21.72 C 0 km/h
710 29-05-2010 13:00:00 24.84 C 4.84 g/m*3 24.84 C 0 km/h
711 29-05-2010 14:00:00 23.42 C 5.31 g/m*3 23.42 C 0 km/h
712 29-05-2010 15:00:00 23.02 C 5.35 g/m*3 23.02 C 0 km/h
713 29-05-2010 16:00:00 24.42 C 4.99 g/m*3 24.42 C 0 km/h
714 29-05-2010 17:00:00 23.96 C 5.95 g/m*3 23.96 C 0 km/h
715 29-05-2010 18:00:00 21.7 C 6.03 g/m*3 21.7 C 0 km/h
716 29-05-2010 19:00:00 20.66 C 5.35 g/m*3 20.66 C 0 km/h
717 29-05-2010 20:00:00 19.3 C 5.97 g/m*3 19.3 C 0 km/h
718 29-05-2010 21:00:00 17.06 C 6.83 g/m*3 17.06 C 0 km/h
719 29-05-2010 22:00:00 13.96 C 9.07 g/m*3 13.96 C 0 km/h
720 29-05-2010 23:00:00 13.72 C 8.92 g/m*3 13.72 C 0 km/h
721 30-05-2010 00:00:00 13.38 C 9.36 g/m*3 13.38 C 0 km/h
722 30-05-2010 01:00:00 13.2 C 9.48 g/m*3 13.2 C 0 km/h
723 30-05-2010 02:00:00 12.9 C 10.03 g/m*3 12.9 C 0 km/h
724 30-05-2010 03:00:00 12.9 C 10.28 g/m*3 12.9 C 0 km/h
725 30-05-2010 04:00:00 12.8 C 10.28 g/m*3 12.8 C 0 km/h
Sensor: Nr:Datum:Temp:Abs-Feuchte:Windchill:Wind:
Aussen-T/F 726 30-05-2010 05:00:00 12.96 C 10.25 g/m*3 12.96 C 0 km/h
727 30-05-2010 06:00:00 13.36 C 10.25 g/m*3 13.36 C 0 km/h
728 30-05-2010 07:00:00 13.8 C 10.44 g/m*3 13.8 C 0 km/h
729 30-05-2010 08:00:00 14.66 C 10.07 g/m*3 14.66 C 0 km/h
730 30-05-2010 09:00:00 15.62 C 10.01 g/m*3 15.62 C 0 km/h
731 30-05-2010 10:00:00 14.98 C 10.19 g/m*3 14.98 C 0 km/h
732 30-05-2010 11:00:00 17.44 C 9.15 g/m*3 17.44 C 0 km/h
733 30-05-2010 12:00:00 18 C 8.11 g/m*3 18 C 0 km/h
734 30-05-2010 13:00:00 17.94 C 7.56 g/m*3 17.94 C 0 km/h
735 30-05-2010 14:00:00 18 C 8.23 g/m*3 18 C 0 km/h
736 30-05-2010 15:00:00 19.18 C 7.71 g/m*3 19.18 C 0 km/h
737 30-05-2010 16:00:00 19.4 C 6.91 g/m*3 19.4 C 0 km/h
738 30-05-2010 17:00:00 16.3 C 8.35 g/m*3 16.3 C 0 km/h
739 30-05-2010 18:00:00 14.42 C 9.6 g/m*3 14.42 C 0 km/h
740 30-05-2010 19:00:00 13.16 C 9.51 g/m*3 13.16 C 0 km/h
741 30-05-2010 20:00:00 12.46 C 7.33 g/m*3 12.46 C 0 km/h
742 30-05-2010 21:00:00 11.74 C 6.63 g/m*3 11.74 C 0 km/h
743 30-05-2010 22:00:00 11.14 C 6.14 g/m*3 11.14 C 0 km/h
744 30-05-2010 23:00:00 10.6 C 5.76 g/m*3 10.6 C 0 km/h
745 31-05-2010 00:00:00 9.88 C 5.86 g/m*3 9.88 C 0 km/h
746 31-05-2010 01:00:00 9.84 C 6.18 g/m*3 9.84 C 0 km/h
747 31-05-2010 02:00:00 8.94 C 7.5 g/m*3 8.94 C 0 km/h
748 31-05-2010 03:00:00 8.62 C 7.74 g/m*3 8.62 C 0 km/h
749 31-05-2010 04:00:00 8.52 C 7.71 g/m*3 8.52 C 0 km/h
750 31-05-2010 05:00:00 8.54 C 7.7 g/m*3 8.54 C 0 km/h
Sensor: Nr:Datum:Temp:Abs-Feuchte:Windchill:Wind:
Aussen-T/F 751 31-05-2010 06:00:00 8.72 C 7.9 g/m*3 8.72 C 0 km/h
752 31-05-2010 07:00:00 8.94 C 8.1 g/m*3 8.94 C 0 km/h
753 31-05-2010 08:00:00 9.88 C 8.5 g/m*3 9.88 C 0 km/h
754 31-05-2010 09:00:00 10.8 C 8.38 g/m*3 10.8 C 0 km/h
755 31-05-2010 10:00:00 11.06 C 8.34 g/m*3 11.06 C 0 km/h
756 31-05-2010 11:00:00 11.96 C 8.36 g/m*3 11.96 C 0 km/h
757 31-05-2010 12:00:00 13.78 C 7.64 g/m*3 13.78 C 0 km/h
758 31-05-2010 13:00:00 14.32 C 7.33 g/m*3 14.32 C 0 km/h
759 31-05-2010 14:00:00 14.96 C 7.32 g/m*3 14.96 C 0 km/h
760 31-05-2010 15:00:00 14.76 C 7.56 g/m*3 14.76 C 0 km/h
761 31-05-2010 16:00:00 13.96 C 8.09 g/m*3 13.96 C 0 km/h
762 31-05-2010 17:00:00 14.18 C 7.93 g/m*3 14.18 C 0 km/h
763 31-05-2010 18:00:00 13.1 C 8.7 g/m*3 13.1 C 0 km/h
764 31-05-2010 19:00:00 12.7 C 9.24 g/m*3 12.7 C 0 km/h
765 31-05-2010 20:00:00 12.48 C 9.51 g/m*3 12.48 C 0 km/h
766 31-05-2010 21:00:00 12.5 C 9.54 g/m*3 12.5 C 0 km/h
767 31-05-2010 22:00:00 12.54 C 9.77 g/m*3 12.54 C 0 km/h
768 31-05-2010 23:00:00 12.62 C 9.75 g/m*3 12.62 C 0 km/h
769 01-06-2010 00:00:00 11.7 C 9.41 g/m*3 11.7 C 0 km/h
770 01-06-2010 01:00:00 11.44 C 9.47 g/m*3 11.44 C 0 km/h
771 01-06-2010 02:00:00 10.92 C 9.24 g/m*3 10.92 C 0 km/h
772 01-06-2010 03:00:00 11.38 C 9.62 g/m*3 11.38 C 0 km/h
773 01-06-2010 04:00:00 11.06 C 9.34 g/m*3 11.06 C 0 km/h
774 01-06-2010 05:00:00 11.18 C 9.44 g/m*3 11.18 C 0 km/h
775 01-06-2010 06:00:00 11.22 C 9.3 g/m*3 11.22 C 0 km/h
Sensor: Nr:Datum:Temp:Abs-Feuchte:Windchill:Wind:
Aussen-T/F 776 01-06-2010 07:00:00 12.04 C 9.34 g/m*3 12.04 C 0 km/h
777 01-06-2010 08:00:00 13.68 C 9.32 g/m*3 13.68 C 0 km/h
778 01-06-2010 09:00:00 15 C 8.92 g/m*3 15 C 0 km/h
779 01-06-2010 10:00:00 15.08 C 8.63 g/m*3 15.08 C 0 km/h
780 01-06-2010 11:00:00 17.08 C 8.17 g/m*3 17.08 C 0 km/h
781 01-06-2010 12:00:00 19.42 C 7.22 g/m*3 19.42 C 0 km/h
782 01-06-2010 13:00:00 20.58 C 6.69 g/m*3 20.58 C 0 km/h
783 01-06-2010 14:00:00 20.98 C 6.37 g/m*3 20.98 C 0 km/h
784 01-06-2010 15:00:00 22.14 C 5.36 g/m*3 22.14 C 0 km/h
785 01-06-2010 16:00:00 22.8 C 4.96 g/m*3 22.8 C 0 km/h
786 01-06-2010 17:00:00 22.5 C 5.27 g/m*3 22.5 C 0 km/h
787 01-06-2010 18:00:00 20.56 C 5.11 g/m*3 20.56 C 0 km/h
788 01-06-2010 19:00:00 19.54 C 6.09 g/m*3 19.54 C 0 km/h
789 01-06-2010 20:00:00 18.2 C 7.06 g/m*3 18.2 C 0 km/h
790 01-06-2010 21:00:00 16.16 C 7.1 g/m*3 16.16 C 0 km/h
791 01-06-2010 22:00:00 15.04 C 7.38 g/m*3 15.04 C 0 km/h
792 01-06-2010 23:00:00 14.74 C 7.75 g/m*3 14.74 C 0 km/h
793 02-06-2010 00:00:00 14.44 C 8.35 g/m*3 14.44 C 0 km/h
794 02-06-2010 01:00:00 14.22 C 8.39 g/m*3 14.22 C 0 km/h
795 02-06-2010 02:00:00 13.58 C 8.7 g/m*3 13.58 C 0 km/h
796 02-06-2010 03:00:00 13.34 C 8.8 g/m*3 13.34 C 0 km/h
797 02-06-2010 04:00:00 13.36 C 8.4 g/m*3 13.36 C 0 km/h
798 02-06-2010 05:00:00 13.3 C 8.39 g/m*3 13.3 C 0 km/h
799 02-06-2010 06:00:00 13.28 C 8.56 g/m*3 13.28 C 0 km/h
800 02-06-2010 07:00:00 13.84 C 8.58 g/m*3 13.84 C 0 km/h
Sensor: Nr:Datum:Temp:Abs-Feuchte:Windchill:Wind:
Aussen-T/F 801 02-06-2010 08:00:00 15.1 C 8.15 g/m*3 15.1 C 0 km/h
802 02-06-2010 09:00:00 15.08 C 7.73 g/m*3 15.08 C 0 km/h
803 02-06-2010 10:00:00 17.56 C 6.49 g/m*3 17.56 C 0 km/h
804 02-06-2010 11:00:00 19.3 C 6 g/m*3 19.3 C 0 km/h
805 02-06-2010 12:00:00 21.86 C 5.31 g/m*3 21.86 C 0 km/h
806 02-06-2010 13:00:00 23.68 C 4.61 g/m*3 23.68 C 0 km/h
807 02-06-2010 14:00:00 23.5 C 4.44 g/m*3 23.5 C 0 km/h
808 02-06-2010 15:00:00 22.58 C 5.58 g/m*3 22.58 C 0 km/h
809 02-06-2010 16:00:00 21.08 C 6.74 g/m*3 21.08 C 0 km/h
810 02-06-2010 17:00:00 20.44 C 7.09 g/m*3 20.44 C 0 km/h
811 02-06-2010 18:00:00 21.46 C 7.07 g/m*3 21.46 C 0 km/h
812 02-06-2010 19:00:00 20.68 C 7.37 g/m*3 20.68 C 0 km/h
813 02-06-2010 20:00:00 19.78 C 7.61 g/m*3 19.78 C 0 km/h
814 02-06-2010 21:00:00 18.34 C 7.96 g/m*3 18.34 C 0 km/h
815 02-06-2010 22:00:00 17.725 C 8.27 g/m*3 17.73 C 0 km/h
816 02-06-2010 23:00:00 16.44 C 8.39 g/m*3 16.44 C 0 km/h
817 03-06-2010 00:00:00 15.62 C 8.49 g/m*3 15.62 C 0 km/h
818 03-06-2010 01:00:00 14.96 C 8.7 g/m*3 14.96 C 0 km/h
819 03-06-2010 02:00:00 14.42 C 8.69 g/m*3 14.42 C 0 km/h
820 03-06-2010 03:00:00 14.02 C 8.53 g/m*3 14.02 C 0 km/h
821 03-06-2010 04:00:00 13.2 C 8.36 g/m*3 13.2 C 0 km/h
822 03-06-2010 05:00:00 12.7 C 8.33 g/m*3 12.7 C 0 km/h
823 03-06-2010 06:00:00 12.6 C 8.36 g/m*3 12.6 C 0 km/h
824 03-06-2010 07:00:00 13.08 C 8.3 g/m*3 13.08 C 0 km/h
825 03-06-2010 08:00:00 13.98 C 7.93 g/m*3 13.98 C 0 km/h
Sensor: Nr:Datum:Temp:Abs-Feuchte:Windchill:Wind:
Aussen-T/F 826 03-06-2010 09:00:00 15.94 C 7.44 g/m*3 15.94 C 0 km/h
827 03-06-2010 10:00:00 18.62 C 6.95 g/m*3 18.62 C 0 km/h
828 03-06-2010 11:00:00 21.14 C 6.24 g/m*3 21.14 C 0 km/h
829 03-06-2010 12:00:00 24.16 C 5.62 g/m*3 24.16 C 0 km/h
830 03-06-2010 13:00:00 26.36 C 5.27 g/m*3 26.36 C 0 km/h
831 03-06-2010 14:00:00 25.98 C 4.86 g/m*3 25.98 C 0 km/h
832 03-06-2010 15:00:00 27.94 C 5.42 g/m*3 27.94 C 0 km/h
833 03-06-2010 16:00:00 29.48 C 5.9 g/m*3 29.48 C 0 km/h
834 03-06-2010 17:00:00 29.98 C 6.06 g/m*3 29.98 C 0 km/h
835 03-06-2010 18:00:00 28.98 C 5.74 g/m*3 28.98 C 0 km/h
836 03-06-2010 19:00:00 29.08 C 5.77 g/m*3 29.08 C 0 km/h
837 03-06-2010 20:00:00 27 C 5.35 g/m*3 27 C 0 km/h
838 03-06-2010 21:00:00 23.74 C 6.6 g/m*3 23.74 C 0 km/h
839 03-06-2010 22:00:00 20.16 C 6.45 g/m*3 20.16 C 0 km/h
840 03-06-2010 23:00:00 18.64 C 6.57 g/m*3 18.64 C 0 km/h
841 04-06-2010 00:00:00 17.44 C 6.86 g/m*3 17.44 C 0 km/h
842 04-06-2010 01:00:00 15.9 C 7.04 g/m*3 15.9 C 0 km/h
843 04-06-2010 02:00:00 14.64 C 7.23 g/m*3 14.64 C 0 km/h
844 04-06-2010 03:00:00 13.64 C 7.43 g/m*3 13.64 C 0 km/h
845 04-06-2010 04:00:00 12.78 C 7.61 g/m*3 12.78 C 0 km/h
846 04-06-2010 05:00:00 12.12 C 7.6 g/m*3 12.12 C 0 km/h
847 04-06-2010 06:00:00 11.94 C 7.84 g/m*3 11.94 C 0 km/h
848 04-06-2010 07:00:00 12.44 C 8.04 g/m*3 12.44 C 0 km/h
849 04-06-2010 08:00:00 13.72 C 8.28 g/m*3 13.72 C 0 km/h
850 04-06-2010 09:00:00 16.78 C 8.37 g/m*3 16.78 C 0 km/h
Sensor: Nr:Datum:Temp:Abs-Feuchte:Windchill:Wind:
Aussen-T/F 851 04-06-2010 10:00:00 20.06 C 8.12 g/m*3 20.06 C 0 km/h
852 04-06-2010 11:00:00 22.1 C 7.18 g/m*3 22.1 C 0 km/h
853 04-06-2010 12:00:00 25.82 C 5.88 g/m*3 25.82 C 0 km/h
854 04-06-2010 13:00:00 28.98 C 5.91 g/m*3 28.98 C 0 km/h
855 04-06-2010 14:00:00 27.9 C 5.68 g/m*3 27.9 C 0 km/h
856 04-06-2010 15:00:00 29.14 C 5.79 g/m*3 29.14 C 0 km/h
857 04-06-2010 16:00:00 30.38 C 6.19 g/m*3 30.38 C 0 km/h
858 04-06-2010 17:00:00 31.04 C 6.41 g/m*3 31.04 C 0 km/h
859 04-06-2010 18:00:00 31.88 C 6.71 g/m*3 31.88 C 0 km/h
860 04-06-2010 19:00:00 30.44 C 6.21 g/m*3 30.44 C 0 km/h
861 04-06-2010 20:00:00 29.04 C 5.87 g/m*3 29.04 C 0 km/h
862 04-06-2010 21:00:00 24.3 C 6.28 g/m*3 24.3 C 0 km/h
863 04-06-2010 22:00:00 22.02 C 6.88 g/m*3 22.02 C 0 km/h
864 04-06-2010 23:00:00 19.82 C 7.56 g/m*3 19.82 C 0 km/h
865 05-06-2010 00:00:00 18.16 C 7.91 g/m*3 18.16 C 0 km/h
866 05-06-2010 01:00:00 17.14 C 7.97 g/m*3 17.14 C 0 km/h
867 05-06-2010 02:00:00 15.82 C 8.17 g/m*3 15.82 C 0 km/h
868 05-06-2010 03:00:00 14.84 C 8.43 g/m*3 14.84 C 0 km/h
869 05-06-2010 04:00:00 14.34 C 8.35 g/m*3 14.34 C 0 km/h
870 05-06-2010 05:00:00 13.44 C 8.27 g/m*3 13.44 C 0 km/h
871 05-06-2010 06:00:00 13.12 C 8.45 g/m*3 13.12 C 0 km/h
872 05-06-2010 07:00:00 13.76 C 8.58 g/m*3 13.76 C 0 km/h
873 05-06-2010 08:00:00 15.12 C 8.42 g/m*3 15.12 C 0 km/h
874 05-06-2010 09:00:00 17.9 C 8.64 g/m*3 17.9 C 0 km/h
875 05-06-2010 10:00:00 21.54 C 9 g/m*3 21.54 C 0 km/h
Sensor: Nr:Datum:Temp:Abs-Feuchte:Windchill:Wind:
Aussen-T/F 876 05-06-2010 11:00:00 25.04 C 8.44 g/m*3 25.04 C 0 km/h
877 05-06-2010 12:00:00 28.26 C 6.45 g/m*3 28.26 C 0 km/h
878 05-06-2010 13:00:00 30.56 C 6.25 g/m*3 30.56 C 0 km/h
879 05-06-2010 14:00:00 30.24 C 6.14 g/m*3 30.24 C 0 km/h
880 05-06-2010 15:00:00 31.8 C 6.68 g/m*3 31.8 C 0 km/h
881 05-06-2010 16:00:00 32.68 C 7 g/m*3 32.68 C 0 km/h
882 05-06-2010 17:00:00 33.16 C 7.18 g/m*3 33.16 C 0 km/h
883 05-06-2010 18:00:00 33.08 C 7.15 g/m*3 33.08 C 0 km/h
884 05-06-2010 19:00:00 31.78 C 7.07 g/m*3 31.78 C 0 km/h
885 05-06-2010 20:00:00 29.04 C 7.83 g/m*3 29.04 C 0 km/h
886 05-06-2010 21:00:00 25.36 C 7.75 g/m*3 25.36 C 0 km/h
887 05-06-2010 22:00:00 23.38 C 8.28 g/m*3 23.38 C 0 km/h
888 05-06-2010 23:00:00 21.88 C 8.29 g/m*3 21.88 C 0 km/h
889 06-06-2010 00:00:00 20.7 C 8.64 g/m*3 20.7 C 0 km/h
890 06-06-2010 01:00:00 19.28 C 8.95 g/m*3 19.28 C 0 km/h
891 06-06-2010 02:00:00 18.18 C 9.31 g/m*3 18.18 C 0 km/h
892 06-06-2010 03:00:00 17.36 C 9.23 g/m*3 17.36 C 0 km/h
893 06-06-2010 04:00:00 16.4 C 9.13 g/m*3 16.4 C 0 km/h
894 06-06-2010 05:00:00 15.46 C 9.2 g/m*3 15.46 C 0 km/h
895 06-06-2010 06:00:00 15.32 C 9.41 g/m*3 15.32 C 0 km/h
896 06-06-2010 07:00:00 16.06 C 9.52 g/m*3 16.06 C 0 km/h
897 06-06-2010 08:00:00 17.32 C 9.32 g/m*3 17.32 C 0 km/h
898 06-06-2010 09:00:00 19.54 C 8.98 g/m*3 19.54 C 0 km/h
899 06-06-2010 10:00:00 23.1 C 9.38 g/m*3 23.1 C 0 km/h
900 06-06-2010 11:00:00 27.14 C 9.6 g/m*3 27.14 C 0 km/h
Sensor: Nr:Datum:Temp:Abs-Feuchte:Windchill:Wind:
Aussen-T/F 901 06-06-2010 12:00:00 29.56 C 8.71 g/m*3 29.56 C 0 km/h
902 06-06-2010 13:00:00 30.1 C 8.23 g/m*3 30.1 C 0 km/h
903 06-06-2010 14:00:00 30.16 C 8.32 g/m*3 30.16 C 0 km/h
904 06-06-2010 15:00:00 31.12 C 7.73 g/m*3 31.12 C 0 km/h
905 06-06-2010 16:00:00 23.76 C 10.65 g/m*3 23.76 C 0 km/h
906 06-06-2010 17:00:00 18.7 C 13.61 g/m*3 18.7 C 0 km/h
907 06-06-2010 18:00:00 19.2 C 14.21 g/m*3 19.2 C 0 km/h
908 06-06-2010 19:00:00 19.22 C 14.23 g/m*3 19.22 C 0 km/h
909 06-06-2010 20:00:00 19 C 14.15 g/m*3 19 C 0 km/h
910 06-06-2010 21:00:00 18.6 C 13.85 g/m*3 18.6 C 0 km/h
911 06-06-2010 22:00:00 18.34 C 13.67 g/m*3 18.34 C 0 km/h
912 06-06-2010 23:00:00 18.3 C 13.51 g/m*3 18.3 C 0 km/h
913 07-06-2010 00:00:00 17.92 C 13.45 g/m*3 17.92 C 0 km/h
914 07-06-2010 01:00:00 17.82 C 13.77 g/m*3 17.82 C 0 km/h
915 07-06-2010 02:00:00 17.36 C 12.48 g/m*3 17.36 C 0 km/h
916 07-06-2010 03:00:00 15.46 C 10.07 g/m*3 15.46 C 0 km/h
917 07-06-2010 04:00:00 14 C 9.09 g/m*3 14 C 0 km/h
918 07-06-2010 05:00:00 13.6 C 9.16 g/m*3 13.6 C 0 km/h
919 07-06-2010 06:00:00 14.4 C 9.37 g/m*3 14.4 C 0 km/h
920 07-06-2010 07:00:00 15.04 C 9.18 g/m*3 15.04 C 0 km/h
921 07-06-2010 08:00:00 15.54 C 9.33 g/m*3 15.54 C 0 km/h
922 07-06-2010 09:00:00 17.08 C 9.22 g/m*3 17.08 C 0 km/h
923 07-06-2010 10:00:00 18.32 C 8.95 g/m*3 18.32 C 0 km/h
924 07-06-2010 11:00:00 19.46 C 8.71 g/m*3 19.46 C 0 km/h
925 07-06-2010 12:00:00 21.94 C 7.93 g/m*3 21.94 C 0 km/h
Sensor: Nr:Datum:Temp:Abs-Feuchte:Windchill:Wind:
Aussen-T/F 926 07-06-2010 13:00:00 23.78 C 7.26 g/m*3 23.78 C 0 km/h
927 07-06-2010 14:00:00 24 C 6.96 g/m*3 24 C 0 km/h
928 07-06-2010 15:00:00 24.3 C 6.64 g/m*3 24.3 C 0 km/h
929 07-06-2010 16:00:00 25.22 C 6.39 g/m*3 25.22 C 0 km/h
930 07-06-2010 17:00:00 24.66 C 5.96 g/m*3 24.66 C 0 km/h
931 07-06-2010 18:00:00 25.92 C 5.28 g/m*3 25.92 C 0 km/h
932 07-06-2010 19:00:00 25.44 C 5.29 g/m*3 25.44 C 0 km/h
933 07-06-2010 20:00:00 23.08 C 5.99 g/m*3 23.08 C 0 km/h
934 07-06-2010 21:00:00 20.04 C 6.79 g/m*3 20.04 C 0 km/h
935 07-06-2010 22:00:00 18.48 C 7.33 g/m*3 18.48 C 0 km/h
936 07-06-2010 23:00:00 17.26 C 8.08 g/m*3 17.26 C 0 km/h
937 08-06-2010 00:00:00 16.34 C 8.48 g/m*3 16.34 C 0 km/h
938 08-06-2010 01:00:00 15.22 C 8.5 g/m*3 15.22 C 0 km/h
939 08-06-2010 02:00:00 14.26 C 8.36 g/m*3 14.26 C 0 km/h
940 08-06-2010 03:00:00 13.84 C 8.36 g/m*3 13.84 C 0 km/h
941 08-06-2010 04:00:00 13.2 C 8.22 g/m*3 13.2 C 0 km/h
942 08-06-2010 05:00:00 13.4 C 8.42 g/m*3 13.4 C 0 km/h
943 08-06-2010 06:00:00 13.66 C 8.62 g/m*3 13.66 C 0 km/h
944 08-06-2010 07:00:00 14.36 C 8.8 g/m*3 14.36 C 0 km/h
945 08-06-2010 08:00:00 16.5 C 8.9 g/m*3 16.5 C 0 km/h
946 08-06-2010 09:00:00 19.18 C 8.96 g/m*3 19.18 C 0 km/h
947 08-06-2010 10:00:00 21.92 C 8.73 g/m*3 21.92 C 0 km/h
948 08-06-2010 11:00:00 25.46 C 8.08 g/m*3 25.46 C 0 km/h
949 08-06-2010 12:00:00 27.92 C 7.2 g/m*3 27.92 C 0 km/h
950 08-06-2010 13:00:00 27.58 C 6.75 g/m*3 27.58 C 0 km/h
Sensor: Nr:Datum:Temp:Abs-Feuchte:Windchill:Wind:
Aussen-T/F 951 08-06-2010 14:00:00 26.28 C 8.21 g/m*3 26.28 C 0 km/h
952 08-06-2010 15:00:00 26.36 C 8.4 g/m*3 26.36 C 0 km/h
953 08-06-2010 16:00:00 22.62 C 8.49 g/m*3 22.62 C 0 km/h
954 08-06-2010 17:00:00 20.84 C 10.49 g/m*3 20.84 C 0 km/h
955 08-06-2010 18:00:00 23.06 C 10.15 g/m*3 23.06 C 0 km/h
956 08-06-2010 19:00:00 23.2 C 10.15 g/m*3 23.2 C 0 km/h
957 08-06-2010 20:00:00 22 C 10.44 g/m*3 22 C 0 km/h
958 08-06-2010 21:00:00 20.6 C 10.85 g/m*3 20.6 C 0 km/h
959 08-06-2010 22:00:00 18.56 C 12.29 g/m*3 18.56 C 0 km/h
960 08-06-2010 23:00:00 18.08 C 12.5 g/m*3 18.08 C 0 km/h
961 09-06-2010 00:00:00 17.74 C 12.55 g/m*3 17.74 C 0 km/h
962 09-06-2010 01:00:00 17.68 C 12.33 g/m*3 17.68 C 0 km/h
963 09-06-2010 02:00:00 17.08 C 11.86 g/m*3 17.08 C 0 km/h
964 09-06-2010 03:00:00 17.06 C 12.08 g/m*3 17.06 C 0 km/h
965 09-06-2010 04:00:00 16.96 C 12.07 g/m*3 16.96 C 0 km/h
966 09-06-2010 05:00:00 16.84 C 12.01 g/m*3 16.84 C 0 km/h
967 09-06-2010 06:00:00 17.06 C 11.97 g/m*3 17.06 C 0 km/h
968 09-06-2010 07:00:00 18.2 C 12.25 g/m*3 18.2 C 0 km/h
969 09-06-2010 08:00:00 19.94 C 12.33 g/m*3 19.94 C 0 km/h
970 09-06-2010 09:00:00 21.8 C 11.86 g/m*3 21.8 C 0 km/h
971 09-06-2010 10:00:00 23.72 C 11.43 g/m*3 23.72 C 0 km/h
972 09-06-2010 11:00:00 25.56 C 10.17 g/m*3 25.56 C 0 km/h
973 09-06-2010 12:00:00 26.4 C 8.91 g/m*3 26.4 C 0 km/h
974 09-06-2010 13:00:00 26.72 C 8.97 g/m*3 26.72 C 0 km/h
975 09-06-2010 14:00:00 28.74 C 9.12 g/m*3 28.74 C 0 km/h
Sensor: Nr:Datum:Temp:Abs-Feuchte:Windchill:Wind:
Aussen-T/F 976 09-06-2010 15:00:00 29.54 C 8.16 g/m*3 29.54 C 0 km/h
977 09-06-2010 16:00:00 29.34 C 7.55 g/m*3 29.34 C 0 km/h
978 09-06-2010 17:00:00 27.86 C 9.18 g/m*3 27.86 C 0 km/h
979 09-06-2010 18:00:00 26.7 C 9.26 g/m*3 26.7 C 0 km/h
980 09-06-2010 19:00:00 26.16 C 9.73 g/m*3 26.16 C 0 km/h
981 09-06-2010 20:00:00 24.78 C 9.41 g/m*3 24.78 C 0 km/h
982 09-06-2010 21:00:00 23.4 C 9.21 g/m*3 23.4 C 0 km/h
983 09-06-2010 22:00:00 22.96 C 8.61 g/m*3 22.96 C 0 km/h
984 09-06-2010 23:00:00 19.26 C 12.51 g/m*3 19.26 C 0 km/h
985 10-06-2010 00:00:00 18.04 C 13.36 g/m*3 18.04 C 0 km/h
986 10-06-2010 01:00:00 17.6 C 13.59 g/m*3 17.6 C 0 km/h
987 10-06-2010 02:00:00 17.18 C 13.43 g/m*3 17.18 C 0 km/h
988 10-06-2010 03:00:00 16.98 C 13.21 g/m*3 16.98 C 0 km/h
989 10-06-2010 04:00:00 17.06 C 13.1 g/m*3 17.06 C 0 km/h
990 10-06-2010 05:00:00 16.88 C 13.16 g/m*3 16.88 C 0 km/h
991 10-06-2010 06:00:00 17.28 C 13.54 g/m*3 17.28 C 0 km/h
992 10-06-2010 07:00:00 17.9 C 13.86 g/m*3 17.9 C 0 km/h
993 10-06-2010 08:00:00 18.96 C 14.34 g/m*3 18.96 C 0 km/h
994 10-06-2010 09:00:00 19.46 C 14.27 g/m*3 19.46 C 0 km/h
995 10-06-2010 10:00:00 21.34 C 13.71 g/m*3 21.34 C 0 km/h
996 10-06-2010 11:00:00 22.12 C 12.82 g/m*3 22.12 C 0 km/h
997 10-06-2010 12:00:00 24.96 C 11.35 g/m*3 24.96 C 0 km/h
998 10-06-2010 13:00:00 27.26 C 10.76 g/m*3 27.26 C 0 km/h
999 10-06-2010 14:00:00 27.86 C 12.09 g/m*3 27.86 C 0 km/h
1000 10-06-2010 15:00:00 28.3 C 11.83 g/m*3 28.3 C 0 km/h
Sensor: Nr:Datum:Temp:Abs-Feuchte:Windchill:Wind:
Aussen-T/F 1001 10-06-2010 16:00:00 26.8 C 13.24 g/m*3 26.8 C 0 km/h
1002 10-06-2010 17:00:00 28.94 C 12.71 g/m*3 28.94 C 0 km/h
1003 10-06-2010 18:00:00 30.9 C 11.01 g/m*3 30.9 C 0 km/h
1004 10-06-2010 19:00:00 31.24 C 11.73 g/m*3 31.24 C 0 km/h
1005 10-06-2010 20:00:00 28.08 C 13.93 g/m*3 28.08 C 0 km/h
1006 10-06-2010 21:00:00 24.96 C 12.82 g/m*3 24.96 C 0 km/h
1007 10-06-2010 22:00:00 24.24 C 12.13 g/m*3 24.24 C 0 km/h
1008 10-06-2010 23:00:00 22 C 11.49 g/m*3 22 C 0 km/h
1009 11-06-2010 00:00:00 18.88 C 12.27 g/m*3 18.88 C 0 km/h
1010 11-06-2010 01:00:00 17.84 C 13.51 g/m*3 17.84 C 0 km/h
1011 11-06-2010 02:00:00 17.58 C 13.72 g/m*3 17.58 C 0 km/h
1012 11-06-2010 03:00:00 17.4 C 13.75 g/m*3 17.4 C 0 km/h
1013 11-06-2010 04:00:00 17.1 C 13.54 g/m*3 17.1 C 0 km/h
1014 11-06-2010 05:00:00 17 C 13.57 g/m*3 17 C 0 km/h
1015 11-06-2010 06:00:00 16.98 C 13.61 g/m*3 16.98 C 0 km/h
1016 11-06-2010 07:00:00 16.88 C 13.65 g/m*3 16.88 C 0 km/h
1017 11-06-2010 08:00:00 17.04 C 13.23 g/m*3 17.04 C 0 km/h
1018 11-06-2010 09:00:00 19.32 C 13.65 g/m*3 19.32 C 0 km/h
1019 11-06-2010 10:00:00 20.7 C 11.77 g/m*3 20.7 C 0 km/h
1020 11-06-2010 11:00:00 22.76 C 10.83 g/m*3 22.76 C 0 km/h
1021 11-06-2010 12:00:00 25.64 C 8.69 g/m*3 25.64 C 0 km/h
1022 11-06-2010 13:00:00 27.58 C 7.71 g/m*3 27.58 C 0 km/h
1023 11-06-2010 14:00:00 27.12 C 7.62 g/m*3 27.12 C 0 km/h
1024 11-06-2010 15:00:00 28.68 C 7.34 g/m*3 28.68 C 0 km/h
1025 11-06-2010 16:00:00 29.92 C 6.88 g/m*3 29.92 C 0 km/h
Sensor: Nr:Datum:Temp:Abs-Feuchte:Windchill:Wind:
Aussen-T/F 1026 11-06-2010 17:00:00 30.58 C 6.32 g/m*3 30.58 C 0 km/h
1027 11-06-2010 18:00:00 30.74 C 6.31 g/m*3 30.74 C 0 km/h
1028 11-06-2010 19:00:00 30.7 C 6.49 g/m*3 30.7 C 0 km/h
1029 11-06-2010 20:00:00 28.08 C 7.27 g/m*3 28.08 C 0 km/h
1030 11-06-2010 21:00:00 24.48 C 8.49 g/m*3 24.48 C 0 km/h
1031 11-06-2010 22:00:00 23.54 C 8.05 g/m*3 23.54 C 0 km/h
1032 11-06-2010 23:00:00 22.86 C 7.67 g/m*3 22.86 C 0 km/h
1033 12-06-2010 00:00:00 21.9 C 8.88 g/m*3 21.9 C 0 km/h
1034 12-06-2010 01:00:00 20.94 C 9.78 g/m*3 20.94 C 0 km/h
1035 12-06-2010 02:00:00 20.24 C 9.99 g/m*3 20.24 C 0 km/h
1036 12-06-2010 03:00:00 19.74 C 10.14 g/m*3 19.74 C 0 km/h
1037 12-06-2010 04:00:00 19.32 C 10.56 g/m*3 19.32 C 0 km/h
1038 12-06-2010 05:00:00 18.72 C 11.12 g/m*3 18.72 C 0 km/h
1039 12-06-2010 06:00:00 18.58 C 11.16 g/m*3 18.58 C 0 km/h
1040 12-06-2010 07:00:00 18.38 C 12.16 g/m*3 18.38 C 0 km/h
1041 12-06-2010 08:00:00 18.78 C 12.42 g/m*3 18.78 C 0 km/h
1042 12-06-2010 09:00:00 19.28 C 11.6 g/m*3 19.28 C 0 km/h
1043 12-06-2010 10:00:00 20.34 C 10.44 g/m*3 20.34 C 0 km/h
1044 12-06-2010 11:00:00 22.44 C 9.59 g/m*3 22.44 C 0 km/h
1045 12-06-2010 12:00:00 23.3 C 8.7 g/m*3 23.3 C 0 km/h
1046 12-06-2010 13:00:00 24.16 C 8.47 g/m*3 24.16 C 0 km/h
1047 12-06-2010 14:00:00 24.48 C 8.45 g/m*3 24.48 C 0 km/h
1048 12-06-2010 15:00:00 22.98 C 9.24 g/m*3 22.98 C 0 km/h
1049 12-06-2010 16:00:00 17.04 C 10.24 g/m*3 17.04 C 0 km/h
1050 12-06-2010 17:00:00 14.22 C 9.85 g/m*3 14.22 C 0 km/h
Sensor: Nr:Datum:Temp:Abs-Feuchte:Windchill:Wind:
Aussen-T/F 1051 12-06-2010 18:00:00 14.62 C 10.12 g/m*3 14.62 C 0 km/h
1052 12-06-2010 19:00:00 14.82 C 9.79 g/m*3 14.82 C 0 km/h
1053 12-06-2010 20:00:00 15.34 C 9.53 g/m*3 15.34 C 0 km/h
1054 12-06-2010 21:00:00 14.98 C 9.4 g/m*3 14.98 C 0 km/h
1055 12-06-2010 22:00:00 14.5 C 9.43 g/m*3 14.5 C 0 km/h
1056 12-06-2010 23:00:00 13.28 C 8.98 g/m*3 13.28 C 0 km/h
1057 13-06-2010 00:00:00 12.68 C 8.92 g/m*3 12.68 C 0 km/h
1058 13-06-2010 01:00:00 13.3 C 9.4 g/m*3 13.3 C 0 km/h
1059 13-06-2010 02:00:00 13.14 C 9.47 g/m*3 13.14 C 0 km/h
1060 13-06-2010 03:00:00 12.16 C 9.3 g/m*3 12.16 C 0 km/h
1061 13-06-2010 04:00:00 11.32 C 8.7 g/m*3 11.32 C 0 km/h
1062 13-06-2010 05:00:00 10.82 C 8.33 g/m*3 10.82 C 0 km/h
1063 13-06-2010 06:00:00 10.5 C 8.22 g/m*3 10.5 C 0 km/h
1064 13-06-2010 07:00:00 11.38 C 8.65 g/m*3 11.38 C 0 km/h
1065 13-06-2010 08:00:00 13.16 C 8.18 g/m*3 13.16 C 0 km/h
1066 13-06-2010 09:00:00 15.84 C 7.64 g/m*3 15.84 C 0 km/h
1067 13-06-2010 10:00:00 17.76 C 6.3 g/m*3 17.76 C 0 km/h
1068 13-06-2010 11:00:00 19.54 C 5.92 g/m*3 19.54 C 0 km/h
1069 13-06-2010 12:00:00 22.84 C 5.3 g/m*3 22.84 C 0 km/h
1070 13-06-2010 13:00:00 24.8 C 4.87 g/m*3 24.8 C 0 km/h
1071 13-06-2010 14:00:00 24.12 C 4.91 g/m*3 24.12 C 0 km/h
1072 13-06-2010 15:00:00 24.62 C 4.69 g/m*3 24.62 C 0 km/h
1073 13-06-2010 16:00:00 25.02 C 4.61 g/m*3 25.02 C 0 km/h
1074 13-06-2010 17:00:00 26.06 C 4.89 g/m*3 26.06 C 0 km/h
1075 13-06-2010 18:00:00 26.44 C 4.99 g/m*3 26.44 C 0 km/h
Sensor: Nr:Datum:Temp:Abs-Feuchte:Windchill:Wind:
Aussen-T/F 1076 13-06-2010 19:00:00 25.06 C 4.85 g/m*3 25.06 C 0 km/h
1077 13-06-2010 20:00:00 23.9 C 5.24 g/m*3 23.9 C 0 km/h
1078 13-06-2010 21:00:00 19.64 C 6.36 g/m*3 19.64 C 0 km/h
1079 13-06-2010 22:00:00 17.64 C 6.46 g/m*3 17.64 C 0 km/h
1080 13-06-2010 23:00:00 16.28 C 6.93 g/m*3 16.28 C 0 km/h
1081 14-06-2010 00:00:00 15.44 C 7.48 g/m*3 15.44 C 0 km/h
1082 14-06-2010 01:00:00 14.52 C 7.37 g/m*3 14.52 C 0 km/h
1083 14-06-2010 02:00:00 13.46 C 7.68 g/m*3 13.46 C 0 km/h
1084 14-06-2010 03:00:00 12.66 C 7.86 g/m*3 12.66 C 0 km/h
1085 14-06-2010 04:00:00 11.98 C 7.86 g/m*3 11.98 C 0 km/h
1086 14-06-2010 05:00:00 11.48 C 7.65 g/m*3 11.48 C 0 km/h
1087 14-06-2010 06:00:00 11.28 C 7.82 g/m*3 11.28 C 0 km/h
1088 14-06-2010 07:00:00 11.7 C 8.22 g/m*3 11.7 C 0 km/h
1089 14-06-2010 08:00:00 13.38 C 8.43 g/m*3 13.38 C 0 km/h
1090 14-06-2010 09:00:00 16.82 C 8.04 g/m*3 16.82 C 0 km/h
1091 14-06-2010 10:00:00 19.96 C 7.34 g/m*3 19.96 C 0 km/h
1092 14-06-2010 11:00:00 22.92 C 6.51 g/m*3 22.92 C 0 km/h
1093 14-06-2010 12:00:00 25.18 C 5.53 g/m*3 25.18 C 0 km/h
1094 14-06-2010 13:00:00 26.34 C 5.21 g/m*3 26.34 C 0 km/h
1095 14-06-2010 14:00:00 27.44 C 5.27 g/m*3 27.44 C 0 km/h
1096 14-06-2010 15:00:00 26.9 C 5.32 g/m*3 26.9 C 0 km/h
1097 14-06-2010 16:00:00 29.82 C 6.01 g/m*3 29.82 C 0 km/h
1098 14-06-2010 17:00:00 29.14 C 5.79 g/m*3 29.14 C 0 km/h
1099 14-06-2010 18:00:00 28.48 C 5.58 g/m*3 28.48 C 0 km/h
1100 14-06-2010 19:00:00 25.2 C 6.29 g/m*3 25.2 C 0 km/h
Sensor: Nr:Datum:Temp:Abs-Feuchte:Windchill:Wind:
Aussen-T/F 1101 14-06-2010 20:00:00 23.26 C 6.34 g/m*3 23.26 C 0 km/h
1102 14-06-2010 21:00:00 20.06 C 6.14 g/m*3 20.06 C 0 km/h
1103 14-06-2010 22:00:00 18.62 C 7.43 g/m*3 18.62 C 0 km/h
1104 14-06-2010 23:00:00 18.36 C 8.57 g/m*3 18.36 C 0 km/h
1105 15-06-2010 00:00:00 17.08 C 8.72 g/m*3 17.08 C 0 km/h
1106 15-06-2010 01:00:00 16.02 C 9.03 g/m*3 16.02 C 0 km/h
1107 15-06-2010 02:00:00 15.26 C 9.22 g/m*3 15.26 C 0 km/h
1108 15-06-2010 03:00:00 14.64 C 9.31 g/m*3 14.64 C 0 km/h
1109 15-06-2010 04:00:00 13.76 C 9.18 g/m*3 13.76 C 0 km/h
1110 15-06-2010 05:00:00 13.48 C 9.32 g/m*3 13.48 C 0 km/h
1111 15-06-2010 06:00:00 13.58 C 9.45 g/m*3 13.58 C 0 km/h
1112 15-06-2010 07:00:00 14.92 C 9.83 g/m*3 14.92 C 0 km/h
1113 15-06-2010 08:00:00 16.68 C 9.11 g/m*3 16.68 C 0 km/h
1114 15-06-2010 09:00:00 17.7 C 8.36 g/m*3 17.7 C 0 km/h
1115 15-06-2010 10:00:00 19.72 C 7.96 g/m*3 19.72 C 0 km/h
1116 15-06-2010 11:00:00 20.7 C 8.03 g/m*3 20.7 C 0 km/h
1117 15-06-2010 12:00:00 21.26 C 8.18 g/m*3 21.26 C 0 km/h
1118 15-06-2010 13:00:00 21.56 C 7.72 g/m*3 21.56 C 0 km/h
1119 15-06-2010 14:00:00 22.5 C 6.87 g/m*3 22.5 C 0 km/h
1120 15-06-2010 15:00:00 23.76 C 6.01 g/m*3 23.76 C 0 km/h
1121 15-06-2010 16:00:00 24.42 C 5.84 g/m*3 24.42 C 0 km/h
1122 15-06-2010 17:00:00 24.16 C 5.62 g/m*3 24.16 C 0 km/h
1123 15-06-2010 18:00:00 24.32 C 5.63 g/m*3 24.32 C 0 km/h
1124 15-06-2010 19:00:00 23.36 C 5.45 g/m*3 23.36 C 0 km/h
1125 15-06-2010 20:00:00 21.58 C 5.68 g/m*3 21.58 C 0 km/h
Sensor: Nr:Datum:Temp:Abs-Feuchte:Windchill:Wind:
Aussen-T/F 1126 15-06-2010 21:00:00 19.18 C 5.63 g/m*3 19.18 C 0 km/h
1127 15-06-2010 22:00:00 17.525 C 5.49 g/m*3 17.52 C 0 km/h
1128 15-06-2010 23:00:00 16.16 C 5.92 g/m*3 16.16 C 0 km/h
1129 16-06-2010 00:00:00 14.68 C 6.04 g/m*3 14.68 C 0 km/h
1130 16-06-2010 01:00:00 13.4 C 6.21 g/m*3 13.4 C 0 km/h
1131 16-06-2010 02:00:00 12.7 C 6.14 g/m*3 12.7 C 0 km/h
1132 16-06-2010 03:00:00 11.82 C 6.09 g/m*3 11.82 C 0 km/h
1133 16-06-2010 04:00:00 11.2 C 6.14 g/m*3 11.2 C 0 km/h
1134 16-06-2010 05:00:00 10.66 C 6.19 g/m*3 10.66 C 0 km/h
1135 16-06-2010 06:00:00 10.7 C 6.44 g/m*3 10.7 C 0 km/h
1136 16-06-2010 07:00:00 11.82 C 6.79 g/m*3 11.82 C 0 km/h
1137 16-06-2010 08:00:00 13.7 C 6.35 g/m*3 13.7 C 0 km/h
1138 16-06-2010 09:00:00 15.96 C 5.74 g/m*3 15.96 C 0 km/h
1139 16-06-2010 10:00:00 18.16 C 5.21 g/m*3 18.16 C 0 km/h
1140 16-06-2010 11:00:00 20.48 C 4.59 g/m*3 20.48 C 0 km/h
1141 16-06-2010 12:00:00 23.42 C 4.42 g/m*3 23.42 C 0 km/h
1142 16-06-2010 13:00:00 26.24 C 4.93 g/m*3 26.24 C 0 km/h
1143 16-06-2010 14:00:00 25.56 C 4.75 g/m*3 25.56 C 0 km/h
1144 16-06-2010 15:00:00 26.16 C 4.91 g/m*3 26.16 C 0 km/h
1145 16-06-2010 16:00:00 27.08 C 5.17 g/m*3 27.08 C 0 km/h
1146 16-06-2010 17:00:00 26.94 C 5.13 g/m*3 26.94 C 0 km/h
1147 16-06-2010 18:00:00 26.62 C 5.04 g/m*3 26.62 C 0 km/h
1148 16-06-2010 19:00:00 25.08 C 4.81 g/m*3 25.08 C 0 km/h
1149 16-06-2010 20:00:00 22.84 C 5.25 g/m*3 22.84 C 0 km/h
1150 16-06-2010 21:00:00 20.76 C 5.85 g/m*3 20.76 C 0 km/h
Sensor: Nr:Datum:Temp:Abs-Feuchte:Windchill:Wind:
Aussen-T/F 1151 16-06-2010 22:00:00 18.58 C 5.75 g/m*3 18.58 C 0 km/h
1152 16-06-2010 23:00:00 17.32 C 5.9 g/m*3 17.32 C 0 km/h
1153 17-06-2010 00:00:00 16.12 C 5.98 g/m*3 16.12 C 0 km/h
1154 17-06-2010 01:00:00 15.38 C 6.06 g/m*3 15.38 C 0 km/h
1155 17-06-2010 02:00:00 14.76 C 6.14 g/m*3 14.76 C 0 km/h
1156 17-06-2010 03:00:00 14.48 C 6.11 g/m*3 14.48 C 0 km/h
1157 17-06-2010 04:00:00 14.14 C 5.94 g/m*3 14.14 C 0 km/h
1158 17-06-2010 05:00:00 13.62 C 5.84 g/m*3 13.62 C 0 km/h
1159 17-06-2010 06:00:00 13.84 C 6.14 g/m*3 13.84 C 0 km/h
1160 17-06-2010 07:00:00 15.14 C 6.29 g/m*3 15.14 C 0 km/h
1161 17-06-2010 08:00:00 16.54 C 6.62 g/m*3 16.54 C 0 km/h
1162 17-06-2010 09:00:00 14.46 C 8.06 g/m*3 14.46 C 0 km/h
1163 17-06-2010 10:00:00 13.04 C 9.62 g/m*3 13.04 C 0 km/h
1164 17-06-2010 11:00:00 13.8 C 10.51 g/m*3 13.8 C 0 km/h
1165 17-06-2010 12:00:00 13.86 C 10.69 g/m*3 13.86 C 0 km/h
1166 17-06-2010 13:00:00 13.78 C 10.81 g/m*3 13.78 C 0 km/h
1167 17-06-2010 14:00:00 14.36 C 11.32 g/m*3 14.36 C 0 km/h
1168 17-06-2010 15:00:00 16.58 C 12.22 g/m*3 16.58 C 0 km/h
1169 17-06-2010 16:00:00 16.92 C 12.04 g/m*3 16.92 C 0 km/h
1170 17-06-2010 17:00:00 16.7 C 11.82 g/m*3 16.7 C 0 km/h
1171 17-06-2010 18:00:00 17.12 C 11.69 g/m*3 17.12 C 0 km/h
1172 17-06-2010 19:00:00 16.62 C 11.97 g/m*3 16.62 C 0 km/h
1173 17-06-2010 20:00:00 15.82 C 11.81 g/m*3 15.82 C 0 km/h
1174 17-06-2010 21:00:00 15.46 C 11.74 g/m*3 15.46 C 0 km/h
1175 17-06-2010 22:00:00 15.06 C 11.61 g/m*3 15.06 C 0 km/h
Sensor: Nr:Datum:Temp:Abs-Feuchte:Windchill:Wind:
Aussen-T/F 1176 17-06-2010 23:00:00 14.46 C 11.29 g/m*3 14.46 C 0 km/h
1177 18-06-2010 00:00:00 13.8 C 10.91 g/m*3 13.8 C 0 km/h
1178 18-06-2010 01:00:00 14.04 C 11.12 g/m*3 14.04 C 0 km/h
1179 18-06-2010 02:00:00 13.76 C 10.93 g/m*3 13.76 C 0 km/h
1180 18-06-2010 03:00:00 13.48 C 10.72 g/m*3 13.48 C 0 km/h
1181 18-06-2010 04:00:00 12.5 C 10 g/m*3 12.5 C 0 km/h
1182 18-06-2010 05:00:00 12.1 C 9.76 g/m*3 12.1 C 0 km/h
1183 18-06-2010 06:00:00 12.18 C 9.79 g/m*3 12.18 C 0 km/h
1184 18-06-2010 07:00:00 12.74 C 9.86 g/m*3 12.74 C 0 km/h
1185 18-06-2010 08:00:00 13.64 C 9.84 g/m*3 13.64 C 0 km/h
1186 18-06-2010 09:00:00 15.48 C 9.74 g/m*3 15.48 C 0 km/h
1187 18-06-2010 10:00:00 16.56 C 9.33 g/m*3 16.56 C 0 km/h
1188 18-06-2010 11:00:00 16.18 C 8.93 g/m*3 16.18 C 0 km/h
1189 18-06-2010 12:00:00 15.46 C 8.81 g/m*3 15.46 C 0 km/h
1190 18-06-2010 13:00:00 15.84 C 8.58 g/m*3 15.84 C 0 km/h
1191 18-06-2010 14:00:00 14.86 C 8.49 g/m*3 14.86 C 0 km/h
1192 18-06-2010 15:00:00 14.94 C 8.41 g/m*3 14.94 C 0 km/h
1193 18-06-2010 16:00:00 15.38 C 8.32 g/m*3 15.38 C 0 km/h
1194 18-06-2010 17:00:00 19.16 C 7.27 g/m*3 19.16 C 0 km/h
1195 18-06-2010 18:00:00 21.46 C 6.92 g/m*3 21.46 C 0 km/h
1196 18-06-2010 19:00:00 19.52 C 7.23 g/m*3 19.52 C 0 km/h
1197 18-06-2010 20:00:00 17.82 C 7.63 g/m*3 17.82 C 0 km/h
1198 18-06-2010 21:00:00 15.02 C 9.53 g/m*3 15.02 C 0 km/h
1199 18-06-2010 22:00:00 14.86 C 9.54 g/m*3 14.86 C 0 km/h
1200 18-06-2010 23:00:00 14.8 C 7.52 g/m*3 14.8 C 0 km/h
Sensor: Nr:Datum:Temp:Abs-Feuchte:Windchill:Wind:
Aussen-T/F 1201 19-06-2010 00:00:00 14.4 C 6.9 g/m*3 14.4 C 0 km/h
1202 19-06-2010 01:00:00 13.6 C 7.13 g/m*3 13.6 C 0 km/h
1203 19-06-2010 02:00:00 12.56 C 6.84 g/m*3 12.56 C 0 km/h
1204 19-06-2010 03:00:00 12.08 C 6.68 g/m*3 12.08 C 0 km/h
1205 19-06-2010 04:00:00 10.94 C 6.56 g/m*3 10.94 C 0 km/h
1206 19-06-2010 05:00:00 11.14 C 6.58 g/m*3 11.14 C 0 km/h
1207 19-06-2010 06:00:00 11.5 C 6.82 g/m*3 11.5 C 0 km/h
1208 19-06-2010 07:00:00 11.86 C 6.7 g/m*3 11.86 C 0 km/h
1209 19-06-2010 08:00:00 11.96 C 6.46 g/m*3 11.96 C 0 km/h
1210 19-06-2010 09:00:00 12.48 C 6.61 g/m*3 12.48 C 0 km/h
1211 19-06-2010 10:00:00 12.22 C 6.63 g/m*3 12.22 C 0 km/h
1212 19-06-2010 11:00:00 14.74 C 6.26 g/m*3 14.74 C 0 km/h
1213 19-06-2010 12:00:00 16.28 C 5.38 g/m*3 16.28 C 0 km/h
1214 19-06-2010 13:00:00 16.96 C 5.98 g/m*3 16.96 C 0 km/h
1215 19-06-2010 14:00:00 18.26 C 5.02 g/m*3 18.26 C 0 km/h
1216 19-06-2010 15:00:00 18.32 C 4.82 g/m*3 18.32 C 0 km/h
1217 19-06-2010 16:00:00 18.72 C 4.97 g/m*3 18.72 C 0 km/h
1218 19-06-2010 17:00:00 17.66 C 5.12 g/m*3 17.66 C 0 km/h
1219 19-06-2010 18:00:00 16.34 C 5.48 g/m*3 16.34 C 0 km/h
1220 19-06-2010 19:00:00 16.68 C 5.37 g/m*3 16.68 C 0 km/h
1221 19-06-2010 20:00:00 14.7 C 5.72 g/m*3 14.7 C 0 km/h
1222 19-06-2010 21:00:00 14.14 C 6.18 g/m*3 14.14 C 0 km/h
1223 19-06-2010 22:00:00 12.92 C 6.07 g/m*3 12.92 C 0 km/h
1224 19-06-2010 23:00:00 12.08 C 6.23 g/m*3 12.08 C 0 km/h
1225 20-06-2010 00:00:00 10.92 C 6.35 g/m*3 10.92 C 0 km/h
Sensor: Nr:Datum:Temp:Abs-Feuchte:Windchill:Wind:
Aussen-T/F 1226 20-06-2010 01:00:00 10.46 C 5.96 g/m*3 10.46 C 0 km/h
1227 20-06-2010 02:00:00 9.64 C 6.06 g/m*3 9.64 C 0 km/h
1228 20-06-2010 03:00:00 9.46 C 6.57 g/m*3 9.46 C 0 km/h
1229 20-06-2010 04:00:00 9.2 C 6.98 g/m*3 9.2 C 0 km/h
1230 20-06-2010 05:00:00 9.34 C 7.12 g/m*3 9.34 C 0 km/h
1231 20-06-2010 06:00:00 10.08 C 7.31 g/m*3 10.08 C 0 km/h
1232 20-06-2010 07:00:00 10.44 C 7.38 g/m*3 10.44 C 0 km/h
1233 20-06-2010 08:00:00 10.58 C 8.09 g/m*3 10.58 C 0 km/h
1234 20-06-2010 09:00:00 12.48 C 8.02 g/m*3 12.48 C 0 km/h
1235 20-06-2010 10:00:00 13.54 C 7.25 g/m*3 13.54 C 0 km/h
1236 20-06-2010 11:00:00 13.44 C 6.95 g/m*3 13.44 C 0 km/h
1237 20-06-2010 12:00:00 15.26 C 6.51 g/m*3 15.26 C 0 km/h
1238 20-06-2010 13:00:00 16.36 C 6.4 g/m*3 16.36 C 0 km/h
1239 20-06-2010 14:00:00 16.52 C 5.88 g/m*3 16.52 C 0 km/h
1240 20-06-2010 15:00:00 17.86 C 5.88 g/m*3 17.86 C 0 km/h
1241 20-06-2010 16:00:00 16.74 C 5.7 g/m*3 16.74 C 0 km/h
1242 20-06-2010 17:00:00 16.32 C 5.78 g/m*3 16.32 C 0 km/h
1243 20-06-2010 18:00:00 16.32 C 6.25 g/m*3 16.32 C 0 km/h
1244 20-06-2010 19:00:00 15.68 C 6.01 g/m*3 15.68 C 0 km/h
1245 20-06-2010 20:00:00 15.24 C 6.17 g/m*3 15.24 C 0 km/h
1246 20-06-2010 21:00:00 14.58 C 6.67 g/m*3 14.58 C 0 km/h
1247 20-06-2010 22:00:00 13.78 C 6.88 g/m*3 13.78 C 0 km/h
1248 20-06-2010 23:00:00 12.64 C 6.92 g/m*3 12.64 C 0 km/h
1249 21-06-2010 00:00:00 11.5 C 7.07 g/m*3 11.5 C 0 km/h
1250 21-06-2010 01:00:00 10.94 C 7.02 g/m*3 10.94 C 0 km/h
Sensor: Nr:Datum:Temp:Abs-Feuchte:Windchill:Wind:
Aussen-T/F 1251 21-06-2010 02:00:00 10.28 C 6.98 g/m*3 10.28 C 0 km/h
1252 21-06-2010 03:00:00 9.64 C 6.81 g/m*3 9.64 C 0 km/h
1253 21-06-2010 04:00:00 9.16 C 6.86 g/m*3 9.16 C 0 km/h
1254 21-06-2010 05:00:00 8.68 C 6.89 g/m*3 8.68 C 0 km/h
1255 21-06-2010 06:00:00 8.62 C 7.14 g/m*3 8.62 C 0 km/h
1256 21-06-2010 07:00:00 10.1 C 7.34 g/m*3 10.1 C 0 km/h
1257 21-06-2010 08:00:00 12.54 C 6.92 g/m*3 12.54 C 0 km/h
1258 21-06-2010 09:00:00 13.74 C 6.1 g/m*3 13.74 C 0 km/h
1259 21-06-2010 10:00:00 13.76 C 5.73 g/m*3 13.76 C 0 km/h
1260 21-06-2010 11:00:00 14.68 C 5.38 g/m*3 14.68 C 0 km/h
1261 21-06-2010 12:00:00 15.72 C 5.28 g/m*3 15.72 C 0 km/h
1262 21-06-2010 13:00:00 16.7 C 5.14 g/m*3 16.7 C 0 km/h
1263 21-06-2010 14:00:00 18.62 C 4.68 g/m*3 18.62 C 0 km/h
1264 21-06-2010 15:00:00 18.66 C 4.57 g/m*3 18.66 C 0 km/h
1265 21-06-2010 16:00:00 20.76 C 4.52 g/m*3 20.76 C 0 km/h
1266 21-06-2010 17:00:00 19.58 C 4.62 g/m*3 19.58 C 0 km/h
1267 21-06-2010 18:00:00 18.32 C 4.95 g/m*3 18.32 C 0 km/h
1268 21-06-2010 19:00:00 17.54 C 5.14 g/m*3 17.54 C 0 km/h
1269 21-06-2010 20:00:00 16.82 C 6.16 g/m*3 16.82 C 0 km/h
1270 21-06-2010 21:00:00 15.24 C 6.19 g/m*3 15.24 C 0 km/h
1271 21-06-2010 22:00:00 13.74 C 6.22 g/m*3 13.74 C 0 km/h
1272 21-06-2010 23:00:00 13.32 C 6.48 g/m*3 13.32 C 0 km/h
1273 22-06-2010 00:00:00 12.34 C 6.62 g/m*3 12.34 C 0 km/h
1274 22-06-2010 01:00:00 12.24 C 7.01 g/m*3 12.24 C 0 km/h
1275 22-06-2010 02:00:00 12.02 C 7.06 g/m*3 12.02 C 0 km/h
Sensor: Nr:Datum:Temp:Abs-Feuchte:Windchill:Wind:
Aussen-T/F 1276 22-06-2010 03:00:00 11.82 C 7.29 g/m*3 11.82 C 0 km/h
1277 22-06-2010 04:00:00 11.48 C 7.39 g/m*3 11.48 C 0 km/h
1278 22-06-2010 05:00:00 11.44 C 7.49 g/m*3 11.44 C 0 km/h
1279 22-06-2010 06:00:00 11.58 C 7.62 g/m*3 11.58 C 0 km/h
1280 22-06-2010 07:00:00 12.24 C 7.68 g/m*3 12.24 C 0 km/h
1281 22-06-2010 08:00:00 13 C 7.48 g/m*3 13 C 0 km/h
1282 22-06-2010 09:00:00 15 C 7.36 g/m*3 15 C 0 km/h
1283 22-06-2010 10:00:00 18.72 C 6.38 g/m*3 18.72 C 0 km/h
1284 22-06-2010 11:00:00 20.24 C 5.82 g/m*3 20.24 C 0 km/h
1285 22-06-2010 12:00:00 21.08 C 5.48 g/m*3 21.08 C 0 km/h
1286 22-06-2010 13:00:00 21.68 C 5.3 g/m*3 21.68 C 0 km/h
1287 22-06-2010 14:00:00 23.3 C 5.19 g/m*3 23.3 C 0 km/h
1288 22-06-2010 15:00:00 24.54 C 4.93 g/m*3 24.54 C 0 km/h
1289 22-06-2010 16:00:00 24.28 C 4.95 g/m*3 24.28 C 0 km/h
1290 22-06-2010 17:00:00 23.3 C 5.19 g/m*3 23.3 C 0 km/h
1291 22-06-2010 18:00:00 23.14 C 6.26 g/m*3 23.14 C 0 km/h
1292 22-06-2010 19:00:00 23.48 C 6.29 g/m*3 23.48 C 0 km/h
1293 22-06-2010 20:00:00 21.04 C 6.65 g/m*3 21.04 C 0 km/h
1294 22-06-2010 21:00:00 18.02 C 6.46 g/m*3 18.02 C 0 km/h
1295 22-06-2010 22:00:00 16.32 C 6.81 g/m*3 16.32 C 0 km/h
1296 22-06-2010 23:00:00 14.98 C 6.99 g/m*3 14.98 C 0 km/h
1297 23-06-2010 00:00:00 13.8 C 7.51 g/m*3 13.8 C 0 km/h
1298 23-06-2010 01:00:00 12.68 C 7.72 g/m*3 12.68 C 0 km/h
1299 23-06-2010 02:00:00 11.84 C 7.79 g/m*3 11.84 C 0 km/h
1300 23-06-2010 03:00:00 11.02 C 7.72 g/m*3 11.02 C 0 km/h
Sensor: Nr:Datum:Temp:Abs-Feuchte:Windchill:Wind:
Aussen-T/F 1301 23-06-2010 04:00:00 10.42 C 7.66 g/m*3 10.42 C 0 km/h
1302 23-06-2010 05:00:00 10 C 7.69 g/m*3 10 C 0 km/h
1303 23-06-2010 06:00:00 10.06 C 7.75 g/m*3 10.06 C 0 km/h
1304 23-06-2010 07:00:00 10.64 C 7.77 g/m*3 10.64 C 0 km/h
1305 23-06-2010 08:00:00 11.78 C 7.86 g/m*3 11.78 C 0 km/h
1306 23-06-2010 09:00:00 14.16 C 7.82 g/m*3 14.16 C 0 km/h
1307 23-06-2010 10:00:00 17.76 C 7.72 g/m*3 17.76 C 0 km/h
1308 23-06-2010 11:00:00 21.04 C 7.42 g/m*3 21.04 C 0 km/h
1309 23-06-2010 12:00:00 25.96 C 5.93 g/m*3 25.96 C 0 km/h
1310 23-06-2010 13:00:00 28.04 C 5.56 g/m*3 28.04 C 0 km/h
1311 23-06-2010 14:00:00 27.64 C 5.44 g/m*3 27.64 C 0 km/h
1312 23-06-2010 15:00:00 28.64 C 5.69 g/m*3 28.64 C 0 km/h
1313 23-06-2010 16:00:00 30.16 C 6.12 g/m*3 30.16 C 0 km/h
1314 23-06-2010 17:00:00 29.46 C 5.89 g/m*3 29.46 C 0 km/h
1315 23-06-2010 18:00:00 30.28 C 6.16 g/m*3 30.28 C 0 km/h
1316 23-06-2010 19:00:00 29.14 C 5.79 g/m*3 29.14 C 0 km/h
1317 23-06-2010 20:00:00 27.38 C 6.57 g/m*3 27.38 C 0 km/h
1318 23-06-2010 21:00:00 22.68 C 6.86 g/m*3 22.68 C 0 km/h
1319 23-06-2010 22:00:00 20.52 C 6.95 g/m*3 20.52 C 0 km/h
1320 23-06-2010 23:00:00 19.12 C 7.25 g/m*3 19.12 C 0 km/h
1321 24-06-2010 00:00:00 17.58 C 7.79 g/m*3 17.58 C 0 km/h
1322 24-06-2010 01:00:00 16.08 C 8.24 g/m*3 16.08 C 0 km/h
1323 24-06-2010 02:00:00 14.98 C 8.3 g/m*3 14.98 C 0 km/h
1324 24-06-2010 03:00:00 14.18 C 8.34 g/m*3 14.18 C 0 km/h
1325 24-06-2010 04:00:00 13.2 C 8.4 g/m*3 13.2 C 0 km/h
Sensor: Nr:Datum:Temp:Abs-Feuchte:Windchill:Wind:
Aussen-T/F 1326 24-06-2010 05:00:00 12.62 C 8.42 g/m*3 12.62 C 0 km/h
1327 24-06-2010 06:00:00 12.7 C 8.53 g/m*3 12.7 C 0 km/h
1328 24-06-2010 07:00:00 13.42 C 8.43 g/m*3 13.42 C 0 km/h
1329 24-06-2010 08:00:00 14.76 C 8.59 g/m*3 14.76 C 0 km/h
1330 24-06-2010 09:00:00 17.46 C 8.57 g/m*3 17.46 C 0 km/h
1331 24-06-2010 10:00:00 21.5 C 8.6 g/m*3 21.5 C 0 km/h
1332 24-06-2010 11:00:00 24.96 C 7.72 g/m*3 24.96 C 0 km/h
1333 24-06-2010 12:00:00 28.72 C 6.05 g/m*3 28.72 C 0 km/h
1334 24-06-2010 13:00:00 30.34 C 6.18 g/m*3 30.34 C 0 km/h
1335 24-06-2010 14:00:00 29.72 C 5.97 g/m*3 29.72 C 0 km/h
1336 24-06-2010 15:00:00 30.9 C 6.37 g/m*3 30.9 C 0 km/h
1337 24-06-2010 16:00:00 31.32 C 6.51 g/m*3 31.32 C 0 km/h
1338 24-06-2010 17:00:00 32.64 C 6.99 g/m*3 32.64 C 0 km/h
1339 24-06-2010 18:00:00 32.64 C 6.99 g/m*3 32.64 C 0 km/h
1340 24-06-2010 19:00:00 31.72 C 6.65 g/m*3 31.72 C 0 km/h
1341 24-06-2010 20:00:00 30.14 C 6.91 g/m*3 30.14 C 0 km/h
1342 24-06-2010 21:00:00 25.24 C 7.09 g/m*3 25.24 C 0 km/h
1343 24-06-2010 22:00:00 22.96 C 7.46 g/m*3 22.96 C 0 km/h
1344 24-06-2010 23:00:00 21.38 C 7.72 g/m*3 21.38 C 0 km/h
1345 25-06-2010 00:00:00 20.04 C 8.04 g/m*3 20.04 C 0 km/h
1346 25-06-2010 01:00:00 18.86 C 8.37 g/m*3 18.86 C 0 km/h
1347 25-06-2010 02:00:00 18.4 C 8.78 g/m*3 18.4 C 0 km/h
1348 25-06-2010 03:00:00 17.06 C 9.12 g/m*3 17.06 C 0 km/h
1349 25-06-2010 04:00:00 16.72 C 9.31 g/m*3 16.72 C 0 km/h
1350 25-06-2010 05:00:00 16.16 C 9.35 g/m*3 16.16 C 0 km/h
Sensor: Nr:Datum:Temp:Abs-Feuchte:Windchill:Wind:
Aussen-T/F 1351 25-06-2010 06:00:00 16.22 C 9.53 g/m*3 16.22 C 0 km/h
1352 25-06-2010 07:00:00 17.12 C 9.68 g/m*3 17.12 C 0 km/h
1353 25-06-2010 08:00:00 19.04 C 9.41 g/m*3 19.04 C 0 km/h
1354 25-06-2010 09:00:00 20.38 C 9.15 g/m*3 20.38 C 0 km/h
1355 25-06-2010 10:00:00 22.58 C 8.75 g/m*3 22.58 C 0 km/h
1356 25-06-2010 11:00:00 24.32 C 8.24 g/m*3 24.32 C 0 km/h
1357 25-06-2010 12:00:00 27.72 C 7.82 g/m*3 27.72 C 0 km/h
1358 25-06-2010 13:00:00 29.04 C 7.25 g/m*3 29.04 C 0 km/h
1359 25-06-2010 14:00:00 28.84 C 6.95 g/m*3 28.84 C 0 km/h
1360 25-06-2010 15:00:00 29.6 C 6.47 g/m*3 29.6 C 0 km/h
1361 25-06-2010 16:00:00 30.24 C 6.14 g/m*3 30.24 C 0 km/h
1362 25-06-2010 17:00:00 30.7 C 6.3 g/m*3 30.7 C 0 km/h
1363 25-06-2010 18:00:00 30.74 C 6.31 g/m*3 30.74 C 0 km/h
1364 25-06-2010 19:00:00 30.2 C 6.19 g/m*3 30.2 C 0 km/h
1365 25-06-2010 20:00:00 28.24 C 6.01 g/m*3 28.24 C 0 km/h
1366 25-06-2010 21:00:00 24.98 C 7.08 g/m*3 24.98 C 0 km/h
1367 25-06-2010 22:00:00 22.64 C 7.45 g/m*3 22.64 C 0 km/h
1368 25-06-2010 23:00:00 21.04 C 7.79 g/m*3 21.04 C 0 km/h
1369 26-06-2010 00:00:00 19.68 C 8.18 g/m*3 19.68 C 0 km/h
1370 26-06-2010 01:00:00 18.6 C 8.31 g/m*3 18.6 C 0 km/h
1371 26-06-2010 02:00:00 17.42 C 8.55 g/m*3 17.42 C 0 km/h
1372 26-06-2010 03:00:00 16.46 C 8.66 g/m*3 16.46 C 0 km/h
1373 26-06-2010 04:00:00 15.5 C 8.83 g/m*3 15.5 C 0 km/h
1374 26-06-2010 05:00:00 14.76 C 8.92 g/m*3 14.76 C 0 km/h
1375 26-06-2010 06:00:00 14.74 C 9.21 g/m*3 14.74 C 0 km/h
Sensor: Nr:Datum:Temp:Abs-Feuchte:Windchill:Wind:
Aussen-T/F 1376 26-06-2010 07:00:00 15.38 C 9.32 g/m*3 15.38 C 0 km/h
1377 26-06-2010 08:00:00 16.8 C 9.52 g/m*3 16.8 C 0 km/h
1378 26-06-2010 09:00:00 19.56 C 9.6 g/m*3 19.56 C 0 km/h
1379 26-06-2010 10:00:00 23.02 C 8.89 g/m*3 23.02 C 0 km/h
1380 26-06-2010 11:00:00 26.18 C 7.23 g/m*3 26.18 C 0 km/h
1381 26-06-2010 12:00:00 29.4 C 6.46 g/m*3 29.4 C 0 km/h
1382 26-06-2010 13:00:00 31.08 C 6.43 g/m*3 31.08 C 0 km/h
1383 26-06-2010 14:00:00 29.52 C 5.91 g/m*3 29.52 C 0 km/h
1384 26-06-2010 15:00:00 30.66 C 6.28 g/m*3 30.66 C 0 km/h
1385 26-06-2010 16:00:00 31.64 C 6.62 g/m*3 31.64 C 0 km/h
1386 26-06-2010 17:00:00 32.84 C 7.06 g/m*3 32.84 C 0 km/h
1387 26-06-2010 18:00:00 32.04 C 6.77 g/m*3 32.04 C 0 km/h
1388 26-06-2010 19:00:00 31.24 C 6.48 g/m*3 31.24 C 0 km/h
1389 26-06-2010 20:00:00 30.14 C 6.48 g/m*3 30.14 C 0 km/h
1390 26-06-2010 21:00:00 25.86 C 7.1 g/m*3 25.86 C 0 km/h
1391 26-06-2010 22:00:00 23.16 C 7.55 g/m*3 23.16 C 0 km/h
1392 26-06-2010 23:00:00 21.56 C 7.83 g/m*3 21.56 C 0 km/h
1393 27-06-2010 00:00:00 20.08 C 7.95 g/m*3 20.08 C 0 km/h
1394 27-06-2010 01:00:00 18.76 C 8.32 g/m*3 18.76 C 0 km/h
1395 27-06-2010 02:00:00 17.56 C 8.59 g/m*3 17.56 C 0 km/h
1396 27-06-2010 03:00:00 16.64 C 8.84 g/m*3 16.64 C 0 km/h
1397 27-06-2010 04:00:00 15.76 C 8.89 g/m*3 15.76 C 0 km/h
1398 27-06-2010 05:00:00 15.04 C 8.92 g/m*3 15.04 C 0 km/h
1399 27-06-2010 06:00:00 14.94 C 9.2 g/m*3 14.94 C 0 km/h
1400 27-06-2010 07:00:00 15.36 C 9.36 g/m*3 15.36 C 0 km/h
Sensor: Nr:Datum:Temp:Abs-Feuchte:Windchill:Wind:
Aussen-T/F 1401 27-06-2010 08:00:00 17.04 C 9.25 g/m*3 17.04 C 0 km/h
1402 27-06-2010 09:00:00 20.34 C 9.41 g/m*3 20.34 C 0 km/h
1403 27-06-2010 10:00:00 24.16 C 8.91 g/m*3 24.16 C 0 km/h
1404 27-06-2010 11:00:00 27.22 C 7.82 g/m*3 27.22 C 0 km/h
1405 27-06-2010 12:00:00 30.58 C 6.45 g/m*3 30.58 C 0 km/h
1406 27-06-2010 13:00:00 31.9 C 6.72 g/m*3 31.9 C 0 km/h
1407 27-06-2010 14:00:00 31.34 C 6.52 g/m*3 31.34 C 0 km/h
1408 27-06-2010 15:00:00 32.44 C 6.91 g/m*3 32.44 C 0 km/h
1409 27-06-2010 16:00:00 33.1 C 7.16 g/m*3 33.1 C 0 km/h
1410 27-06-2010 17:00:00 33.26 C 7.22 g/m*3 33.26 C 0 km/h
1411 27-06-2010 18:00:00 33.72 C 7.39 g/m*3 33.72 C 0 km/h
1412 27-06-2010 19:00:00 33.38 C 7.26 g/m*3 33.38 C 0 km/h
1413 27-06-2010 20:00:00 31.46 C 6.63 g/m*3 31.46 C 0 km/h
1414 27-06-2010 21:00:00 26.92 C 7.23 g/m*3 26.92 C 0 km/h
1415 27-06-2010 22:00:00 24.2 C 7.48 g/m*3 24.2 C 0 km/h
1416 27-06-2010 23:00:00 22.66 C 7.94 g/m*3 22.66 C 0 km/h
1417 28-06-2010 00:00:00 21 C 8.21 g/m*3 21 C 0 km/h
1418 28-06-2010 01:00:00 19.78 C 8.19 g/m*3 19.78 C 0 km/h
1419 28-06-2010 02:00:00 18.7 C 8.65 g/m*3 18.7 C 0 km/h
1420 28-06-2010 03:00:00 17.78 C 8.76 g/m*3 17.78 C 0 km/h
1421 28-06-2010 04:00:00 16.78 C 9.02 g/m*3 16.78 C 0 km/h
1422 28-06-2010 05:00:00 16.1 C 9.21 g/m*3 16.1 C 0 km/h
1423 28-06-2010 06:00:00 16.42 C 9.47 g/m*3 16.42 C 0 km/h
1424 28-06-2010 07:00:00 16.8 C 9.69 g/m*3 16.8 C 0 km/h
1425 28-06-2010 08:00:00 18.2 C 9.61 g/m*3 18.2 C 0 km/h
Sensor: Nr:Datum:Temp:Abs-Feuchte:Windchill:Wind:
Aussen-T/F 1426 28-06-2010 09:00:00 21.24 C 9.7 g/m*3 21.24 C 0 km/h
1427 28-06-2010 10:00:00 25.26 C 9.67 g/m*3 25.26 C 0 km/h
1428 28-06-2010 11:00:00 28.96 C 8.88 g/m*3 28.96 C 0 km/h
1429 28-06-2010 12:00:00 31.7 C 7.04 g/m*3 31.7 C 0 km/h
1430 28-06-2010 13:00:00 33.08 C 7.15 g/m*3 33.08 C 0 km/h
1431 28-06-2010 14:00:00 32.52 C 6.94 g/m*3 32.52 C 0 km/h
1432 28-06-2010 15:00:00 32.42 C 6.9 g/m*3 32.42 C 0 km/h
1433 28-06-2010 16:00:00 32.74 C 7.02 g/m*3 32.74 C 0 km/h
1434 28-06-2010 17:00:00 33.18 C 7.19 g/m*3 33.18 C 0 km/h
1435 28-06-2010 18:00:00 32.8 C 7.04 g/m*3 32.8 C 0 km/h
1436 28-06-2010 19:00:00 31.6 C 6.61 g/m*3 31.6 C 0 km/h
1437 28-06-2010 20:00:00 30.48 C 6.85 g/m*3 30.48 C 0 km/h
1438 28-06-2010 21:00:00 27.64 C 7.2 g/m*3 27.64 C 0 km/h
1439 28-06-2010 22:00:00 26.15 C 7.55 g/m*3 26.15 C 0 km/h
1440 28-06-2010 23:00:00 24.98 C 8.28 g/m*3 24.98 C 0 km/h
1441 29-06-2010 00:00:00 23.56 C 8.74 g/m*3 23.56 C 0 km/h
1442 29-06-2010 01:00:00 22.18 C 9.02 g/m*3 22.18 C 0 km/h
1443 29-06-2010 02:00:00 21.12 C 9.3 g/m*3 21.12 C 0 km/h
1444 29-06-2010 03:00:00 20.58 C 9.51 g/m*3 20.58 C 0 km/h
1445 29-06-2010 04:00:00 19.52 C 9.75 g/m*3 19.52 C 0 km/h
1446 29-06-2010 05:00:00 18.7 C 10.21 g/m*3 18.7 C 0 km/h
1447 29-06-2010 06:00:00 18.36 C 10.45 g/m*3 18.36 C 0 km/h
1448 29-06-2010 07:00:00 18.88 C 10.65 g/m*3 18.88 C 0 km/h
1449 29-06-2010 08:00:00 20.02 C 10.52 g/m*3 20.02 C 0 km/h
1450 29-06-2010 09:00:00 22.62 C 10.1 g/m*3 22.62 C 0 km/h
Sensor: Nr:Datum:Temp:Abs-Feuchte:Windchill:Wind:
Aussen-T/F 1451 29-06-2010 10:00:00 25.84 C 9.8 g/m*3 25.84 C 0 km/h
1452 29-06-2010 11:00:00 28.5 C 9.61 g/m*3 28.5 C 0 km/h
1453 29-06-2010 12:00:00 31.44 C 7.99 g/m*3 31.44 C 0 km/h
1454 29-06-2010 13:00:00 32.64 C 6.99 g/m*3 32.64 C 0 km/h
1455 29-06-2010 14:00:00 31.54 C 6.65 g/m*3 31.54 C 0 km/h
1456 29-06-2010 15:00:00 28.6 C 7.98 g/m*3 28.6 C 0 km/h
1457 29-06-2010 16:00:00 27.06 C 11.05 g/m*3 27.06 C 0 km/h
1458 29-06-2010 17:00:00 29.54 C 9.76 g/m*3 29.54 C 0 km/h
1459 29-06-2010 18:00:00 29.1 C 8.61 g/m*3 29.1 C 0 km/h
1460 29-06-2010 19:00:00 28.96 C 8.6 g/m*3 28.96 C 0 km/h
1461 29-06-2010 20:00:00 27.68 C 8.6 g/m*3 27.68 C 0 km/h
1462 29-06-2010 21:00:00 25.38 C 9.5 g/m*3 25.38 C 0 km/h
1463 29-06-2010 22:00:00 23 C 9.87 g/m*3 23 C 0 km/h
1464 29-06-2010 23:00:00 21.86 C 10.2 g/m*3 21.86 C 0 km/h
1465 30-06-2010 00:00:00 20.6 C 10.49 g/m*3 20.6 C 0 km/h
1466 30-06-2010 01:00:00 19.5 C 10.81 g/m*3 19.5 C 0 km/h
1467 30-06-2010 02:00:00 18.54 C 10.94 g/m*3 18.54 C 0 km/h
1468 30-06-2010 03:00:00 17.76 C 11.11 g/m*3 17.76 C 0 km/h
1469 30-06-2010 04:00:00 16.96 C 11.03 g/m*3 16.96 C 0 km/h
1470 30-06-2010 05:00:00 16.32 C 10.95 g/m*3 16.32 C 0 km/h
1471 30-06-2010 06:00:00 16.18 C 10.8 g/m*3 16.18 C 0 km/h
1472 30-06-2010 07:00:00 17.32 C 10.77 g/m*3 17.32 C 0 km/h
1473 30-06-2010 08:00:00 18.28 C 10.93 g/m*3 18.28 C 0 km/h
1474 30-06-2010 09:00:00 20.5 C 9.93 g/m*3 20.5 C 0 km/h
1475 30-06-2010 10:00:00 23.6 C 9.32 g/m*3 23.6 C 0 km/h
Sensor: Nr:Datum:Temp:Abs-Feuchte:Windchill:Wind:
Aussen-T/F 1476 30-06-2010 11:00:00 26.9 C 8.5 g/m*3 26.9 C 0 km/h
1477 30-06-2010 12:00:00 29.24 C 6.58 g/m*3 29.24 C 0 km/h
1478 30-06-2010 13:00:00 31.84 C 6.69 g/m*3 31.84 C 0 km/h
1479 30-06-2010 14:00:00 31.78 C 6.67 g/m*3 31.78 C 0 km/h
1480 30-06-2010 15:00:00 32.34 C 6.87 g/m*3 32.34 C 0 km/h
1481 30-06-2010 16:00:00 32.36 C 6.88 g/m*3 32.36 C 0 km/h
1482 30-06-2010 17:00:00 32.34 C 6.87 g/m*3 32.34 C 0 km/h
1483 30-06-2010 18:00:00 32.32 C 6.87 g/m*3 32.32 C 0 km/h
1484 30-06-2010 19:00:00 31.08 C 6.94 g/m*3 31.08 C 0 km/h
1485 30-06-2010 20:00:00 29.74 C 7.95 g/m*3 29.74 C 0 km/h
1486 30-06-2010 21:00:00 26.54 C 7.83 g/m*3 26.54 C 0 km/h
1487 30-06-2010 22:00:00 24.98 C 8.09 g/m*3 24.98 C 0 km/h
1488 30-06-2010 23:00:00 23.8 C 8.56 g/m*3 23.8 C 0 km/h
1489 01-07-2010 00:00:00 22.42 C 8.71 g/m*3 22.42 C 0 km/h
1490 01-07-2010 01:00:00 21.16 C 9.1 g/m*3 21.16 C 0 km/h
1491 01-07-2010 02:00:00 20 C 9.51 g/m*3 20 C 0 km/h
1492 01-07-2010 03:00:00 19.06 C 9.85 g/m*3 19.06 C 0 km/h
1493 01-07-2010 04:00:00 18.3 C 9.85 g/m*3 18.3 C 0 km/h
1494 01-07-2010 05:00:00 17.36 C 10.17 g/m*3 17.36 C 0 km/h
1495 01-07-2010 06:00:00 17.12 C 10.41 g/m*3 17.12 C 0 km/h
1496 01-07-2010 07:00:00 17.68 C 10.43 g/m*3 17.68 C 0 km/h
1497 01-07-2010 08:00:00 18.82 C 10.55 g/m*3 18.82 C 0 km/h
1498 01-07-2010 09:00:00 21.8 C 10.48 g/m*3 21.8 C 0 km/h
1499 01-07-2010 10:00:00 25.82 C 10.22 g/m*3 25.82 C 0 km/h
1500 01-07-2010 11:00:00 28.68 C 9.2 g/m*3 28.68 C 0 km/h
Sensor: Nr:Datum:Temp:Abs-Feuchte:Windchill:Wind:
Aussen-T/F 1501 01-07-2010 12:00:00 31.1 C 7.01 g/m*3 31.1 C 0 km/h
1502 01-07-2010 13:00:00 32.8 C 7.04 g/m*3 32.8 C 0 km/h
1503 01-07-2010 14:00:00 32.22 C 6.83 g/m*3 32.22 C 0 km/h
1504 01-07-2010 15:00:00 32.88 C 7.07 g/m*3 32.88 C 0 km/h
1505 01-07-2010 16:00:00 33.2 C 7.2 g/m*3 33.2 C 0 km/h
1506 01-07-2010 17:00:00 33.3 C 7.23 g/m*3 33.3 C 0 km/h
1507 01-07-2010 18:00:00 33.86 C 7.45 g/m*3 33.86 C 0 km/h
1508 01-07-2010 19:00:00 33.46 C 7.29 g/m*3 33.46 C 0 km/h
1509 01-07-2010 20:00:00 31.52 C 7.7 g/m*3 31.52 C 0 km/h
1510 01-07-2010 21:00:00 27.42 C 8.59 g/m*3 27.42 C 0 km/h
1511 01-07-2010 22:00:00 25.5 C 8.52 g/m*3 25.5 C 0 km/h
1512 01-07-2010 23:00:00 24.74 C 8.44 g/m*3 24.74 C 0 km/h
1513 02-07-2010 00:00:00 23.48 C 8.83 g/m*3 23.48 C 0 km/h
1514 02-07-2010 01:00:00 22.46 C 9.05 g/m*3 22.46 C 0 km/h
1515 02-07-2010 02:00:00 21.32 C 8.96 g/m*3 21.32 C 0 km/h
1516 02-07-2010 03:00:00 20.6 C 9.16 g/m*3 20.6 C 0 km/h
1517 02-07-2010 04:00:00 19.68 C 9.67 g/m*3 19.68 C 0 km/h
1518 02-07-2010 05:00:00 18.86 C 9.79 g/m*3 18.86 C 0 km/h
1519 02-07-2010 06:00:00 18.68 C 10.27 g/m*3 18.68 C 0 km/h
1520 02-07-2010 07:00:00 19.52 C 10.52 g/m*3 19.52 C 0 km/h
1521 02-07-2010 08:00:00 20.86 C 10.54 g/m*3 20.86 C 0 km/h
1522 02-07-2010 09:00:00 24.14 C 10.7 g/m*3 24.14 C 0 km/h
1523 02-07-2010 10:00:00 27.86 C 10.42 g/m*3 27.86 C 0 km/h
1524 02-07-2010 11:00:00 30.18 C 9.92 g/m*3 30.18 C 0 km/h
1525 02-07-2010 12:00:00 32.12 C 8.02 g/m*3 32.12 C 0 km/h
Sensor: Nr:Datum:Temp:Abs-Feuchte:Windchill:Wind:
Aussen-T/F 1526 02-07-2010 13:00:00 33.36 C 7.26 g/m*3 33.36 C 0 km/h
1527 02-07-2010 14:00:00 32.78 C 7.39 g/m*3 32.78 C 0 km/h
1528 02-07-2010 15:00:00 32.2 C 8.53 g/m*3 32.2 C 0 km/h
1529 02-07-2010 16:00:00 32.46 C 8.79 g/m*3 32.46 C 0 km/h
1530 02-07-2010 17:00:00 34.22 C 7.59 g/m*3 34.22 C 0 km/h
1531 02-07-2010 18:00:00 33.7 C 7.39 g/m*3 33.7 C 0 km/h
1532 02-07-2010 19:00:00 33.76 C 7.41 g/m*3 33.76 C 0 km/h
1533 02-07-2010 20:00:00 32.56 C 8.07 g/m*3 32.56 C 0 km/h
1534 02-07-2010 21:00:00 29.68 C 8.35 g/m*3 29.68 C 0 km/h
1535 02-07-2010 22:00:00 27.1 C 7.92 g/m*3 27.1 C 0 km/h
1536 02-07-2010 23:00:00 25.62 C 8.2 g/m*3 25.62 C 0 km/h
1537 03-07-2010 00:00:00 24.46 C 8.98 g/m*3 24.46 C 0 km/h
1538 03-07-2010 01:00:00 23.38 C 9.83 g/m*3 23.38 C 0 km/h
1539 03-07-2010 02:00:00 22.52 C 10.44 g/m*3 22.52 C 0 km/h
1540 03-07-2010 03:00:00 21.58 C 10.76 g/m*3 21.58 C 0 km/h
1541 03-07-2010 04:00:00 20.68 C 11.04 g/m*3 20.68 C 0 km/h
1542 03-07-2010 05:00:00 20.02 C 11.32 g/m*3 20.02 C 0 km/h
1543 03-07-2010 06:00:00 20.18 C 11.49 g/m*3 20.18 C 0 km/h
1544 03-07-2010 07:00:00 21.32 C 11.76 g/m*3 21.32 C 0 km/h
1545 03-07-2010 08:00:00 22.58 C 11.8 g/m*3 22.58 C 0 km/h
1546 03-07-2010 09:00:00 25.16 C 12.12 g/m*3 25.16 C 0 km/h
1547 03-07-2010 10:00:00 28.84 C 12.13 g/m*3 28.84 C 0 km/h
1548 03-07-2010 11:00:00 31.3 C 10.86 g/m*3 31.3 C 0 km/h
1549 03-07-2010 12:00:00 33.3 C 7.59 g/m*3 33.3 C 0 km/h
1550 03-07-2010 13:00:00 33.78 C 7.71 g/m*3 33.78 C 0 km/h
Sensor: Nr:Datum:Temp:Abs-Feuchte:Windchill:Wind:
Aussen-T/F 1551 03-07-2010 14:00:00 33.72 C 7.39 g/m*3 33.72 C 0 km/h
1552 03-07-2010 15:00:00 31.94 C 7.81 g/m*3 31.94 C 0 km/h
1553 03-07-2010 16:00:00 30.8 C 8.74 g/m*3 30.8 C 0 km/h
1554 03-07-2010 17:00:00 29.4 C 9.86 g/m*3 29.4 C 0 km/h
1555 03-07-2010 18:00:00 26.48 C 10.7 g/m*3 26.48 C 0 km/h
1556 03-07-2010 19:00:00 27.1 C 11.44 g/m*3 27.1 C 0 km/h
1557 03-07-2010 20:00:00 28.08 C 12.07 g/m*3 28.08 C 0 km/h
1558 03-07-2010 21:00:00 26.24 C 13.42 g/m*3 26.24 C 0 km/h
1559 03-07-2010 22:00:00 25.02 C 14.06 g/m*3 25.02 C 0 km/h
1560 03-07-2010 23:00:00 24.04 C 13.78 g/m*3 24.04 C 0 km/h
1561 04-07-2010 00:00:00 23.46 C 14.01 g/m*3 23.46 C 0 km/h
1562 04-07-2010 01:00:00 22.92 C 13.79 g/m*3 22.92 C 0 km/h
1563 04-07-2010 02:00:00 22.38 C 13.61 g/m*3 22.38 C 0 km/h
1564 04-07-2010 03:00:00 22.16 C 13.79 g/m*3 22.16 C 0 km/h
1565 04-07-2010 04:00:00 21.62 C 13.9 g/m*3 21.62 C 0 km/h
1566 04-07-2010 05:00:00 21.12 C 13.95 g/m*3 21.12 C 0 km/h
1567 04-07-2010 06:00:00 21.64 C 13.99 g/m*3 21.64 C 0 km/h
1568 04-07-2010 07:00:00 22.34 C 13.89 g/m*3 22.34 C 0 km/h
1569 04-07-2010 08:00:00 23.16 C 13.44 g/m*3 23.16 C 0 km/h
1570 04-07-2010 09:00:00 23.54 C 12.93 g/m*3 23.54 C 0 km/h
1571 04-07-2010 10:00:00 24.42 C 12.61 g/m*3 24.42 C 0 km/h
1572 04-07-2010 11:00:00 26.02 C 12.09 g/m*3 26.02 C 0 km/h
1573 04-07-2010 12:00:00 27.94 C 11 g/m*3 27.94 C 0 km/h
1574 04-07-2010 13:00:00 30.34 C 9.64 g/m*3 30.34 C 0 km/h
1575 04-07-2010 14:00:00 30.56 C 9.5 g/m*3 30.56 C 0 km/h
Sensor: Nr:Datum:Temp:Abs-Feuchte:Windchill:Wind:
Aussen-T/F 1576 04-07-2010 15:00:00 31.98 C 8.5 g/m*3 31.98 C 0 km/h
1577 04-07-2010 16:00:00 32.22 C 7.86 g/m*3 32.22 C 0 km/h
1578 04-07-2010 17:00:00 32.48 C 7.55 g/m*3 32.48 C 0 km/h
1579 04-07-2010 18:00:00 32.5 C 7.56 g/m*3 32.5 C 0 km/h
1580 04-07-2010 19:00:00 30.92 C 8.73 g/m*3 30.92 C 0 km/h
1581 04-07-2010 20:00:00 31.06 C 8.8 g/m*3 31.06 C 0 km/h
1582 04-07-2010 21:00:00 27.74 C 9.65 g/m*3 27.74 C 0 km/h
1583 04-07-2010 22:00:00 26.44 C 9.58 g/m*3 26.44 C 0 km/h
1584 04-07-2010 23:00:00 25.8 C 9.24 g/m*3 25.8 C 0 km/h
1585 05-07-2010 00:00:00 24.34 C 8.16 g/m*3 24.34 C 0 km/h
1586 05-07-2010 01:00:00 23.26 C 7.13 g/m*3 23.26 C 0 km/h
1587 05-07-2010 02:00:00 21.94 C 7.08 g/m*3 21.94 C 0 km/h
1588 05-07-2010 03:00:00 21.02 C 6.82 g/m*3 21.02 C 0 km/h
1589 05-07-2010 04:00:00 19.96 C 6.28 g/m*3 19.96 C 0 km/h
1590 05-07-2010 05:00:00 18.86 C 6.3 g/m*3 18.86 C 0 km/h
1591 05-07-2010 06:00:00 18.34 C 6.77 g/m*3 18.34 C 0 km/h
1592 05-07-2010 07:00:00 18.44 C 7.47 g/m*3 18.44 C 0 km/h
1593 05-07-2010 08:00:00 19.4 C 7.01 g/m*3 19.4 C 0 km/h
1594 05-07-2010 09:00:00 21.28 C 6.67 g/m*3 21.28 C 0 km/h
1595 05-07-2010 10:00:00 23.7 C 6.42 g/m*3 23.7 C 0 km/h
1596 05-07-2010 11:00:00 26.54 C 6.62 g/m*3 26.54 C 0 km/h
1597 05-07-2010 12:00:00 27.94 C 6.61 g/m*3 27.94 C 0 km/h
1598 05-07-2010 13:00:00 27.88 C 7.56 g/m*3 27.88 C 0 km/h
1599 05-07-2010 14:00:00 26.2 C 8.03 g/m*3 26.2 C 0 km/h
1600 05-07-2010 15:00:00 25.86 C 8.26 g/m*3 25.86 C 0 km/h
Sensor: Nr:Datum:Temp:Abs-Feuchte:Windchill:Wind:
Aussen-T/F 1601 05-07-2010 16:00:00 24.76 C 8.9 g/m*3 24.76 C 0 km/h
1602 05-07-2010 17:00:00 23.46 C 10.04 g/m*3 23.46 C 0 km/h
1603 05-07-2010 18:00:00 21.1 C 11.76 g/m*3 21.1 C 0 km/h
1604 05-07-2010 19:00:00 19.32 C 13.62 g/m*3 19.32 C 0 km/h
1605 05-07-2010 20:00:00 19.44 C 13.14 g/m*3 19.44 C 0 km/h
1606 05-07-2010 21:00:00 18.96 C 12.94 g/m*3 18.96 C 0 km/h
1607 05-07-2010 22:00:00 18.62 C 12.78 g/m*3 18.62 C 0 km/h
1608 05-07-2010 23:00:00 17.88 C 12.47 g/m*3 17.88 C 0 km/h
1609 06-07-2010 00:00:00 17.24 C 11.98 g/m*3 17.24 C 0 km/h
1610 06-07-2010 01:00:00 17.24 C 11.77 g/m*3 17.24 C 0 km/h
1611 06-07-2010 02:00:00 16.84 C 11.26 g/m*3 16.84 C 0 km/h
1612 06-07-2010 03:00:00 16.34 C 10.88 g/m*3 16.34 C 0 km/h
1613 06-07-2010 04:00:00 15.2 C 10.1 g/m*3 15.2 C 0 km/h
1614 06-07-2010 05:00:00 14.86 C 10.25 g/m*3 14.86 C 0 km/h
1615 06-07-2010 06:00:00 14.66 C 9.92 g/m*3 14.66 C 0 km/h
1616 06-07-2010 07:00:00 15.08 C 9.72 g/m*3 15.08 C 0 km/h
1617 06-07-2010 08:00:00 15.9 C 9.24 g/m*3 15.9 C 0 km/h
1618 06-07-2010 09:00:00 17.54 C 8.28 g/m*3 17.54 C 0 km/h
1619 06-07-2010 10:00:00 20.02 C 7.27 g/m*3 20.02 C 0 km/h
1620 06-07-2010 11:00:00 21.48 C 6.59 g/m*3 21.48 C 0 km/h
1621 06-07-2010 12:00:00 23.02 C 5.51 g/m*3 23.02 C 0 km/h
1622 06-07-2010 13:00:00 24.6 C 5.04 g/m*3 24.6 C 0 km/h
1623 06-07-2010 14:00:00 24.28 C 4.73 g/m*3 24.28 C 0 km/h
1624 06-07-2010 15:00:00 24.52 C 4.48 g/m*3 24.52 C 0 km/h
1625 06-07-2010 16:00:00 25.84 C 4.83 g/m*3 25.84 C 0 km/h
Sensor: Nr:Datum:Temp:Abs-Feuchte:Windchill:Wind:
Aussen-T/F 1626 06-07-2010 17:00:00 26.92 C 5.12 g/m*3 26.92 C 0 km/h
1627 06-07-2010 18:00:00 25.46 C 4.72 g/m*3 25.46 C 0 km/h
1628 06-07-2010 19:00:00 25.06 C 4.8 g/m*3 25.06 C 0 km/h
1629 06-07-2010 20:00:00 24.3 C 5.31 g/m*3 24.3 C 0 km/h
1630 06-07-2010 21:00:00 21.36 C 6.25 g/m*3 21.36 C 0 km/h
1631 06-07-2010 22:00:00 18.84 C 6.52 g/m*3 18.84 C 0 km/h
1632 06-07-2010 23:00:00 17.68 C 6.81 g/m*3 17.68 C 0 km/h
1633 07-07-2010 00:00:00 16.5 C 6.88 g/m*3 16.5 C 0 km/h
1634 07-07-2010 01:00:00 15.52 C 7.41 g/m*3 15.52 C 0 km/h
1635 07-07-2010 02:00:00 14.8 C 7.68 g/m*3 14.8 C 0 km/h
1636 07-07-2010 03:00:00 13.92 C 7.78 g/m*3 13.92 C 0 km/h
1637 07-07-2010 04:00:00 13.3 C 7.74 g/m*3 13.3 C 0 km/h
1638 07-07-2010 05:00:00 12.76 C 8 g/m*3 12.76 C 0 km/h
1639 07-07-2010 06:00:00 12.7 C 8.24 g/m*3 12.7 C 0 km/h
1640 07-07-2010 07:00:00 13.34 C 8.39 g/m*3 13.34 C 0 km/h
1641 07-07-2010 08:00:00 14.76 C 8.31 g/m*3 14.76 C 0 km/h
1642 07-07-2010 09:00:00 17.66 C 8.13 g/m*3 17.66 C 0 km/h
1643 07-07-2010 10:00:00 21.04 C 7.97 g/m*3 21.04 C 0 km/h
1644 07-07-2010 11:00:00 23.62 C 6 g/m*3 23.62 C 0 km/h
1645 07-07-2010 12:00:00 26.78 C 5.34 g/m*3 26.78 C 0 km/h
1646 07-07-2010 13:00:00 29.38 C 5.86 g/m*3 29.38 C 0 km/h
1647 07-07-2010 14:00:00 28.34 C 5.54 g/m*3 28.34 C 0 km/h
1648 07-07-2010 15:00:00 30.4 C 6.2 g/m*3 30.4 C 0 km/h
1649 07-07-2010 16:00:00 31.96 C 6.74 g/m*3 31.96 C 0 km/h
1650 07-07-2010 17:00:00 32.54 C 6.95 g/m*3 32.54 C 0 km/h
Sensor: Nr:Datum:Temp:Abs-Feuchte:Windchill:Wind:
Aussen-T/F 1651 07-07-2010 18:00:00 32.88 C 7.07 g/m*3 32.88 C 0 km/h
1652 07-07-2010 19:00:00 32.4 C 6.9 g/m*3 32.4 C 0 km/h
1653 07-07-2010 20:00:00 31.26 C 6.49 g/m*3 31.26 C 0 km/h
1654 07-07-2010 21:00:00 26.86 C 6.69 g/m*3 26.86 C 0 km/h
1655 07-07-2010 22:00:00 24.4 C 6.85 g/m*3 24.4 C 0 km/h
1656 07-07-2010 23:00:00 23.7 C 7.1 g/m*3 23.7 C 0 km/h
1657 08-07-2010 00:00:00 22.38 C 7.74 g/m*3 22.38 C 0 km/h
1658 08-07-2010 01:00:00 20.54 C 7.99 g/m*3 20.54 C 0 km/h
1659 08-07-2010 02:00:00 19.78 C 8.19 g/m*3 19.78 C 0 km/h
1660 08-07-2010 03:00:00 19.4 C 8.14 g/m*3 19.4 C 0 km/h
1661 08-07-2010 04:00:00 18.52 C 8.43 g/m*3 18.52 C 0 km/h
1662 08-07-2010 05:00:00 17.78 C 8.4 g/m*3 17.78 C 0 km/h
1663 08-07-2010 06:00:00 17.38 C 8.5 g/m*3 17.38 C 0 km/h
1664 08-07-2010 07:00:00 17.92 C 8.93 g/m*3 17.92 C 0 km/h
1665 08-07-2010 08:00:00 19.12 C 8.9 g/m*3 19.12 C 0 km/h
1666 08-07-2010 09:00:00 22.24 C 9.17 g/m*3 22.24 C 0 km/h
1667 08-07-2010 10:00:00 25.96 C 8.94 g/m*3 25.96 C 0 km/h
1668 08-07-2010 11:00:00 29.18 C 7.08 g/m*3 29.18 C 0 km/h
1669 08-07-2010 12:00:00 31.5 C 6.57 g/m*3 31.5 C 0 km/h
1670 08-07-2010 13:00:00 32.88 C 7.07 g/m*3 32.88 C 0 km/h
1671 08-07-2010 14:00:00 32.36 C 6.88 g/m*3 32.36 C 0 km/h
1672 08-07-2010 15:00:00 33.26 C 7.22 g/m*3 33.26 C 0 km/h
1673 08-07-2010 16:00:00 33.62 C 7.36 g/m*3 33.62 C 0 km/h
1674 08-07-2010 17:00:00 33.96 C 7.49 g/m*3 33.96 C 0 km/h
1675 08-07-2010 18:00:00 34.38 C 7.65 g/m*3 34.38 C 0 km/h
Sensor: Nr:Datum:Temp:Abs-Feuchte:Windchill:Wind:
Aussen-T/F 1676 08-07-2010 19:00:00 34.14 C 7.56 g/m*3 34.14 C 0 km/h
1677 08-07-2010 20:00:00 33 C 7.19 g/m*3 33 C 0 km/h
1678 08-07-2010 21:00:00 29.98 C 8.3 g/m*3 29.98 C 0 km/h
1679 08-07-2010 22:00:00 28.02 C 8.22 g/m*3 28.02 C 0 km/h
1680 08-07-2010 23:00:00 27.12 C 8.08 g/m*3 27.12 C 0 km/h
1681 09-07-2010 00:00:00 25.66 C 8.41 g/m*3 25.66 C 0 km/h
1682 09-07-2010 01:00:00 23.78 C 8.81 g/m*3 23.78 C 0 km/h
1683 09-07-2010 02:00:00 22.4 C 8.94 g/m*3 22.4 C 0 km/h
1684 09-07-2010 03:00:00 21.24 C 9.21 g/m*3 21.24 C 0 km/h
1685 09-07-2010 04:00:00 20.16 C 9.45 g/m*3 20.16 C 0 km/h
1686 09-07-2010 05:00:00 19.22 C 9.48 g/m*3 19.22 C 0 km/h
1687 09-07-2010 06:00:00 19.06 C 9.98 g/m*3 19.06 C 0 km/h
1688 09-07-2010 07:00:00 19.9 C 10.1 g/m*3 19.9 C 0 km/h
1689 09-07-2010 08:00:00 21.5 C 9.96 g/m*3 21.5 C 0 km/h
1690 09-07-2010 09:00:00 24.16 C 10.14 g/m*3 24.16 C 0 km/h
1691 09-07-2010 10:00:00 27.94 C 10.3 g/m*3 27.94 C 0 km/h
1692 09-07-2010 11:00:00 30.82 C 9.19 g/m*3 30.82 C 0 km/h
1693 09-07-2010 12:00:00 33.14 C 7.17 g/m*3 33.14 C 0 km/h
1694 09-07-2010 13:00:00 34.56 C 7.73 g/m*3 34.56 C 0 km/h
1695 09-07-2010 14:00:00 33.26 C 7.22 g/m*3 33.26 C 0 km/h
1696 09-07-2010 15:00:00 33.48 C 7.3 g/m*3 33.48 C 0 km/h
1697 09-07-2010 16:00:00 32.28 C 7.74 g/m*3 32.28 C 0 km/h
1698 09-07-2010 17:00:00 32.32 C 7.76 g/m*3 32.32 C 0 km/h
1699 09-07-2010 18:00:00 33.42 C 7.28 g/m*3 33.42 C 0 km/h
1700 09-07-2010 19:00:00 33.48 C 7.3 g/m*3 33.48 C 0 km/h
Sensor: Nr:Datum:Temp:Abs-Feuchte:Windchill:Wind:
Aussen-T/F 1701 09-07-2010 20:00:00 32.04 C 7.58 g/m*3 32.04 C 0 km/h
1702 09-07-2010 21:00:00 29.94 C 8.71 g/m*3 29.94 C 0 km/h
1703 09-07-2010 22:00:00 28.78 C 9.48 g/m*3 28.78 C 0 km/h
1704 09-07-2010 23:00:00 27.78 C 9.62 g/m*3 27.78 C 0 km/h
1705 10-07-2010 00:00:00 26.3 C 10.1 g/m*3 26.3 C 0 km/h
1706 10-07-2010 01:00:00 24.96 C 10.57 g/m*3 24.96 C 0 km/h
1707 10-07-2010 02:00:00 24.2 C 10.78 g/m*3 24.2 C 0 km/h
1708 10-07-2010 03:00:00 23.1 C 11.41 g/m*3 23.1 C 0 km/h
1709 10-07-2010 04:00:00 22.34 C 11.48 g/m*3 22.34 C 0 km/h
1710 10-07-2010 05:00:00 21.64 C 11.67 g/m*3 21.64 C 0 km/h
1711 10-07-2010 06:00:00 21.3 C 11.97 g/m*3 21.3 C 0 km/h
1712 10-07-2010 07:00:00 21.9 C 12.23 g/m*3 21.9 C 0 km/h
1713 10-07-2010 08:00:00 23.38 C 12.01 g/m*3 23.38 C 0 km/h
1714 10-07-2010 09:00:00 26.04 C 11.76 g/m*3 26.04 C 0 km/h
1715 10-07-2010 10:00:00 29.44 C 11.53 g/m*3 29.44 C 0 km/h
1716 10-07-2010 11:00:00 31.46 C 9.25 g/m*3 31.46 C 0 km/h
1717 10-07-2010 12:00:00 33.42 C 7.5 g/m*3 33.42 C 0 km/h
1718 10-07-2010 13:00:00 34.8 C 7.82 g/m*3 34.8 C 0 km/h
1719 10-07-2010 14:00:00 34.44 C 7.68 g/m*3 34.44 C 0 km/h
1720 10-07-2010 15:00:00 35.2 C 7.99 g/m*3 35.2 C 0 km/h
1721 10-07-2010 16:00:00 35.62 C 8.17 g/m*3 35.62 C 0 km/h
1722 10-07-2010 17:00:00 35.8 C 8.24 g/m*3 35.8 C 0 km/h
1723 10-07-2010 18:00:00 35.92 C 8.29 g/m*3 35.92 C 0 km/h
1724 10-07-2010 19:00:00 35.38 C 8.06 g/m*3 35.38 C 0 km/h
1725 10-07-2010 20:00:00 33.58 C 8.22 g/m*3 33.58 C 0 km/h
Sensor: Nr:Datum:Temp:Abs-Feuchte:Windchill:Wind:
Aussen-T/F 1726 10-07-2010 21:00:00 31.3 C 9.43 g/m*3 31.3 C 0 km/h
1727 10-07-2010 22:00:00 30.44 C 9.94 g/m*3 30.44 C 0 km/h
1728 10-07-2010 23:00:00 30.2 C 9.81 g/m*3 30.2 C 0 km/h
1729 11-07-2010 00:00:00 29.85 C 9.85 g/m*3 29.85 C 0 km/h
1730 11-07-2010 01:00:00 28.52 C 11.19 g/m*3 28.52 C 0 km/h
1731 11-07-2010 02:00:00 24.02 C 15.9 g/m*3 24.02 C 0 km/h
1732 11-07-2010 03:00:00 23.38 C 16.26 g/m*3 23.38 C 0 km/h
1733 11-07-2010 04:00:00 21.98 C 16.44 g/m*3 21.98 C 0 km/h
1734 11-07-2010 05:00:00 22 C 16.23 g/m*3 22 C 0 km/h
1735 11-07-2010 06:00:00 21.84 C 16.08 g/m*3 21.84 C 0 km/h
1736 11-07-2010 07:00:00 22.76 C 15.73 g/m*3 22.76 C 0 km/h
1737 11-07-2010 08:00:00 24.22 C 15.46 g/m*3 24.22 C 0 km/h
1738 11-07-2010 09:00:00 24.42 C 14.79 g/m*3 24.42 C 0 km/h
1739 11-07-2010 10:00:00 26.8 C 12.93 g/m*3 26.8 C 0 km/h
1740 11-07-2010 11:00:00 28.54 C 12.27 g/m*3 28.54 C 0 km/h
1741 11-07-2010 12:00:00 30.44 C 10.81 g/m*3 30.44 C 0 km/h
1742 11-07-2010 13:00:00 31.66 C 9.15 g/m*3 31.66 C 0 km/h
1743 11-07-2010 14:00:00 32.06 C 8.33 g/m*3 32.06 C 0 km/h
1744 11-07-2010 15:00:00 32.84 C 7.55 g/m*3 32.84 C 0 km/h
1745 11-07-2010 16:00:00 33.7 C 7.39 g/m*3 33.7 C 0 km/h
1746 11-07-2010 17:00:00 34.26 C 7.61 g/m*3 34.26 C 0 km/h
1747 11-07-2010 18:00:00 34.12 C 7.55 g/m*3 34.12 C 0 km/h
1748 11-07-2010 19:00:00 33.92 C 7.47 g/m*3 33.92 C 0 km/h
1749 11-07-2010 20:00:00 33.3 C 7.88 g/m*3 33.3 C 0 km/h
1750 11-07-2010 21:00:00 30.88 C 10.11 g/m*3 30.88 C 0 km/h
Sensor: Nr:Datum:Temp:Abs-Feuchte:Windchill:Wind:
Aussen-T/F 1751 11-07-2010 22:00:00 29.82 C 10.87 g/m*3 29.82 C 0 km/h
1752 11-07-2010 23:00:00 28.54 C 11.15 g/m*3 28.54 C 0 km/h
1753 12-07-2010 00:00:00 27.24 C 11.84 g/m*3 27.24 C 0 km/h
1754 12-07-2010 01:00:00 26.02 C 12.33 g/m*3 26.02 C 0 km/h
1755 12-07-2010 02:00:00 25.12 C 12.7 g/m*3 25.12 C 0 km/h
1756 12-07-2010 03:00:00 24.18 C 13.1 g/m*3 24.18 C 0 km/h
1757 12-07-2010 04:00:00 23.32 C 13.06 g/m*3 23.32 C 0 km/h
1758 12-07-2010 05:00:00 22.66 C 13.18 g/m*3 22.66 C 0 km/h
1759 12-07-2010 06:00:00 22.54 C 13.37 g/m*3 22.54 C 0 km/h
1760 12-07-2010 07:00:00 22.86 C 13.62 g/m*3 22.86 C 0 km/h
1761 12-07-2010 08:00:00 23.86 C 13.64 g/m*3 23.86 C 0 km/h
1762 12-07-2010 09:00:00 26.72 C 13.58 g/m*3 26.72 C 0 km/h
1763 12-07-2010 10:00:00 29.96 C 12.53 g/m*3 29.96 C 0 km/h
1764 12-07-2010 11:00:00 31.78 C 9.94 g/m*3 31.78 C 0 km/h
1765 12-07-2010 12:00:00 31.04 C 8.15 g/m*3 31.04 C 0 km/h
1766 12-07-2010 13:00:00 28.12 C 11.77 g/m*3 28.12 C 0 km/h
1767 12-07-2010 14:00:00 30.7 C 9.45 g/m*3 30.7 C 0 km/h
1768 12-07-2010 15:00:00 31.62 C 7.94 g/m*3 31.62 C 0 km/h
1769 12-07-2010 16:00:00 31.9 C 6.72 g/m*3 31.9 C 0 km/h
1770 12-07-2010 17:00:00 31.54 C 6.59 g/m*3 31.54 C 0 km/h
1771 12-07-2010 18:00:00 30.18 C 7.41 g/m*3 30.18 C 0 km/h
1772 12-07-2010 19:00:00 28.68 C 7.62 g/m*3 28.68 C 0 km/h
1773 12-07-2010 20:00:00 26.96 C 7.86 g/m*3 26.96 C 0 km/h
1774 12-07-2010 21:00:00 25.72 C 8.96 g/m*3 25.72 C 0 km/h
1775 12-07-2010 22:00:00 24.62 C 9.24 g/m*3 24.62 C 0 km/h
Sensor: Nr:Datum:Temp:Abs-Feuchte:Windchill:Wind:
Aussen-T/F 1776 12-07-2010 23:00:00 23.48 C 9.72 g/m*3 23.48 C 0 km/h
1777 13-07-2010 00:00:00 22.3 C 10.35 g/m*3 22.3 C 0 km/h
1778 13-07-2010 01:00:00 21.42 C 10.7 g/m*3 21.42 C 0 km/h
1779 13-07-2010 02:00:00 20.66 C 10.92 g/m*3 20.66 C 0 km/h
1780 13-07-2010 03:00:00 19.88 C 11.22 g/m*3 19.88 C 0 km/h
1781 13-07-2010 04:00:00 19.62 C 11.66 g/m*3 19.62 C 0 km/h
1782 13-07-2010 05:00:00 18.72 C 12.25 g/m*3 18.72 C 0 km/h
1783 13-07-2010 06:00:00 18.8 C 12.11 g/m*3 18.8 C 0 km/h
1784 13-07-2010 07:00:00 19.62 C 12.03 g/m*3 19.62 C 0 km/h
1785 13-07-2010 08:00:00 20.92 C 11.96 g/m*3 20.92 C 0 km/h
1786 13-07-2010 09:00:00 22.64 C 11.8 g/m*3 22.64 C 0 km/h
1787 13-07-2010 10:00:00 24.6 C 11.07 g/m*3 24.6 C 0 km/h
1788 13-07-2010 11:00:00 26.1 C 10.28 g/m*3 26.1 C 0 km/h
1789 13-07-2010 12:00:00 29.44 C 8.59 g/m*3 29.44 C 0 km/h
1790 13-07-2010 13:00:00 29.32 C 8.01 g/m*3 29.32 C 0 km/h
1791 13-07-2010 14:00:00 29.04 C 8.35 g/m*3 29.04 C 0 km/h
1792 13-07-2010 15:00:00 30.72 C 7.31 g/m*3 30.72 C 0 km/h
1793 13-07-2010 16:00:00 31.06 C 6.87 g/m*3 31.06 C 0 km/h
1794 13-07-2010 17:00:00 31.74 C 6.66 g/m*3 31.74 C 0 km/h
1795 13-07-2010 18:00:00 31.86 C 6.7 g/m*3 31.86 C 0 km/h
1796 13-07-2010 19:00:00 31.36 C 6.53 g/m*3 31.36 C 0 km/h
1797 13-07-2010 20:00:00 31.12 C 6.76 g/m*3 31.12 C 0 km/h
1798 13-07-2010 21:00:00 27.84 C 8.03 g/m*3 27.84 C 0 km/h
1799 13-07-2010 22:00:00 25.46 C 8.6 g/m*3 25.46 C 0 km/h
1800 13-07-2010 23:00:00 24.42 C 9.13 g/m*3 24.42 C 0 km/h
Sensor: Nr:Datum:Temp:Abs-Feuchte:Windchill:Wind:
Aussen-T/F 1801 14-07-2010 00:00:00 23.68 C 9.61 g/m*3 23.68 C 0 km/h
1802 14-07-2010 01:00:00 23.16 C 10 g/m*3 23.16 C 0 km/h
1803 14-07-2010 02:00:00 22.54 C 10.33 g/m*3 22.54 C 0 km/h
1804 14-07-2010 03:00:00 21.58 C 10.61 g/m*3 21.58 C 0 km/h
1805 14-07-2010 04:00:00 20.72 C 11.03 g/m*3 20.72 C 0 km/h
1806 14-07-2010 05:00:00 20.1 C 11.13 g/m*3 20.1 C 0 km/h
1807 14-07-2010 06:00:00 20.3 C 11.29 g/m*3 20.3 C 0 km/h
1808 14-07-2010 07:00:00 20.58 C 11.58 g/m*3 20.58 C 0 km/h
1809 14-07-2010 08:00:00 21.82 C 11.76 g/m*3 21.82 C 0 km/h
1810 14-07-2010 09:00:00 24.66 C 11.92 g/m*3 24.66 C 0 km/h
1811 14-07-2010 10:00:00 27.88 C 10.48 g/m*3 27.88 C 0 km/h
1812 14-07-2010 11:00:00 30.4 C 9.23 g/m*3 30.4 C 0 km/h
1813 14-07-2010 12:00:00 31.44 C 8.19 g/m*3 31.44 C 0 km/h
1814 14-07-2010 13:00:00 32.42 C 7.39 g/m*3 32.42 C 0 km/h
1815 14-07-2010 14:00:00 32.94 C 7.1 g/m*3 32.94 C 0 km/h
1816 14-07-2010 15:00:00 33.26 C 7.22 g/m*3 33.26 C 0 km/h
1817 14-07-2010 16:00:00 34.4 C 7.66 g/m*3 34.4 C 0 km/h
1818 14-07-2010 17:00:00 34.5 C 7.7 g/m*3 34.5 C 0 km/h
1819 14-07-2010 18:00:00 34.66 C 7.77 g/m*3 34.66 C 0 km/h
1820 14-07-2010 19:00:00 25.84 C 13.61 g/m*3 25.84 C 0 km/h
1821 14-07-2010 20:00:00 22.34 C 16.51 g/m*3 22.34 C 0 km/h
1822 14-07-2010 21:00:00 21.74 C 15.41 g/m*3 21.74 C 0 km/h
1823 14-07-2010 22:00:00 21.5 C 14.67 g/m*3 21.5 C 0 km/h
1824 14-07-2010 23:00:00 21.28 C 14 g/m*3 21.28 C 0 km/h
1825 15-07-2010 00:00:00 21.04 C 13.44 g/m*3 21.04 C 0 km/h
Sensor: Nr:Datum:Temp:Abs-Feuchte:Windchill:Wind:
Aussen-T/F 1826 15-07-2010 01:00:00 20.16 C 11.76 g/m*3 20.16 C 0 km/h
1827 15-07-2010 02:00:00 19.58 C 11.63 g/m*3 19.58 C 0 km/h
1828 15-07-2010 03:00:00 19.32 C 11.06 g/m*3 19.32 C 0 km/h
1829 15-07-2010 04:00:00 18.94 C 11.04 g/m*3 18.94 C 0 km/h
1830 15-07-2010 05:00:00 18.76 C 11.18 g/m*3 18.76 C 0 km/h
1831 15-07-2010 06:00:00 18.9 C 10.98 g/m*3 18.9 C 0 km/h
1832 15-07-2010 07:00:00 18.5 C 11.9 g/m*3 18.5 C 0 km/h
1833 15-07-2010 08:00:00 18.42 C 11.68 g/m*3 18.42 C 0 km/h
1834 15-07-2010 09:00:00 19.58 C 9.07 g/m*3 19.58 C 0 km/h
1835 15-07-2010 10:00:00 21.22 C 7.57 g/m*3 21.22 C 0 km/h
1836 15-07-2010 11:00:00 22.32 C 6.76 g/m*3 22.32 C 0 km/h
1837 15-07-2010 12:00:00 24.42 C 5.84 g/m*3 24.42 C 0 km/h
1838 15-07-2010 13:00:00 26.14 C 5.1 g/m*3 26.14 C 0 km/h
1839 15-07-2010 14:00:00 26.22 C 4.93 g/m*3 26.22 C 0 km/h
1840 15-07-2010 15:00:00 26.9 C 5.12 g/m*3 26.9 C 0 km/h
1841 15-07-2010 16:00:00 27.82 C 5.39 g/m*3 27.82 C 0 km/h
1842 15-07-2010 17:00:00 28.46 C 5.58 g/m*3 28.46 C 0 km/h
1843 15-07-2010 18:00:00 27.98 C 5.43 g/m*3 27.98 C 0 km/h
1844 15-07-2010 19:00:00 27.26 C 5.22 g/m*3 27.26 C 0 km/h
1845 15-07-2010 20:00:00 26.6 C 5.24 g/m*3 26.6 C 0 km/h
1846 15-07-2010 21:00:00 23.74 C 6.09 g/m*3 23.74 C 0 km/h
1847 15-07-2010 22:00:00 21.46 C 6.4 g/m*3 21.46 C 0 km/h
1848 15-07-2010 23:00:00 19.92 C 6.78 g/m*3 19.92 C 0 km/h
1849 16-07-2010 00:00:00 18.6 C 6.91 g/m*3 18.6 C 0 km/h
1850 16-07-2010 01:00:00 17.76 C 7.3 g/m*3 17.76 C 0 km/h
Sensor: Nr:Datum:Temp:Abs-Feuchte:Windchill:Wind:
Aussen-T/F 1851 16-07-2010 02:00:00 16.74 C 7.89 g/m*3 16.74 C 0 km/h
1852 16-07-2010 03:00:00 15.96 C 8.1 g/m*3 15.96 C 0 km/h
1853 16-07-2010 04:00:00 15.22 C 8.16 g/m*3 15.22 C 0 km/h
1854 16-07-2010 05:00:00 14.64 C 8.3 g/m*3 14.64 C 0 km/h
1855 16-07-2010 06:00:00 14.46 C 8.61 g/m*3 14.46 C 0 km/h
1856 16-07-2010 07:00:00 15.16 C 8.88 g/m*3 15.16 C 0 km/h
1857 16-07-2010 08:00:00 16.62 C 9 g/m*3 16.62 C 0 km/h
1858 16-07-2010 09:00:00 19.68 C 9.36 g/m*3 19.68 C 0 km/h
1859 16-07-2010 10:00:00 23.6 C 8.72 g/m*3 23.6 C 0 km/h
1860 16-07-2010 11:00:00 26.26 C 5.83 g/m*3 26.26 C 0 km/h
1861 16-07-2010 12:00:00 28.54 C 5.66 g/m*3 28.54 C 0 km/h
1862 16-07-2010 13:00:00 30.68 C 6.29 g/m*3 30.68 C 0 km/h
1863 16-07-2010 14:00:00 31.06 C 6.42 g/m*3 31.06 C 0 km/h
1864 16-07-2010 15:00:00 31.86 C 6.7 g/m*3 31.86 C 0 km/h
1865 16-07-2010 16:00:00 32.44 C 6.91 g/m*3 32.44 C 0 km/h
1866 16-07-2010 17:00:00 32.56 C 6.96 g/m*3 32.56 C 0 km/h
1867 16-07-2010 18:00:00 32.72 C 7.01 g/m*3 32.72 C 0 km/h
1868 16-07-2010 19:00:00 31.24 C 6.55 g/m*3 31.24 C 0 km/h
1869 16-07-2010 20:00:00 29.4 C 7.22 g/m*3 29.4 C 0 km/h
1870 16-07-2010 21:00:00 28.3 C 7.46 g/m*3 28.3 C 0 km/h
1871 16-07-2010 22:00:00 26.38 C 7.71 g/m*3 26.38 C 0 km/h
1872 16-07-2010 23:00:00 25.56 C 8.46 g/m*3 25.56 C 0 km/h
1873 17-07-2010 00:00:00 23.3 C 9.12 g/m*3 23.3 C 0 km/h
1874 17-07-2010 01:00:00 20.7 C 11.2 g/m*3 20.7 C 0 km/h
1875 17-07-2010 02:00:00 20.18 C 11.11 g/m*3 20.18 C 0 km/h
Sensor: Nr:Datum:Temp:Abs-Feuchte:Windchill:Wind:
Aussen-T/F 1876 17-07-2010 03:00:00 19.88 C 11.88 g/m*3 19.88 C 0 km/h
1877 17-07-2010 04:00:00 19.16 C 12.5 g/m*3 19.16 C 0 km/h
1878 17-07-2010 05:00:00 18.08 C 13.36 g/m*3 18.08 C 0 km/h
1879 17-07-2010 06:00:00 17.68 C 13.38 g/m*3 17.68 C 0 km/h
1880 17-07-2010 07:00:00 17.88 C 13.54 g/m*3 17.88 C 0 km/h
1881 17-07-2010 08:00:00 17.64 C 13.38 g/m*3 17.64 C 0 km/h
1882 17-07-2010 09:00:00 18.54 C 13.51 g/m*3 18.54 C 0 km/h
1883 17-07-2010 10:00:00 19.6 C 12.56 g/m*3 19.6 C 0 km/h
1884 17-07-2010 11:00:00 22.2 C 11.5 g/m*3 22.2 C 0 km/h
1885 17-07-2010 12:00:00 24.66 C 9.08 g/m*3 24.66 C 0 km/h
1886 17-07-2010 13:00:00 26.02 C 7.56 g/m*3 26.02 C 0 km/h
1887 17-07-2010 14:00:00 26.14 C 7.26 g/m*3 26.14 C 0 km/h
1888 17-07-2010 15:00:00 27.18 C 6.5 g/m*3 27.18 C 0 km/h
1889 17-07-2010 16:00:00 26.72 C 6.08 g/m*3 26.72 C 0 km/h
1890 17-07-2010 17:00:00 25.8 C 7.42 g/m*3 25.8 C 0 km/h
1891 17-07-2010 18:00:00 24 C 7.57 g/m*3 24 C 0 km/h
1892 17-07-2010 19:00:00 24.16 C 7.11 g/m*3 24.16 C 0 km/h
1893 17-07-2010 20:00:00 24.46 C 5.81 g/m*3 24.46 C 0 km/h
1894 17-07-2010 21:00:00 22.26 C 6.15 g/m*3 22.26 C 0 km/h
1895 17-07-2010 22:00:00 21.44 C 6.28 g/m*3 21.44 C 0 km/h
1896 17-07-2010 23:00:00 20.12 C 6.13 g/m*3 20.12 C 0 km/h
1897 18-07-2010 00:00:00 18.64 C 6.06 g/m*3 18.64 C 0 km/h
1898 18-07-2010 01:00:00 17.16 C 6.34 g/m*3 17.16 C 0 km/h
1899 18-07-2010 02:00:00 15.96 C 6.88 g/m*3 15.96 C 0 km/h
1900 18-07-2010 03:00:00 14.8 C 7.14 g/m*3 14.8 C 0 km/h
Sensor: Nr:Datum:Temp:Abs-Feuchte:Windchill:Wind:
Aussen-T/F 1901 18-07-2010 04:00:00 13.9 C 7.48 g/m*3 13.9 C 0 km/h
1902 18-07-2010 05:00:00 13 C 7.83 g/m*3 13 C 0 km/h
1903 18-07-2010 06:00:00 12.56 C 8.1 g/m*3 12.56 C 0 km/h
1904 18-07-2010 07:00:00 12.96 C 8.05 g/m*3 12.96 C 0 km/h
1905 18-07-2010 08:00:00 14.54 C 7.9 g/m*3 14.54 C 0 km/h
1906 18-07-2010 09:00:00 17.16 C 7.68 g/m*3 17.16 C 0 km/h
1907 18-07-2010 10:00:00 20.18 C 7.09 g/m*3 20.18 C 0 km/h
1908 18-07-2010 11:00:00 22.12 C 5.75 g/m*3 22.12 C 0 km/h
1909 18-07-2010 12:00:00 25.16 C 4.88 g/m*3 25.16 C 0 km/h
1910 18-07-2010 13:00:00 27.62 C 5.33 g/m*3 27.62 C 0 km/h
1911 18-07-2010 14:00:00 27.34 C 5.24 g/m*3 27.34 C 0 km/h
1912 18-07-2010 15:00:00 29.58 C 5.93 g/m*3 29.58 C 0 km/h
1913 18-07-2010 16:00:00 30.76 C 6.32 g/m*3 30.76 C 0 km/h
1914 18-07-2010 17:00:00 31.26 C 6.49 g/m*3 31.26 C 0 km/h
1915 18-07-2010 18:00:00 31.26 C 6.49 g/m*3 31.26 C 0 km/h
1916 18-07-2010 19:00:00 30.48 C 6.22 g/m*3 30.48 C 0 km/h
1917 18-07-2010 20:00:00 29.1 C 5.78 g/m*3 29.1 C 0 km/h
1918 18-07-2010 21:00:00 24.12 C 5.39 g/m*3 24.12 C 0 km/h
1919 18-07-2010 22:00:00 21.72 C 5.92 g/m*3 21.72 C 0 km/h
1920 18-07-2010 23:00:00 20.34 C 6.28 g/m*3 20.34 C 0 km/h
1921 19-07-2010 00:00:00 18.92 C 6.36 g/m*3 18.92 C 0 km/h
1922 19-07-2010 01:00:00 17.68 C 6.66 g/m*3 17.68 C 0 km/h
1923 19-07-2010 02:00:00 16.46 C 6.86 g/m*3 16.46 C 0 km/h
1924 19-07-2010 03:00:00 15.48 C 7.1 g/m*3 15.48 C 0 km/h
1925 19-07-2010 04:00:00 14.62 C 7.32 g/m*3 14.62 C 0 km/h
Sensor: Nr:Datum:Temp:Abs-Feuchte:Windchill:Wind:
Aussen-T/F 1926 19-07-2010 05:00:00 13.8 C 7.51 g/m*3 13.8 C 0 km/h
1927 19-07-2010 06:00:00 13.58 C 7.88 g/m*3 13.58 C 0 km/h
1928 19-07-2010 07:00:00 14.02 C 8.21 g/m*3 14.02 C 0 km/h
1929 19-07-2010 08:00:00 15.3 C 8.28 g/m*3 15.3 C 0 km/h
1930 19-07-2010 09:00:00 18.52 C 8.55 g/m*3 18.52 C 0 km/h
1931 19-07-2010 10:00:00 22.46 C 8.01 g/m*3 22.46 C 0 km/h
1932 19-07-2010 11:00:00 25.78 C 6.54 g/m*3 25.78 C 0 km/h
1933 19-07-2010 12:00:00 28.82 C 5.8 g/m*3 28.82 C 0 km/h
1934 19-07-2010 13:00:00 31.2 C 6.47 g/m*3 31.2 C 0 km/h
1935 19-07-2010 14:00:00 30.84 C 6.35 g/m*3 30.84 C 0 km/h
1936 19-07-2010 15:00:00 31.7 C 6.64 g/m*3 31.7 C 0 km/h
1937 19-07-2010 16:00:00 32.82 C 7.05 g/m*3 32.82 C 0 km/h
1938 19-07-2010 17:00:00 33.58 C 7.34 g/m*3 33.58 C 0 km/h
1939 19-07-2010 18:00:00 33.5 C 7.31 g/m*3 33.5 C 0 km/h
1940 19-07-2010 19:00:00 32.84 C 7.06 g/m*3 32.84 C 0 km/h
1941 19-07-2010 20:00:00 31.38 C 6.53 g/m*3 31.38 C 0 km/h
1942 19-07-2010 21:00:00 26.84 C 6.79 g/m*3 26.84 C 0 km/h
1943 19-07-2010 22:00:00 24.12 C 7.05 g/m*3 24.12 C 0 km/h
1944 19-07-2010 23:00:00 22.9 C 7.32 g/m*3 22.9 C 0 km/h
1945 20-07-2010 00:00:00 21.74 C 7.84 g/m*3 21.74 C 0 km/h
1946 20-07-2010 01:00:00 20.42 C 8.08 g/m*3 20.42 C 0 km/h
1947 20-07-2010 02:00:00 19.32 C 8.24 g/m*3 19.32 C 0 km/h
1948 20-07-2010 03:00:00 18.2 C 8.36 g/m*3 18.2 C 0 km/h
1949 20-07-2010 04:00:00 17.24 C 8.48 g/m*3 17.24 C 0 km/h
1950 20-07-2010 05:00:00 16.48 C 8.58 g/m*3 16.48 C 0 km/h
Sensor: Nr:Datum:Temp:Abs-Feuchte:Windchill:Wind:
Aussen-T/F 1951 20-07-2010 06:00:00 16.1 C 8.96 g/m*3 16.1 C 0 km/h
1952 20-07-2010 07:00:00 16.78 C 9.25 g/m*3 16.78 C 0 km/h
1953 20-07-2010 08:00:00 18.04 C 9.24 g/m*3 18.04 C 0 km/h
1954 20-07-2010 09:00:00 20.96 C 9.21 g/m*3 20.96 C 0 km/h
1955 20-07-2010 10:00:00 24.8 C 8.29 g/m*3 24.8 C 0 km/h
1956 20-07-2010 11:00:00 27.74 C 6.76 g/m*3 27.74 C 0 km/h
1957 20-07-2010 12:00:00 30.42 C 6.33 g/m*3 30.42 C 0 km/h
1958 20-07-2010 13:00:00 32.22 C 6.83 g/m*3 32.22 C 0 km/h
1959 20-07-2010 14:00:00 31.78 C 6.67 g/m*3 31.78 C 0 km/h
1960 20-07-2010 15:00:00 32.34 C 6.87 g/m*3 32.34 C 0 km/h
1961 20-07-2010 16:00:00 33.06 C 7.14 g/m*3 33.06 C 0 km/h
1962 20-07-2010 17:00:00 33.26 C 7.22 g/m*3 33.26 C 0 km/h
1963 20-07-2010 18:00:00 32.92 C 7.09 g/m*3 32.92 C 0 km/h
1964 20-07-2010 19:00:00 32.02 C 6.76 g/m*3 32.02 C 0 km/h
1965 20-07-2010 20:00:00 30.72 C 6.37 g/m*3 30.72 C 0 km/h
1966 20-07-2010 21:00:00 26.48 C 6.4 g/m*3 26.48 C 0 km/h
1967 20-07-2010 22:00:00 24.4 C 6.59 g/m*3 24.4 C 0 km/h
1968 20-07-2010 23:00:00 23.48 C 6.93 g/m*3 23.48 C 0 km/h
1969 21-07-2010 00:00:00 21.98 C 7.6 g/m*3 21.98 C 0 km/h
1970 21-07-2010 01:00:00 20.86 C 8.03 g/m*3 20.86 C 0 km/h
1971 21-07-2010 02:00:00 19.68 C 8.31 g/m*3 19.68 C 0 km/h
1972 21-07-2010 03:00:00 18.78 C 8.4 g/m*3 18.78 C 0 km/h
1973 21-07-2010 04:00:00 18.08 C 8.58 g/m*3 18.08 C 0 km/h
1974 21-07-2010 05:00:00 17.38 C 8.76 g/m*3 17.38 C 0 km/h
1975 21-07-2010 06:00:00 17.16 C 8.91 g/m*3 17.16 C 0 km/h
Sensor: Nr:Datum:Temp:Abs-Feuchte:Windchill:Wind:
Aussen-T/F 1976 21-07-2010 07:00:00 17.8 C 9.32 g/m*3 17.8 C 0 km/h
1977 21-07-2010 08:00:00 19.2 C 9.07 g/m*3 19.2 C 0 km/h
1978 21-07-2010 09:00:00 22.32 C 9.41 g/m*3 22.32 C 0 km/h
1979 21-07-2010 10:00:00 26.54 C 8.63 g/m*3 26.54 C 0 km/h
1980 21-07-2010 11:00:00 29.66 C 7.38 g/m*3 29.66 C 0 km/h
1981 21-07-2010 12:00:00 31.36 C 6.59 g/m*3 31.36 C 0 km/h
1982 21-07-2010 13:00:00 32.52 C 6.94 g/m*3 32.52 C 0 km/h
1983 21-07-2010 14:00:00 32.58 C 6.96 g/m*3 32.58 C 0 km/h
1984 21-07-2010 15:00:00 32.56 C 6.96 g/m*3 32.56 C 0 km/h
1985 21-07-2010 16:00:00 32.44 C 6.91 g/m*3 32.44 C 0 km/h
1986 21-07-2010 17:00:00 31.5 C 6.77 g/m*3 31.5 C 0 km/h
1987 21-07-2010 18:00:00 30.12 C 7.33 g/m*3 30.12 C 0 km/h
1988 21-07-2010 19:00:00 28.72 C 8.03 g/m*3 28.72 C 0 km/h
1989 21-07-2010 20:00:00 23.58 C 12.15 g/m*3 23.58 C 0 km/h
1990 21-07-2010 21:00:00 23.02 C 11.85 g/m*3 23.02 C 0 km/h
1991 21-07-2010 22:00:00 23 C 11.76 g/m*3 23 C 0 km/h
1992 21-07-2010 23:00:00 22.88 C 11.47 g/m*3 22.88 C 0 km/h
1993 22-07-2010 00:00:00 22.56 C 11.58 g/m*3 22.56 C 0 km/h
1994 22-07-2010 01:00:00 22.16 C 11.64 g/m*3 22.16 C 0 km/h
1995 22-07-2010 02:00:00 21.28 C 11.51 g/m*3 21.28 C 0 km/h
1996 22-07-2010 03:00:00 20.92 C 11.16 g/m*3 20.92 C 0 km/h
1997 22-07-2010 04:00:00 20.5 C 10.36 g/m*3 20.5 C 0 km/h
1998 22-07-2010 05:00:00 19.9 C 9.83 g/m*3 19.9 C 0 km/h
1999 22-07-2010 06:00:00 18.92 C 10.93 g/m*3 18.92 C 0 km/h
2000 22-07-2010 07:00:00 19.24 C 11.54 g/m*3 19.24 C 0 km/h
Sensor: Nr:Datum:Temp:Abs-Feuchte:Windchill:Wind:
Aussen-T/F 2001 22-07-2010 08:00:00 21.04 C 10.94 g/m*3 21.04 C 0 km/h
2002 22-07-2010 09:00:00 22.06 C 10.32 g/m*3 22.06 C 0 km/h
2003 22-07-2010 10:00:00 21.58 C 10.68 g/m*3 21.58 C 0 km/h
2004 22-07-2010 11:00:00 21.78 C 11.84 g/m*3 21.78 C 0 km/h
2005 22-07-2010 12:00:00 22.38 C 11.47 g/m*3 22.38 C 0 km/h
2006 22-07-2010 13:00:00 20.9 C 12.79 g/m*3 20.9 C 0 km/h
2007 22-07-2010 14:00:00 21.26 C 12.53 g/m*3 21.26 C 0 km/h
2008 22-07-2010 15:00:00 21.38 C 12.92 g/m*3 21.38 C 0 km/h
2009 22-07-2010 16:00:00 23.2 C 11.56 g/m*3 23.2 C 0 km/h
2010 22-07-2010 17:00:00 22.04 C 13.31 g/m*3 22.04 C 0 km/h
2011 22-07-2010 18:00:00 23 C 12.09 g/m*3 23 C 0 km/h
2012 22-07-2010 19:00:00 22.68 C 11.91 g/m*3 22.68 C 0 km/h
2013 22-07-2010 20:00:00 21.86 C 12.01 g/m*3 21.86 C 0 km/h
2014 22-07-2010 21:00:00 21.06 C 11.91 g/m*3 21.06 C 0 km/h
2015 22-07-2010 22:00:00 20.48 C 11.8 g/m*3 20.48 C 0 km/h
2016 22-07-2010 23:00:00 20.2 C 11.82 g/m*3 20.2 C 0 km/h
2017 23-07-2010 00:00:00 20.1 C 12.06 g/m*3 20.1 C 0 km/h
2018 23-07-2010 01:00:00 20 C 12.3 g/m*3 20 C 0 km/h
2019 23-07-2010 02:00:00 19.22 C 12.22 g/m*3 19.22 C 0 km/h
2020 23-07-2010 03:00:00 16.34 C 11.63 g/m*3 16.34 C 0 km/h
2021 23-07-2010 04:00:00 16.04 C 11.69 g/m*3 16.04 C 0 km/h
2022 23-07-2010 05:00:00 15.9 C 11.51 g/m*3 15.9 C 0 km/h
2023 23-07-2010 06:00:00 15.86 C 11.54 g/m*3 15.86 C 0 km/h
2024 23-07-2010 07:00:00 17.26 C 12.26 g/m*3 17.26 C 0 km/h
2025 23-07-2010 08:00:00 18.02 C 12.09 g/m*3 18.02 C 0 km/h
Sensor: Nr:Datum:Temp:Abs-Feuchte:Windchill:Wind:
Aussen-T/F 2026 23-07-2010 09:00:00 19.08 C 11.82 g/m*3 19.08 C 0 km/h
2027 23-07-2010 10:00:00 21.4 C 10.46 g/m*3 21.4 C 0 km/h
2028 23-07-2010 11:00:00 24.14 C 9.69 g/m*3 24.14 C 0 km/h
2029 23-07-2010 12:00:00 26.46 C 8.09 g/m*3 26.46 C 0 km/h
2030 23-07-2010 13:00:00 27.82 C 6.62 g/m*3 27.82 C 0 km/h
2031 23-07-2010 14:00:00 29.34 C 6.55 g/m*3 29.34 C 0 km/h
2032 23-07-2010 15:00:00 28.4 C 6.39 g/m*3 28.4 C 0 km/h
2033 23-07-2010 16:00:00 28.54 C 6.33 g/m*3 28.54 C 0 km/h
2034 23-07-2010 17:00:00 22.32 C 9.33 g/m*3 22.32 C 0 km/h
2035 23-07-2010 18:00:00 18.1 C 11.53 g/m*3 18.1 C 0 km/h
2036 23-07-2010 19:00:00 16.96 C 12.18 g/m*3 16.96 C 0 km/h
2037 23-07-2010 20:00:00 15.98 C 12.3 g/m*3 15.98 C 0 km/h
2038 23-07-2010 21:00:00 15.58 C 12.25 g/m*3 15.58 C 0 km/h
2039 23-07-2010 22:00:00 15.125 C 12.02 g/m*3 15.13 C 0 km/h
2040 23-07-2010 23:00:00 15.1 C 12.08 g/m*3 15.1 C 0 km/h
2041 24-07-2010 00:00:00 15.02 C 12.07 g/m*3 15.02 C 0 km/h
2042 24-07-2010 01:00:00 15.12 C 12.14 g/m*3 15.12 C 0 km/h
2043 24-07-2010 02:00:00 15.26 C 12.38 g/m*3 15.26 C 0 km/h
2044 24-07-2010 03:00:00 15.56 C 12.6 g/m*3 15.56 C 0 km/h
2045 24-07-2010 04:00:00 15.64 C 12.4 g/m*3 15.64 C 0 km/h
2046 24-07-2010 05:00:00 15.54 C 11.95 g/m*3 15.54 C 0 km/h
2047 24-07-2010 06:00:00 15.42 C 11.65 g/m*3 15.42 C 0 km/h
2048 24-07-2010 07:00:00 15.5 C 11.58 g/m*3 15.5 C 0 km/h
2049 24-07-2010 08:00:00 16.16 C 11.31 g/m*3 16.16 C 0 km/h
2050 24-07-2010 09:00:00 17.24 C 10.8 g/m*3 17.24 C 0 km/h
Sensor: Nr:Datum:Temp:Abs-Feuchte:Windchill:Wind:
Aussen-T/F 2051 24-07-2010 10:00:00 18.62 C 9.66 g/m*3 18.62 C 0 km/h
2052 24-07-2010 11:00:00 19.44 C 8.83 g/m*3 19.44 C 0 km/h
2053 24-07-2010 12:00:00 20.52 C 8.19 g/m*3 20.52 C 0 km/h
2054 24-07-2010 13:00:00 22.72 C 6.63 g/m*3 22.72 C 0 km/h
2055 24-07-2010 14:00:00 23.48 C 6.17 g/m*3 23.48 C 0 km/h
2056 24-07-2010 15:00:00 24.1 C 5.47 g/m*3 24.1 C 0 km/h
2057 24-07-2010 16:00:00 23.86 C 4.66 g/m*3 23.86 C 0 km/h
2058 24-07-2010 17:00:00 24.36 C 4.44 g/m*3 24.36 C 0 km/h
2059 24-07-2010 18:00:00 23.48 C 4.22 g/m*3 23.48 C 0 km/h
2060 24-07-2010 19:00:00 23.22 C 4.16 g/m*3 23.22 C 0 km/h
2061 24-07-2010 20:00:00 22.72 C 4.05 g/m*3 22.72 C 0 km/h
2062 24-07-2010 21:00:00 19.76 C 4.5 g/m*3 19.76 C 0 km/h
2063 24-07-2010 22:00:00 17.5 C 5.19 g/m*3 17.5 C 0 km/h
2064 24-07-2010 23:00:00 15.92 C 6.1 g/m*3 15.92 C 0 km/h
2065 25-07-2010 00:00:00 14.54 C 6.58 g/m*3 14.54 C 0 km/h
2066 25-07-2010 01:00:00 13.5 C 6.81 g/m*3 13.5 C 0 km/h
2067 25-07-2010 02:00:00 12.7 C 6.97 g/m*3 12.7 C 0 km/h
2068 25-07-2010 03:00:00 11.86 C 7.06 g/m*3 11.86 C 0 km/h
2069 25-07-2010 04:00:00 10.96 C 7.31 g/m*3 10.96 C 0 km/h
2070 25-07-2010 05:00:00 10.16 C 7.38 g/m*3 10.16 C 0 km/h
2071 25-07-2010 06:00:00 10.04 C 7.4 g/m*3 10.04 C 0 km/h
2072 25-07-2010 07:00:00 10.92 C 7.55 g/m*3 10.92 C 0 km/h
2073 25-07-2010 08:00:00 12.12 C 7.9 g/m*3 12.12 C 0 km/h
2074 25-07-2010 09:00:00 14.94 C 7.61 g/m*3 14.94 C 0 km/h
2075 25-07-2010 10:00:00 17.8 C 6.77 g/m*3 17.8 C 0 km/h
Sensor: Nr:Datum:Temp:Abs-Feuchte:Windchill:Wind:
Aussen-T/F 2076 25-07-2010 11:00:00 20.86 C 6.14 g/m*3 20.86 C 0 km/h
2077 25-07-2010 12:00:00 22.94 C 5.9 g/m*3 22.94 C 0 km/h
2078 25-07-2010 13:00:00 23.38 C 6.22 g/m*3 23.38 C 0 km/h
2079 25-07-2010 14:00:00 22.2 C 6.95 g/m*3 22.2 C 0 km/h
2080 25-07-2010 15:00:00 21.58 C 7.01 g/m*3 21.58 C 0 km/h
2081 25-07-2010 16:00:00 21.98 C 7.13 g/m*3 21.98 C 0 km/h
2082 25-07-2010 17:00:00 23.4 C 6.6 g/m*3 23.4 C 0 km/h
2083 25-07-2010 18:00:00 22.26 C 7.53 g/m*3 22.26 C 0 km/h
2084 25-07-2010 19:00:00 20.8 C 7.89 g/m*3 20.8 C 0 km/h
2085 25-07-2010 20:00:00 20.16 C 7.82 g/m*3 20.16 C 0 km/h
2086 25-07-2010 21:00:00 19.08 C 9.43 g/m*3 19.08 C 0 km/h
2087 25-07-2010 22:00:00 18.38 C 10.18 g/m*3 18.38 C 0 km/h
2088 25-07-2010 23:00:00 17.88 C 10.28 g/m*3 17.88 C 0 km/h
2089 26-07-2010 00:00:00 17.56 C 9.93 g/m*3 17.56 C 0 km/h
2090 26-07-2010 01:00:00 17.26 C 9.99 g/m*3 17.26 C 0 km/h
2091 26-07-2010 02:00:00 16.8 C 10.04 g/m*3 16.8 C 0 km/h
2092 26-07-2010 03:00:00 16.42 C 10.2 g/m*3 16.42 C 0 km/h
2093 26-07-2010 04:00:00 16.24 C 10.59 g/m*3 16.24 C 0 km/h
2094 26-07-2010 05:00:00 15.52 C 11.28 g/m*3 15.52 C 0 km/h
2095 26-07-2010 06:00:00 15.4 C 11.46 g/m*3 15.4 C 0 km/h
2096 26-07-2010 07:00:00 16.02 C 11.95 g/m*3 16.02 C 0 km/h
2097 26-07-2010 08:00:00 16.98 C 11.91 g/m*3 16.98 C 0 km/h
2098 26-07-2010 09:00:00 18.38 C 11.72 g/m*3 18.38 C 0 km/h
2099 26-07-2010 10:00:00 20.24 C 10.76 g/m*3 20.24 C 0 km/h
2100 26-07-2010 11:00:00 20.94 C 10.59 g/m*3 20.94 C 0 km/h
Sensor: Nr:Datum:Temp:Abs-Feuchte:Windchill:Wind:
Aussen-T/F 2101 26-07-2010 12:00:00 19.04 C 12.55 g/m*3 19.04 C 0 km/h
2102 26-07-2010 13:00:00 18.16 C 12.72 g/m*3 18.16 C 0 km/h
2103 26-07-2010 14:00:00 17.36 C 13.16 g/m*3 17.36 C 0 km/h
2104 26-07-2010 15:00:00 17.92 C 13.7 g/m*3 17.92 C 0 km/h
2105 26-07-2010 16:00:00 19.68 C 13.4 g/m*3 19.68 C 0 km/h
2106 26-07-2010 17:00:00 19.08 C 11.33 g/m*3 19.08 C 0 km/h
2107 26-07-2010 18:00:00 17.16 C 11.34 g/m*3 17.16 C 0 km/h
2108 26-07-2010 19:00:00 16.92 C 11.61 g/m*3 16.92 C 0 km/h
2109 26-07-2010 20:00:00 16.16 C 11.12 g/m*3 16.16 C 0 km/h
2110 26-07-2010 21:00:00 15.3 C 11.28 g/m*3 15.3 C 0 km/h
2111 26-07-2010 22:00:00 15.22 C 10.86 g/m*3 15.22 C 0 km/h
2112 26-07-2010 23:00:00 15.26 C 10.84 g/m*3 15.26 C 0 km/h
2113 27-07-2010 00:00:00 15.34 C 11.13 g/m*3 15.34 C 0 km/h
2114 27-07-2010 01:00:00 15.48 C 11.2 g/m*3 15.48 C 0 km/h
2115 27-07-2010 02:00:00 15.6 C 11.04 g/m*3 15.6 C 0 km/h
2116 27-07-2010 03:00:00 15.42 C 10.97 g/m*3 15.42 C 0 km/h
2117 27-07-2010 04:00:00 15.26 C 10.84 g/m*3 15.26 C 0 km/h
2118 27-07-2010 05:00:00 15.14 C 10.84 g/m*3 15.14 C 0 km/h
2119 27-07-2010 06:00:00 15.28 C 10.77 g/m*3 15.28 C 0 km/h
2120 27-07-2010 07:00:00 15.68 C 10.64 g/m*3 15.68 C 0 km/h
2121 27-07-2010 08:00:00 16.22 C 10.6 g/m*3 16.22 C 0 km/h
2122 27-07-2010 09:00:00 16.88 C 10.54 g/m*3 16.88 C 0 km/h
2123 27-07-2010 10:00:00 18.52 C 10.07 g/m*3 18.52 C 0 km/h
2124 27-07-2010 11:00:00 20.18 C 9.57 g/m*3 20.18 C 0 km/h
2125 27-07-2010 12:00:00 22.08 C 9.09 g/m*3 22.08 C 0 km/h
Sensor: Nr:Datum:Temp:Abs-Feuchte:Windchill:Wind:
Aussen-T/F 2126 27-07-2010 13:00:00 23.96 C 7.9 g/m*3 23.96 C 0 km/h
2127 27-07-2010 14:00:00 24.42 C 7.66 g/m*3 24.42 C 0 km/h
2128 27-07-2010 15:00:00 25.38 C 7.57 g/m*3 25.38 C 0 km/h
2129 27-07-2010 16:00:00 27.9 C 6.82 g/m*3 27.9 C 0 km/h
2130 27-07-2010 17:00:00 28.32 C 6.2 g/m*3 28.32 C 0 km/h
2131 27-07-2010 18:00:00 25.06 C 7.67 g/m*3 25.06 C 0 km/h
2132 27-07-2010 19:00:00 23.42 C 8.63 g/m*3 23.42 C 0 km/h
2133 27-07-2010 20:00:00 22 C 8.38 g/m*3 22 C 0 km/h
2134 27-07-2010 21:00:00 20.46 C 8.7 g/m*3 20.46 C 0 km/h
2135 27-07-2010 22:00:00 19.12 C 9.16 g/m*3 19.12 C 0 km/h
2136 27-07-2010 23:00:00 18.44 C 9.33 g/m*3 18.44 C 0 km/h
2137 28-07-2010 00:00:00 18.2 C 9.79 g/m*3 18.2 C 0 km/h
2138 28-07-2010 01:00:00 17.16 C 9.85 g/m*3 17.16 C 0 km/h
2139 28-07-2010 02:00:00 16.96 C 10.22 g/m*3 16.96 C 0 km/h
2140 28-07-2010 03:00:00 17.04 C 10.33 g/m*3 17.04 C 0 km/h
2141 28-07-2010 04:00:00 16.96 C 10.48 g/m*3 16.96 C 0 km/h
2142 28-07-2010 05:00:00 16.84 C 10.58 g/m*3 16.84 C 0 km/h
2143 28-07-2010 06:00:00 17.02 C 10.81 g/m*3 17.02 C 0 km/h
2144 28-07-2010 07:00:00 16.32 C 12.11 g/m*3 16.32 C 0 km/h
2145 28-07-2010 08:00:00 17.1 C 13.01 g/m*3 17.1 C 0 km/h
2146 28-07-2010 09:00:00 17.56 C 12.78 g/m*3 17.56 C 0 km/h
2147 28-07-2010 10:00:00 17.7 C 13.25 g/m*3 17.7 C 0 km/h
2148 28-07-2010 11:00:00 20.26 C 13.58 g/m*3 20.26 C 0 km/h
2149 28-07-2010 12:00:00 21.22 C 13.02 g/m*3 21.22 C 0 km/h
2150 28-07-2010 13:00:00 23.74 C 12.26 g/m*3 23.74 C 0 km/h
Sensor: Nr:Datum:Temp:Abs-Feuchte:Windchill:Wind:
Aussen-T/F 2151 28-07-2010 14:00:00 25.74 C 9.31 g/m*3 25.74 C 0 km/h
2152 28-07-2010 15:00:00 26 C 7.69 g/m*3 26 C 0 km/h
2153 28-07-2010 16:00:00 27.78 C 7.04 g/m*3 27.78 C 0 km/h
2154 28-07-2010 17:00:00 28.8 C 6.65 g/m*3 28.8 C 0 km/h
2155 28-07-2010 18:00:00 26.74 C 6.7 g/m*3 26.74 C 0 km/h
2156 28-07-2010 19:00:00 22.5 C 10.07 g/m*3 22.5 C 0 km/h
2157 28-07-2010 20:00:00 21.78 C 10.2 g/m*3 21.78 C 0 km/h
2158 28-07-2010 21:00:00 20.6 C 10.63 g/m*3 20.6 C 0 km/h
2159 28-07-2010 22:00:00 19.78 C 11.26 g/m*3 19.78 C 0 km/h
2160 28-07-2010 23:00:00 18.38 C 13.01 g/m*3 18.38 C 0 km/h
2161 29-07-2010 00:00:00 17.16 C 13.12 g/m*3 17.16 C 0 km/h
2162 29-07-2010 01:00:00 16.06 C 12.63 g/m*3 16.06 C 0 km/h
2163 29-07-2010 02:00:00 15.16 C 12.04 g/m*3 15.16 C 0 km/h
2164 29-07-2010 03:00:00 14.76 C 11.85 g/m*3 14.76 C 0 km/h
2165 29-07-2010 04:00:00 14.44 C 11.65 g/m*3 14.44 C 0 km/h
2166 29-07-2010 05:00:00 14.34 C 11.6 g/m*3 14.34 C 0 km/h
2167 29-07-2010 06:00:00 14.62 C 11.9 g/m*3 14.62 C 0 km/h
2168 29-07-2010 07:00:00 14.88 C 12.07 g/m*3 14.88 C 0 km/h
2169 29-07-2010 08:00:00 15.38 C 12.47 g/m*3 15.38 C 0 km/h
2170 29-07-2010 09:00:00 15.48 C 12.23 g/m*3 15.48 C 0 km/h
2171 29-07-2010 10:00:00 15.22 C 11.67 g/m*3 15.22 C 0 km/h
2172 29-07-2010 11:00:00 14.64 C 11.42 g/m*3 14.64 C 0 km/h
2173 29-07-2010 12:00:00 17.28 C 12.6 g/m*3 17.28 C 0 km/h
2174 29-07-2010 13:00:00 18.44 C 11.1 g/m*3 18.44 C 0 km/h
2175 29-07-2010 14:00:00 17.76 C 10.93 g/m*3 17.76 C 0 km/h
Sensor: Nr:Datum:Temp:Abs-Feuchte:Windchill:Wind:
Aussen-T/F 2176 29-07-2010 15:00:00 18.24 C 10.75 g/m*3 18.24 C 0 km/h
2177 29-07-2010 16:00:00 19.64 C 10.93 g/m*3 19.64 C 0 km/h
2178 29-07-2010 17:00:00 17.12 C 11.16 g/m*3 17.12 C 0 km/h
2179 29-07-2010 18:00:00 17.82 C 11.31 g/m*3 17.82 C 0 km/h
2180 29-07-2010 19:00:00 18.34 C 9.69 g/m*3 18.34 C 0 km/h
2181 29-07-2010 20:00:00 17.6 C 9.51 g/m*3 17.6 C 0 km/h
2182 29-07-2010 21:00:00 16.04 C 9.92 g/m*3 16.04 C 0 km/h
2183 29-07-2010 22:00:00 15.66 C 9.9 g/m*3 15.66 C 0 km/h
2184 29-07-2010 23:00:00 15.7 C 9.61 g/m*3 15.7 C 0 km/h
2185 30-07-2010 00:00:00 15.2 C 9.84 g/m*3 15.2 C 0 km/h
2186 30-07-2010 01:00:00 15.2 C 9.86 g/m*3 15.2 C 0 km/h
2187 30-07-2010 02:00:00 14.74 C 9.89 g/m*3 14.74 C 0 km/h
2188 30-07-2010 03:00:00 14.6 C 10.24 g/m*3 14.6 C 0 km/h
2189 30-07-2010 04:00:00 14.42 C 10.4 g/m*3 14.42 C 0 km/h
2190 30-07-2010 05:00:00 14.7 C 10.6 g/m*3 14.7 C 0 km/h
2191 30-07-2010 06:00:00 14.76 C 10.51 g/m*3 14.76 C 0 km/h
2192 30-07-2010 07:00:00 15.18 C 10.53 g/m*3 15.18 C 0 km/h
2193 30-07-2010 08:00:00 16.28 C 10.56 g/m*3 16.28 C 0 km/h
2194 30-07-2010 09:00:00 17.26 C 9.79 g/m*3 17.26 C 0 km/h
2195 30-07-2010 10:00:00 19 C 9 g/m*3 19 C 0 km/h
2196 30-07-2010 11:00:00 22 C 8.35 g/m*3 22 C 0 km/h
2197 30-07-2010 12:00:00 21.54 C 8.32 g/m*3 21.54 C 0 km/h
2198 30-07-2010 13:00:00 24 C 7.48 g/m*3 24 C 0 km/h
2199 30-07-2010 14:00:00 24.48 C 7.6 g/m*3 24.48 C 0 km/h
2200 30-07-2010 15:00:00 25.14 C 7.15 g/m*3 25.14 C 0 km/h
Sensor: Nr:Datum:Temp:Abs-Feuchte:Windchill:Wind:
Aussen-T/F 2201 30-07-2010 16:00:00 25.94 C 6.6 g/m*3 25.94 C 0 km/h
2202 30-07-2010 17:00:00 26.82 C 6.42 g/m*3 26.82 C 0 km/h
2203 30-07-2010 18:00:00 26.8 C 6.06 g/m*3 26.8 C 0 km/h
2204 30-07-2010 19:00:00 26.02 C 6.97 g/m*3 26.02 C 0 km/h
2205 30-07-2010 20:00:00 22.54 C 7.53 g/m*3 22.54 C 0 km/h
2206 30-07-2010 21:00:00 19.84 C 7.7 g/m*3 19.84 C 0 km/h
2207 30-07-2010 22:00:00 18.5 C 7.47 g/m*3 18.5 C 0 km/h
2208 30-07-2010 23:00:00 17 C 8.54 g/m*3 17 C 0 km/h
2209 31-07-2010 00:00:00 15.92 C 8.73 g/m*3 15.92 C 0 km/h
2210 31-07-2010 01:00:00 14.84 C 8.79 g/m*3 14.84 C 0 km/h
2211 31-07-2010 02:00:00 14.04 C 8.66 g/m*3 14.04 C 0 km/h
2212 31-07-2010 03:00:00 13.34 C 8.64 g/m*3 13.34 C 0 km/h
2213 31-07-2010 04:00:00 12.7 C 8.66 g/m*3 12.7 C 0 km/h
2214 31-07-2010 05:00:00 12.26 C 8.67 g/m*3 12.26 C 0 km/h
2215 31-07-2010 06:00:00 12.02 C 8.77 g/m*3 12.02 C 0 km/h
2216 31-07-2010 07:00:00 12.6 C 9.12 g/m*3 12.6 C 0 km/h
2217 31-07-2010 08:00:00 13.84 C 9.27 g/m*3 13.84 C 0 km/h
2218 31-07-2010 09:00:00 16.36 C 9.55 g/m*3 16.36 C 0 km/h
2219 31-07-2010 10:00:00 22 C 9.04 g/m*3 22 C 0 km/h
2220 31-07-2010 11:00:00 23.48 C 7.44 g/m*3 23.48 C 0 km/h
2221 31-07-2010 12:00:00 24.12 C 6.83 g/m*3 24.12 C 0 km/h
2222 31-07-2010 13:00:00 25.56 C 6.56 g/m*3 25.56 C 0 km/h
2223 31-07-2010 14:00:00 26.84 C 6.63 g/m*3 26.84 C 0 km/h
2224 31-07-2010 15:00:00 27.88 C 6.32 g/m*3 27.88 C 0 km/h
2225 31-07-2010 16:00:00 29.44 C 6 g/m*3 29.44 C 0 km/h
Sensor: Nr:Datum:Temp:Abs-Feuchte:Windchill:Wind:
Aussen-T/F 2226 31-07-2010 17:00:00 29.84 C 6.01 g/m*3 29.84 C 0 km/h
2227 31-07-2010 18:00:00 29.86 C 6.08 g/m*3 29.86 C 0 km/h
2228 31-07-2010 19:00:00 27.88 C 7.24 g/m*3 27.88 C 0 km/h
2229 31-07-2010 20:00:00 24.6 C 8.19 g/m*3 24.6 C 0 km/h
2230 31-07-2010 21:00:00 23.04 C 8.41 g/m*3 23.04 C 0 km/h
2231 31-07-2010 22:00:00 22.02 C 9.17 g/m*3 22.02 C 0 km/h
2232 31-07-2010 23:00:00 20.5 C 11.74 g/m*3 20.5 C 0 km/h
2233 01-08-2010 00:00:00 19.4 C 12.38 g/m*3 19.4 C 0 km/h
2234 01-08-2010 01:00:00 18.26 C 13.1 g/m*3 18.26 C 0 km/h
2235 01-08-2010 02:00:00 18.1 C 13.38 g/m*3 18.1 C 0 km/h
2236 01-08-2010 03:00:00 17.98 C 13.16 g/m*3 17.98 C 0 km/h
2237 01-08-2010 04:00:00 17.84 C 12.93 g/m*3 17.84 C 0 km/h
2238 01-08-2010 05:00:00 17.72 C 12.78 g/m*3 17.72 C 0 km/h
2239 01-08-2010 06:00:00 17.42 C 13.15 g/m*3 17.42 C 0 km/h
2240 01-08-2010 07:00:00 18.34 C 13.73 g/m*3 18.34 C 0 km/h
2241 01-08-2010 08:00:00 19.68 C 13.77 g/m*3 19.68 C 0 km/h
2242 01-08-2010 09:00:00 20.86 C 13.56 g/m*3 20.86 C 0 km/h
2243 01-08-2010 10:00:00 21.94 C 13.58 g/m*3 21.94 C 0 km/h
2244 01-08-2010 11:00:00 24.06 C 12.92 g/m*3 24.06 C 0 km/h
2245 01-08-2010 12:00:00 25.46 C 10.72 g/m*3 25.46 C 0 km/h
2246 01-08-2010 13:00:00 27.84 C 9.43 g/m*3 27.84 C 0 km/h
2247 01-08-2010 14:00:00 29.02 C 7.94 g/m*3 29.02 C 0 km/h
2248 01-08-2010 15:00:00 30.04 C 7.23 g/m*3 30.04 C 0 km/h
2249 01-08-2010 16:00:00 30.66 C 7.1 g/m*3 30.66 C 0 km/h
2250 01-08-2010 17:00:00 30.1 C 7.44 g/m*3 30.1 C 0 km/h
Sensor: Nr:Datum:Temp:Abs-Feuchte:Windchill:Wind:
Aussen-T/F 2251 01-08-2010 18:00:00 28.36 C 8.38 g/m*3 28.36 C 0 km/h
2252 01-08-2010 19:00:00 25.88 C 9.48 g/m*3 25.88 C 0 km/h
2253 01-08-2010 20:00:00 24.64 C 10.24 g/m*3 24.64 C 0 km/h
2254 01-08-2010 21:00:00 23.16 C 9.83 g/m*3 23.16 C 0 km/h
2255 01-08-2010 22:00:00 21.96 C 9.53 g/m*3 21.96 C 0 km/h
2256 01-08-2010 23:00:00 21.08 C 9.97 g/m*3 21.08 C 0 km/h
2257 02-08-2010 00:00:00 19.74 C 10.01 g/m*3 19.74 C 0 km/h
2258 02-08-2010 01:00:00 19.24 C 10.28 g/m*3 19.24 C 0 km/h
2259 02-08-2010 02:00:00 18.64 C 10.53 g/m*3 18.64 C 0 km/h
2260 02-08-2010 03:00:00 17.94 C 10.62 g/m*3 17.94 C 0 km/h
2261 02-08-2010 04:00:00 17.1 C 10.86 g/m*3 17.1 C 0 km/h
2262 02-08-2010 05:00:00 16.32 C 10.64 g/m*3 16.32 C 0 km/h
2263 02-08-2010 06:00:00 16.48 C 10.91 g/m*3 16.48 C 0 km/h
2264 02-08-2010 07:00:00 16.38 C 10.96 g/m*3 16.38 C 0 km/h
2265 02-08-2010 08:00:00 16.86 C 11.16 g/m*3 16.86 C 0 km/h
2266 02-08-2010 09:00:00 18.68 C 11.16 g/m*3 18.68 C 0 km/h
2267 02-08-2010 10:00:00 20.88 C 10.59 g/m*3 20.88 C 0 km/h
2268 02-08-2010 11:00:00 23.84 C 9.31 g/m*3 23.84 C 0 km/h
2269 02-08-2010 12:00:00 25.54 C 8.16 g/m*3 25.54 C 0 km/h
2270 02-08-2010 13:00:00 23.28 C 8.65 g/m*3 23.28 C 0 km/h
2271 02-08-2010 14:00:00 20.48 C 11.23 g/m*3 20.48 C 0 km/h
2272 02-08-2010 15:00:00 21.32 C 11.23 g/m*3 21.32 C 0 km/h
2273 02-08-2010 16:00:00 23.06 C 10.93 g/m*3 23.06 C 0 km/h
2274 02-08-2010 17:00:00 24.2 C 9.77 g/m*3 24.2 C 0 km/h
2275 02-08-2010 18:00:00 21.28 C 11.17 g/m*3 21.28 C 0 km/h
Sensor: Nr:Datum:Temp:Abs-Feuchte:Windchill:Wind:
Aussen-T/F 2276 02-08-2010 19:00:00 20.02 C 12.35 g/m*3 20.02 C 0 km/h
2277 02-08-2010 20:00:00 18.6 C 13.5 g/m*3 18.6 C 0 km/h
2278 02-08-2010 21:00:00 17.58 C 13.45 g/m*3 17.58 C 0 km/h
2279 02-08-2010 22:00:00 17.12 C 13.32 g/m*3 17.12 C 0 km/h
2280 02-08-2010 23:00:00 16.04 C 12.43 g/m*3 16.04 C 0 km/h
2281 03-08-2010 00:00:00 15.94 C 12.08 g/m*3 15.94 C 0 km/h
2282 03-08-2010 01:00:00 15.96 C 12.02 g/m*3 15.96 C 0 km/h
2283 03-08-2010 02:00:00 15.46 C 11.76 g/m*3 15.46 C 0 km/h
2284 03-08-2010 03:00:00 15.26 C 12.06 g/m*3 15.26 C 0 km/h
2285 03-08-2010 04:00:00 15.02 C 12.04 g/m*3 15.02 C 0 km/h
2286 03-08-2010 05:00:00 14.96 C 12.08 g/m*3 14.96 C 0 km/h
2287 03-08-2010 06:00:00 14.62 C 11.9 g/m*3 14.62 C 0 km/h
2288 03-08-2010 07:00:00 15.06 C 12.23 g/m*3 15.06 C 0 km/h
2289 03-08-2010 08:00:00 15.96 C 12.37 g/m*3 15.96 C 0 km/h
2290 03-08-2010 09:00:00 16.78 C 11.71 g/m*3 16.78 C 0 km/h
2291 03-08-2010 10:00:00 17.64 C 11.03 g/m*3 17.64 C 0 km/h
2292 03-08-2010 11:00:00 18.94 C 9.58 g/m*3 18.94 C 0 km/h
2293 03-08-2010 12:00:00 21.22 C 7.94 g/m*3 21.22 C 0 km/h
2294 03-08-2010 13:00:00 21.34 C 7.66 g/m*3 21.34 C 0 km/h
2295 03-08-2010 14:00:00 21.88 C 8.29 g/m*3 21.88 C 0 km/h
2296 03-08-2010 15:00:00 24.2 C 6.29 g/m*3 24.2 C 0 km/h
2297 03-08-2010 16:00:00 25.38 C 5.31 g/m*3 25.38 C 0 km/h
2298 03-08-2010 17:00:00 25.84 C 4.97 g/m*3 25.84 C 0 km/h
2299 03-08-2010 18:00:00 26.12 C 5.15 g/m*3 26.12 C 0 km/h
2300 03-08-2010 19:00:00 23.6 C 5.91 g/m*3 23.6 C 0 km/h
Sensor: Nr:Datum:Temp:Abs-Feuchte:Windchill:Wind:
Aussen-T/F 2301 03-08-2010 20:00:00 21.72 C 7.22 g/m*3 21.72 C 0 km/h
2302 03-08-2010 21:00:00 18.32 C 7.61 g/m*3 18.32 C 0 km/h
2303 03-08-2010 22:00:00 17.26 C 8.29 g/m*3 17.26 C 0 km/h
2304 03-08-2010 23:00:00 16.12 C 8.51 g/m*3 16.12 C 0 km/h
2305 04-08-2010 00:00:00 15.44 C 8.98 g/m*3 15.44 C 0 km/h
2306 04-08-2010 01:00:00 15.68 C 9.22 g/m*3 15.68 C 0 km/h
2307 04-08-2010 02:00:00 15.42 C 9.71 g/m*3 15.42 C 0 km/h
2308 04-08-2010 03:00:00 15.36 C 9.7 g/m*3 15.36 C 0 km/h
2309 04-08-2010 04:00:00 15.2 C 9.53 g/m*3 15.2 C 0 km/h
2310 04-08-2010 05:00:00 15.14 C 9.57 g/m*3 15.14 C 0 km/h
2311 04-08-2010 06:00:00 15.28 C 9.78 g/m*3 15.28 C 0 km/h
2312 04-08-2010 07:00:00 15.88 C 10.01 g/m*3 15.88 C 0 km/h
2313 04-08-2010 08:00:00 16.86 C 9.96 g/m*3 16.86 C 0 km/h
2314 04-08-2010 09:00:00 18.8 C 9.86 g/m*3 18.8 C 0 km/h
2315 04-08-2010 10:00:00 21.08 C 9.13 g/m*3 21.08 C 0 km/h
2316 04-08-2010 11:00:00 22.5 C 8.11 g/m*3 22.5 C 0 km/h
2317 04-08-2010 12:00:00 23.72 C 7.02 g/m*3 23.72 C 0 km/h
2318 04-08-2010 13:00:00 24.98 C 6.39 g/m*3 24.98 C 0 km/h
2319 04-08-2010 14:00:00 24.56 C 6.65 g/m*3 24.56 C 0 km/h
2320 04-08-2010 15:00:00 23.88 C 6.83 g/m*3 23.88 C 0 km/h
2321 04-08-2010 16:00:00 23.36 C 7.01 g/m*3 23.36 C 0 km/h
2322 04-08-2010 17:00:00 23.1 C 7.23 g/m*3 23.1 C 0 km/h
2323 04-08-2010 18:00:00 23.32 C 7.37 g/m*3 23.32 C 0 km/h
2324 04-08-2010 19:00:00 22.44 C 7.84 g/m*3 22.44 C 0 km/h
2325 04-08-2010 20:00:00 21.14 C 8.98 g/m*3 21.14 C 0 km/h
Sensor: Nr:Datum:Temp:Abs-Feuchte:Windchill:Wind:
Aussen-T/F 2326 04-08-2010 21:00:00 20.1 C 9.11 g/m*3 20.1 C 0 km/h
2327 04-08-2010 22:00:00 19.325 C 10.09 g/m*3 19.33 C 0 km/h
2328 04-08-2010 23:00:00 18.32 C 11.46 g/m*3 18.32 C 0 km/h
2329 05-08-2010 00:00:00 16.78 C 12.37 g/m*3 16.78 C 0 km/h
2330 05-08-2010 01:00:00 16.28 C 12.44 g/m*3 16.28 C 0 km/h
2331 05-08-2010 02:00:00 15.82 C 12.37 g/m*3 15.82 C 0 km/h
2332 05-08-2010 03:00:00 15.54 C 12.3 g/m*3 15.54 C 0 km/h
2333 05-08-2010 04:00:00 15.3 C 12.14 g/m*3 15.3 C 0 km/h
2334 05-08-2010 05:00:00 15.32 C 12.21 g/m*3 15.32 C 0 km/h
2335 05-08-2010 06:00:00 15.68 C 12.56 g/m*3 15.68 C 0 km/h
2336 05-08-2010 07:00:00 15.72 C 12.57 g/m*3 15.72 C 0 km/h
2337 05-08-2010 08:00:00 16.2 C 12.55 g/m*3 16.2 C 0 km/h
2338 05-08-2010 09:00:00 16.84 C 11.44 g/m*3 16.84 C 0 km/h
2339 05-08-2010 10:00:00 17.46 C 10.38 g/m*3 17.46 C 0 km/h
2340 05-08-2010 11:00:00 18.36 C 9.67 g/m*3 18.36 C 0 km/h
2341 05-08-2010 12:00:00 18.42 C 9.35 g/m*3 18.42 C 0 km/h
2342 05-08-2010 13:00:00 18.98 C 8.2 g/m*3 18.98 C 0 km/h
2343 05-08-2010 14:00:00 21.28 C 7.56 g/m*3 21.28 C 0 km/h
2344 05-08-2010 15:00:00 23 C 6.41 g/m*3 23 C 0 km/h
2345 05-08-2010 16:00:00 25.08 C 5.69 g/m*3 25.08 C 0 km/h
2346 05-08-2010 17:00:00 23.98 C 5.3 g/m*3 23.98 C 0 km/h
2347 05-08-2010 18:00:00 22.7 C 5.62 g/m*3 22.7 C 0 km/h
2348 05-08-2010 19:00:00 21.26 C 6.17 g/m*3 21.26 C 0 km/h
2349 05-08-2010 20:00:00 20.22 C 6.9 g/m*3 20.22 C 0 km/h
2350 05-08-2010 21:00:00 18.94 C 7.15 g/m*3 18.94 C 0 km/h
Sensor: Nr:Datum:Temp:Abs-Feuchte:Windchill:Wind:
Aussen-T/F 2351 05-08-2010 22:00:00 17.7 C 7.48 g/m*3 17.7 C 0 km/h
2352 05-08-2010 23:00:00 17 C 8.1 g/m*3 17 C 0 km/h
2353 06-08-2010 00:00:00 16.02 C 8.48 g/m*3 16.02 C 0 km/h
2354 06-08-2010 01:00:00 15.26 C 8.62 g/m*3 15.26 C 0 km/h
2355 06-08-2010 02:00:00 14.52 C 8.87 g/m*3 14.52 C 0 km/h
2356 06-08-2010 03:00:00 13.96 C 8.86 g/m*3 13.96 C 0 km/h
2357 06-08-2010 04:00:00 13.44 C 9.3 g/m*3 13.44 C 0 km/h
2358 06-08-2010 05:00:00 12.96 C 9.34 g/m*3 12.96 C 0 km/h
2359 06-08-2010 06:00:00 13.34 C 9.29 g/m*3 13.34 C 0 km/h
2360 06-08-2010 07:00:00 13.18 C 9.27 g/m*3 13.18 C 0 km/h
2361 06-08-2010 08:00:00 13.48 C 9.49 g/m*3 13.48 C 0 km/h
2362 06-08-2010 09:00:00 15.46 C 9.44 g/m*3 15.46 C 0 km/h
2363 06-08-2010 10:00:00 17.84 C 8.31 g/m*3 17.84 C 0 km/h
2364 06-08-2010 11:00:00 19.84 C 7.22 g/m*3 19.84 C 0 km/h
2365 06-08-2010 12:00:00 21.34 C 6.17 g/m*3 21.34 C 0 km/h
2366 06-08-2010 13:00:00 23.7 C 4.79 g/m*3 23.7 C 0 km/h
2367 06-08-2010 14:00:00 24.84 C 4.56 g/m*3 24.84 C 0 km/h
2368 06-08-2010 15:00:00 25.28 C 4.68 g/m*3 25.28 C 0 km/h
2369 06-08-2010 16:00:00 28.1 C 5.47 g/m*3 28.1 C 0 km/h
2370 06-08-2010 17:00:00 24.86 C 7.63 g/m*3 24.86 C 0 km/h
2371 06-08-2010 18:00:00 26.42 C 4.98 g/m*3 26.42 C 0 km/h
2372 06-08-2010 19:00:00 26.2 C 4.92 g/m*3 26.2 C 0 km/h
2373 06-08-2010 20:00:00 23.66 C 5.29 g/m*3 23.66 C 0 km/h
2374 06-08-2010 21:00:00 19.3 C 6.14 g/m*3 19.3 C 0 km/h
2375 06-08-2010 22:00:00 17.72 C 6.34 g/m*3 17.72 C 0 km/h
Sensor: Nr:Datum:Temp:Abs-Feuchte:Windchill:Wind:
Aussen-T/F 2376 06-08-2010 23:00:00 16.4 C 6.67 g/m*3 16.4 C 0 km/h
2377 07-08-2010 00:00:00 15.04 C 7.15 g/m*3 15.04 C 0 km/h
2378 07-08-2010 01:00:00 13.94 C 7.55 g/m*3 13.94 C 0 km/h
2379 07-08-2010 02:00:00 13 C 7.89 g/m*3 13 C 0 km/h
2380 07-08-2010 03:00:00 12.32 C 7.74 g/m*3 12.32 C 0 km/h
2381 07-08-2010 04:00:00 11.64 C 7.71 g/m*3 11.64 C 0 km/h
2382 07-08-2010 05:00:00 11.06 C 7.7 g/m*3 11.06 C 0 km/h
2383 07-08-2010 06:00:00 10.48 C 7.77 g/m*3 10.48 C 0 km/h
2384 07-08-2010 07:00:00 10.7 C 7.96 g/m*3 10.7 C 0 km/h
2385 07-08-2010 08:00:00 11.74 C 8.07 g/m*3 11.74 C 0 km/h
2386 07-08-2010 09:00:00 14.06 C 8.4 g/m*3 14.06 C 0 km/h
2387 07-08-2010 10:00:00 18.22 C 8.5 g/m*3 18.22 C 0 km/h
2388 07-08-2010 11:00:00 21.26 C 6.36 g/m*3 21.26 C 0 km/h
2389 07-08-2010 12:00:00 22.86 C 5.46 g/m*3 22.86 C 0 km/h
2390 07-08-2010 13:00:00 25.48 C 4.87 g/m*3 25.48 C 0 km/h
2391 07-08-2010 14:00:00 26.66 C 5.05 g/m*3 26.66 C 0 km/h
2392 07-08-2010 15:00:00 27.78 C 5.37 g/m*3 27.78 C 0 km/h
2393 07-08-2010 16:00:00 29.2 C 5.81 g/m*3 29.2 C 0 km/h
2394 07-08-2010 17:00:00 29.3 C 5.84 g/m*3 29.3 C 0 km/h
2395 07-08-2010 18:00:00 27.4 C 6.26 g/m*3 27.4 C 0 km/h
2396 07-08-2010 19:00:00 25.16 C 6.83 g/m*3 25.16 C 0 km/h
2397 07-08-2010 20:00:00 23.86 C 6.99 g/m*3 23.86 C 0 km/h
2398 07-08-2010 21:00:00 22.46 C 7.05 g/m*3 22.46 C 0 km/h
2399 07-08-2010 22:00:00 21.96 C 7.4 g/m*3 21.96 C 0 km/h
2400 07-08-2010 23:00:00 21.6 C 7.74 g/m*3 21.6 C 0 km/h
Sensor: Nr:Datum:Temp:Abs-Feuchte:Windchill:Wind:
Aussen-T/F 2401 08-08-2010 00:00:00 21.04 C 8.12 g/m*3 21.04 C 0 km/h
2402 08-08-2010 01:00:00 20.16 C 8.44 g/m*3 20.16 C 0 km/h
2403 08-08-2010 02:00:00 19.82 C 9.44 g/m*3 19.82 C 0 km/h
2404 08-08-2010 03:00:00 18.68 C 10.01 g/m*3 18.68 C 0 km/h
2405 08-08-2010 04:00:00 18.36 C 10.39 g/m*3 18.36 C 0 km/h
2406 08-08-2010 05:00:00 17.56 C 11.46 g/m*3 17.56 C 0 km/h
2407 08-08-2010 06:00:00 16.68 C 12.49 g/m*3 16.68 C 0 km/h
2408 08-08-2010 07:00:00 16.66 C 12.96 g/m*3 16.66 C 0 km/h
2409 08-08-2010 08:00:00 17.2 C 13.47 g/m*3 17.2 C 0 km/h
2410 08-08-2010 09:00:00 17.64 C 13.35 g/m*3 17.64 C 0 km/h
2411 08-08-2010 10:00:00 18.46 C 12.66 g/m*3 18.46 C 0 km/h
2412 08-08-2010 11:00:00 16.48 C 12.15 g/m*3 16.48 C 0 km/h
2413 08-08-2010 12:00:00 16.58 C 12.56 g/m*3 16.58 C 0 km/h
2414 08-08-2010 13:00:00 17.16 C 12.86 g/m*3 17.16 C 0 km/h
2415 08-08-2010 14:00:00 18.98 C 12.57 g/m*3 18.98 C 0 km/h
2416 08-08-2010 15:00:00 20.18 C 12.5 g/m*3 20.18 C 0 km/h
2417 08-08-2010 16:00:00 19.94 C 12.36 g/m*3 19.94 C 0 km/h
2418 08-08-2010 17:00:00 21.68 C 12 g/m*3 21.68 C 0 km/h
2419 08-08-2010 18:00:00 21.42 C 10.21 g/m*3 21.42 C 0 km/h
2420 08-08-2010 19:00:00 19.98 C 10.77 g/m*3 19.98 C 0 km/h
2421 08-08-2010 20:00:00 17.72 C 11.81 g/m*3 17.72 C 0 km/h
2422 08-08-2010 21:00:00 17.46 C 11.42 g/m*3 17.46 C 0 km/h
2423 08-08-2010 22:00:00 17.1 C 11.5 g/m*3 17.1 C 0 km/h
2424 08-08-2010 23:00:00 16.7 C 11.68 g/m*3 16.7 C 0 km/h
2425 09-08-2010 00:00:00 16.42 C 12.05 g/m*3 16.42 C 0 km/h
Sensor: Nr:Datum:Temp:Abs-Feuchte:Windchill:Wind:
Aussen-T/F 2426 09-08-2010 01:00:00 16.44 C 12.17 g/m*3 16.44 C 0 km/h
2427 09-08-2010 02:00:00 15.6 C 11.68 g/m*3 15.6 C 0 km/h
2428 09-08-2010 03:00:00 15.6 C 11.7 g/m*3 15.6 C 0 km/h
2429 09-08-2010 04:00:00 15.74 C 11.4 g/m*3 15.74 C 0 km/h
2430 09-08-2010 05:00:00 14.84 C 10.97 g/m*3 14.84 C 0 km/h
2431 09-08-2010 06:00:00 14.6 C 11.31 g/m*3 14.6 C 0 km/h
2432 09-08-2010 07:00:00 14.6 C 11.34 g/m*3 14.6 C 0 km/h
2433 09-08-2010 08:00:00 15.22 C 11.05 g/m*3 15.22 C 0 km/h
2434 09-08-2010 09:00:00 15.8 C 10.82 g/m*3 15.8 C 0 km/h
2435 09-08-2010 10:00:00 17.4 C 10.55 g/m*3 17.4 C 0 km/h
2436 09-08-2010 11:00:00 19.6 C 9.25 g/m*3 19.6 C 0 km/h
2437 09-08-2010 12:00:00 21.3 C 8.61 g/m*3 21.3 C 0 km/h
2438 09-08-2010 13:00:00 24.36 C 8.17 g/m*3 24.36 C 0 km/h
2439 09-08-2010 14:00:00 24.1 C 7.83 g/m*3 24.1 C 0 km/h
2440 09-08-2010 15:00:00 25.54 C 7.59 g/m*3 25.54 C 0 km/h
2441 09-08-2010 16:00:00 26.18 C 6.84 g/m*3 26.18 C 0 km/h
2442 09-08-2010 17:00:00 26.22 C 8.08 g/m*3 26.22 C 0 km/h
2443 09-08-2010 18:00:00 27.5 C 7.88 g/m*3 27.5 C 0 km/h
2444 09-08-2010 19:00:00 23.52 C 8.81 g/m*3 23.52 C 0 km/h
2445 09-08-2010 20:00:00 21.26 C 8.55 g/m*3 21.26 C 0 km/h
2446 09-08-2010 21:00:00 19.76 C 8.79 g/m*3 19.76 C 0 km/h
2447 09-08-2010 22:00:00 18.64 C 8.97 g/m*3 18.64 C 0 km/h
2448 09-08-2010 23:00:00 18.12 C 9.25 g/m*3 18.12 C 0 km/h
2449 10-08-2010 00:00:00 17.62 C 9.79 g/m*3 17.62 C 0 km/h
2450 10-08-2010 01:00:00 17.52 C 10.15 g/m*3 17.52 C 0 km/h
Sensor: Nr:Datum:Temp:Abs-Feuchte:Windchill:Wind:
Aussen-T/F 2451 10-08-2010 02:00:00 17.38 C 10.04 g/m*3 17.38 C 0 km/h
2452 10-08-2010 03:00:00 17.14 C 10.1 g/m*3 17.14 C 0 km/h
2453 10-08-2010 04:00:00 16.86 C 10.24 g/m*3 16.86 C 0 km/h
2454 10-08-2010 05:00:00 15.62 C 10.09 g/m*3 15.62 C 0 km/h
2455 10-08-2010 06:00:00 14.66 C 9.92 g/m*3 14.66 C 0 km/h
2456 10-08-2010 07:00:00 14.88 C 10.31 g/m*3 14.88 C 0 km/h
2457 10-08-2010 08:00:00 15.84 C 10.71 g/m*3 15.84 C 0 km/h
2458 10-08-2010 09:00:00 18.2 C 10.6 g/m*3 18.2 C 0 km/h
2459 10-08-2010 10:00:00 20.92 C 11.01 g/m*3 20.92 C 0 km/h
2460 10-08-2010 11:00:00 23.74 C 9.52 g/m*3 23.74 C 0 km/h
2461 10-08-2010 12:00:00 25.9 C 6.83 g/m*3 25.9 C 0 km/h
2462 10-08-2010 13:00:00 28.16 C 5.98 g/m*3 28.16 C 0 km/h
2463 10-08-2010 14:00:00 29.04 C 6.22 g/m*3 29.04 C 0 km/h
2464 10-08-2010 15:00:00 28.46 C 7.36 g/m*3 28.46 C 0 km/h
2465 10-08-2010 16:00:00 29.88 C 6.51 g/m*3 29.88 C 0 km/h
2466 10-08-2010 17:00:00 29.94 C 6.47 g/m*3 29.94 C 0 km/h
2467 10-08-2010 18:00:00 29.68 C 6.74 g/m*3 29.68 C 0 km/h
2468 10-08-2010 19:00:00 26.94 C 8.16 g/m*3 26.94 C 0 km/h
2469 10-08-2010 20:00:00 24.76 C 8.27 g/m*3 24.76 C 0 km/h
2470 10-08-2010 21:00:00 23.36 C 8.77 g/m*3 23.36 C 0 km/h
2471 10-08-2010 22:00:00 22.86 C 8.93 g/m*3 22.86 C 0 km/h
2472 10-08-2010 23:00:00 21.9 C 9.26 g/m*3 21.9 C 0 km/h
2473 11-08-2010 00:00:00 21.46 C 9.67 g/m*3 21.46 C 0 km/h
2474 11-08-2010 01:00:00 20.54 C 10.56 g/m*3 20.54 C 0 km/h
2475 11-08-2010 02:00:00 18.38 C 12.32 g/m*3 18.38 C 0 km/h
Sensor: Nr:Datum:Temp:Abs-Feuchte:Windchill:Wind:
Aussen-T/F 2476 11-08-2010 03:00:00 17.64 C 13.14 g/m*3 17.64 C 0 km/h
2477 11-08-2010 04:00:00 17.52 C 13.4 g/m*3 17.52 C 0 km/h
2478 11-08-2010 05:00:00 17.42 C 13.24 g/m*3 17.42 C 0 km/h
2479 11-08-2010 06:00:00 17.4 C 13.04 g/m*3 17.4 C 0 km/h
2480 11-08-2010 07:00:00 17.62 C 13.03 g/m*3 17.62 C 0 km/h
2481 11-08-2010 08:00:00 18.68 C 13.02 g/m*3 18.68 C 0 km/h
2482 11-08-2010 09:00:00 19.64 C 11.51 g/m*3 19.64 C 0 km/h
2483 11-08-2010 10:00:00 20.8 C 11.08 g/m*3 20.8 C 0 km/h
2484 11-08-2010 11:00:00 20.62 C 11.18 g/m*3 20.62 C 0 km/h
2485 11-08-2010 12:00:00 22.46 C 11 g/m*3 22.46 C 0 km/h
2486 11-08-2010 13:00:00 23.8 C 10.37 g/m*3 23.8 C 0 km/h
2487 11-08-2010 14:00:00 24.4 C 10.1 g/m*3 24.4 C 0 km/h
2488 11-08-2010 15:00:00 25.56 C 9.88 g/m*3 25.56 C 0 km/h
2489 11-08-2010 16:00:00 22.88 C 12 g/m*3 22.88 C 0 km/h
2490 11-08-2010 17:00:00 21.74 C 14 g/m*3 21.74 C 0 km/h
2491 11-08-2010 18:00:00 22.86 C 14.31 g/m*3 22.86 C 0 km/h
2492 11-08-2010 19:00:00 21.28 C 13.7 g/m*3 21.28 C 0 km/h
2493 11-08-2010 20:00:00 19.56 C 13.57 g/m*3 19.56 C 0 km/h
2494 11-08-2010 21:00:00 18.84 C 14.4 g/m*3 18.84 C 0 km/h
2495 11-08-2010 22:00:00 18.48 C 14.38 g/m*3 18.48 C 0 km/h
2496 11-08-2010 23:00:00 18.3 C 14.38 g/m*3 18.3 C 0 km/h
2497 12-08-2010 00:00:00 17.88 C 14.27 g/m*3 17.88 C 0 km/h
2498 12-08-2010 01:00:00 17.52 C 14.03 g/m*3 17.52 C 0 km/h
2499 12-08-2010 02:00:00 17.16 C 13.73 g/m*3 17.16 C 0 km/h
2500 12-08-2010 03:00:00 16.86 C 13.49 g/m*3 16.86 C 0 km/h
Sensor: Nr:Datum:Temp:Abs-Feuchte:Windchill:Wind:
Aussen-T/F 2501 12-08-2010 04:00:00 16.46 C 13.22 g/m*3 16.46 C 0 km/h
2502 12-08-2010 05:00:00 16.48 C 13.3 g/m*3 16.48 C 0 km/h
2503 12-08-2010 06:00:00 16.72 C 13.52 g/m*3 16.72 C 0 km/h
2504 12-08-2010 07:00:00 16.86 C 13.6 g/m*3 16.86 C 0 km/h
2505 12-08-2010 08:00:00 16.64 C 12.89 g/m*3 16.64 C 0 km/h
2506 12-08-2010 09:00:00 17.72 C 13.44 g/m*3 17.72 C 0 km/h
2507 12-08-2010 10:00:00 18.58 C 12.24 g/m*3 18.58 C 0 km/h
2508 12-08-2010 11:00:00 18.62 C 12.17 g/m*3 18.62 C 0 km/h
2509 12-08-2010 12:00:00 19.56 C 11.25 g/m*3 19.56 C 0 km/h
2510 12-08-2010 13:00:00 20.26 C 9.58 g/m*3 20.26 C 0 km/h
2511 12-08-2010 14:00:00 20.3 C 9.04 g/m*3 20.3 C 0 km/h
2512 12-08-2010 15:00:00 23.02 C 8.4 g/m*3 23.02 C 0 km/h
2513 12-08-2010 16:00:00 22.56 C 7.14 g/m*3 22.56 C 0 km/h
2514 12-08-2010 17:00:00 25.42 C 5.89 g/m*3 25.42 C 0 km/h
2515 12-08-2010 18:00:00 23.3 C 6.65 g/m*3 23.3 C 0 km/h
2516 12-08-2010 19:00:00 21.68 C 8.23 g/m*3 21.68 C 0 km/h
2517 12-08-2010 20:00:00 20.1 C 8.45 g/m*3 20.1 C 0 km/h
2518 12-08-2010 21:00:00 19.14 C 7.99 g/m*3 19.14 C 0 km/h
2519 12-08-2010 22:00:00 18.44 C 8.58 g/m*3 18.44 C 0 km/h
2520 12-08-2010 23:00:00 17.34 C 9.19 g/m*3 17.34 C 0 km/h
2521 13-08-2010 00:00:00 16.82 C 9.42 g/m*3 16.82 C 0 km/h
2522 13-08-2010 01:00:00 16.18 C 9.26 g/m*3 16.18 C 0 km/h
2523 13-08-2010 02:00:00 15.82 C 9.68 g/m*3 15.82 C 0 km/h
2524 13-08-2010 03:00:00 15.34 C 9.84 g/m*3 15.34 C 0 km/h
2525 13-08-2010 04:00:00 15.04 C 10 g/m*3 15.04 C 0 km/h
Sensor: Nr:Datum:Temp:Abs-Feuchte:Windchill:Wind:
Aussen-T/F 2526 13-08-2010 05:00:00 14.76 C 9.98 g/m*3 14.76 C 0 km/h
2527 13-08-2010 06:00:00 14.7 C 10.05 g/m*3 14.7 C 0 km/h
2528 13-08-2010 07:00:00 15.02 C 10.12 g/m*3 15.02 C 0 km/h
2529 13-08-2010 08:00:00 15.16 C 10.33 g/m*3 15.16 C 0 km/h
2530 13-08-2010 09:00:00 16.26 C 10.3 g/m*3 16.26 C 0 km/h
2531 13-08-2010 10:00:00 18.84 C 9.65 g/m*3 18.84 C 0 km/h
2532 13-08-2010 11:00:00 21.24 C 8.4 g/m*3 21.24 C 0 km/h
2533 13-08-2010 12:00:00 22.2 C 7.74 g/m*3 22.2 C 0 km/h
2534 13-08-2010 13:00:00 23 C 6.99 g/m*3 23 C 0 km/h
2535 13-08-2010 14:00:00 23.92 C 6.5 g/m*3 23.92 C 0 km/h
2536 13-08-2010 15:00:00 24.42 C 6.02 g/m*3 24.42 C 0 km/h
2537 13-08-2010 16:00:00 24.24 C 6.75 g/m*3 24.24 C 0 km/h
2538 13-08-2010 17:00:00 23.66 C 7.43 g/m*3 23.66 C 0 km/h
2539 13-08-2010 18:00:00 22.5 C 8.15 g/m*3 22.5 C 0 km/h
2540 13-08-2010 19:00:00 21.84 C 7.88 g/m*3 21.84 C 0 km/h
2541 13-08-2010 20:00:00 19.9 C 7.94 g/m*3 19.9 C 0 km/h
2542 13-08-2010 21:00:00 17.66 C 7.83 g/m*3 17.66 C 0 km/h
2543 13-08-2010 22:00:00 16.72 C 8.2 g/m*3 16.72 C 0 km/h
2544 13-08-2010 23:00:00 15.44 C 8.64 g/m*3 15.44 C 0 km/h
2545 14-08-2010 00:00:00 14.7 C 8.91 g/m*3 14.7 C 0 km/h
2546 14-08-2010 01:00:00 13.98 C 9.11 g/m*3 13.98 C 0 km/h
2547 14-08-2010 02:00:00 13.32 C 9 g/m*3 13.32 C 0 km/h
2548 14-08-2010 03:00:00 12.6 C 8.87 g/m*3 12.6 C 0 km/h
2549 14-08-2010 04:00:00 12.06 C 8.75 g/m*3 12.06 C 0 km/h
2550 14-08-2010 05:00:00 11.62 C 8.76 g/m*3 11.62 C 0 km/h
Sensor: Nr:Datum:Temp:Abs-Feuchte:Windchill:Wind:
Aussen-T/F 2551 14-08-2010 06:00:00 11.12 C 8.73 g/m*3 11.12 C 0 km/h
2552 14-08-2010 07:00:00 11.28 C 8.9 g/m*3 11.28 C 0 km/h
2553 14-08-2010 08:00:00 12.32 C 9.42 g/m*3 12.32 C 0 km/h
2554 14-08-2010 09:00:00 14.4 C 9.94 g/m*3 14.4 C 0 km/h
2555 14-08-2010 10:00:00 17.62 C 10.39 g/m*3 17.62 C 0 km/h
2556 14-08-2010 11:00:00 20.68 C 10.36 g/m*3 20.68 C 0 km/h
2557 14-08-2010 12:00:00 22.96 C 9.19 g/m*3 22.96 C 0 km/h
2558 14-08-2010 13:00:00 26.24 C 7.4 g/m*3 26.24 C 0 km/h
2559 14-08-2010 14:00:00 27.62 C 6.98 g/m*3 27.62 C 0 km/h
2560 14-08-2010 15:00:00 28.04 C 6.7 g/m*3 28.04 C 0 km/h
2561 14-08-2010 16:00:00 30.1 C 6.46 g/m*3 30.1 C 0 km/h
2562 14-08-2010 17:00:00 30.88 C 6.36 g/m*3 30.88 C 0 km/h
2563 14-08-2010 18:00:00 31.22 C 6.48 g/m*3 31.22 C 0 km/h
2564 14-08-2010 19:00:00 27.86 C 7.56 g/m*3 27.86 C 0 km/h
2565 14-08-2010 20:00:00 24.86 C 8.18 g/m*3 24.86 C 0 km/h
2566 14-08-2010 21:00:00 22.14 C 8.73 g/m*3 22.14 C 0 km/h
2567 14-08-2010 22:00:00 21.24 C 9.14 g/m*3 21.24 C 0 km/h
2568 14-08-2010 23:00:00 20.36 C 9.14 g/m*3 20.36 C 0 km/h
2569 15-08-2010 00:00:00 19.74 C 8.82 g/m*3 19.74 C 0 km/h
2570 15-08-2010 01:00:00 19.38 C 8.73 g/m*3 19.38 C 0 km/h
2571 15-08-2010 02:00:00 18.98 C 8.98 g/m*3 18.98 C 0 km/h
2572 15-08-2010 03:00:00 18.6 C 9.29 g/m*3 18.6 C 0 km/h
2573 15-08-2010 04:00:00 18.14 C 9.14 g/m*3 18.14 C 0 km/h
2574 15-08-2010 05:00:00 18.06 C 8.88 g/m*3 18.06 C 0 km/h
2575 15-08-2010 06:00:00 17.9 C 9.04 g/m*3 17.9 C 0 km/h
Sensor: Nr:Datum:Temp:Abs-Feuchte:Windchill:Wind:
Aussen-T/F 2576 15-08-2010 07:00:00 17.1 C 9.69 g/m*3 17.1 C 0 km/h
2577 15-08-2010 08:00:00 15.24 C 11.48 g/m*3 15.24 C 0 km/h
2578 15-08-2010 09:00:00 15.2 C 11.99 g/m*3 15.2 C 0 km/h
2579 15-08-2010 10:00:00 15.48 C 12.44 g/m*3 15.48 C 0 km/h
2580 15-08-2010 11:00:00 15.82 C 12.8 g/m*3 15.82 C 0 km/h
2581 15-08-2010 12:00:00 16.04 C 12.97 g/m*3 16.04 C 0 km/h
2582 15-08-2010 13:00:00 16.14 C 13.05 g/m*3 16.14 C 0 km/h
2583 15-08-2010 14:00:00 16.44 C 13.29 g/m*3 16.44 C 0 km/h
2584 15-08-2010 15:00:00 16.4 C 13.26 g/m*3 16.4 C 0 km/h
2585 15-08-2010 16:00:00 16.48 C 13.32 g/m*3 16.48 C 0 km/h
2586 15-08-2010 17:00:00 16.68 C 13.48 g/m*3 16.68 C 0 km/h
2587 15-08-2010 18:00:00 16.6 C 13.42 g/m*3 16.6 C 0 km/h
2588 15-08-2010 19:00:00 16.6 C 13.42 g/m*3 16.6 C 0 km/h
2589 15-08-2010 20:00:00 16.38 C 13.24 g/m*3 16.38 C 0 km/h
2590 15-08-2010 21:00:00 16.24 C 13.13 g/m*3 16.24 C 0 km/h
2591 15-08-2010 22:00:00 16.14 C 13.05 g/m*3 16.14 C 0 km/h
2592 15-08-2010 23:00:00 15.5 C 12.56 g/m*3 15.5 C 0 km/h
2593 16-08-2010 00:00:00 14.9 C 12.11 g/m*3 14.9 C 0 km/h
2594 16-08-2010 01:00:00 14.72 C 11.87 g/m*3 14.72 C 0 km/h
2595 16-08-2010 02:00:00 14.6 C 11.61 g/m*3 14.6 C 0 km/h
2596 16-08-2010 03:00:00 14.6 C 11.64 g/m*3 14.6 C 0 km/h
2597 16-08-2010 04:00:00 14.5 C 11.34 g/m*3 14.5 C 0 km/h
2598 16-08-2010 05:00:00 14.5 C 11.39 g/m*3 14.5 C 0 km/h
2599 16-08-2010 06:00:00 14.54 C 11.37 g/m*3 14.54 C 0 km/h
2600 16-08-2010 07:00:00 14.84 C 11.45 g/m*3 14.84 C 0 km/h
Sensor: Nr:Datum:Temp:Abs-Feuchte:Windchill:Wind:
Aussen-T/F 2601 16-08-2010 08:00:00 15.92 C 11.44 g/m*3 15.92 C 0 km/h
2602 16-08-2010 09:00:00 17.4 C 11.09 g/m*3 17.4 C 0 km/h
2603 16-08-2010 10:00:00 17.2 C 10.84 g/m*3 17.2 C 0 km/h
2604 16-08-2010 11:00:00 17.7 C 11.09 g/m*3 17.7 C 0 km/h
2605 16-08-2010 12:00:00 17.76 C 11.45 g/m*3 17.76 C 0 km/h
2606 16-08-2010 13:00:00 18.38 C 10.59 g/m*3 18.38 C 0 km/h
2607 16-08-2010 14:00:00 19.88 C 9.88 g/m*3 19.88 C 0 km/h
2608 16-08-2010 15:00:00 19.72 C 9.42 g/m*3 19.72 C 0 km/h
2609 16-08-2010 16:00:00 19.76 C 9.75 g/m*3 19.76 C 0 km/h
2610 16-08-2010 17:00:00 19.96 C 9.79 g/m*3 19.96 C 0 km/h
2611 16-08-2010 18:00:00 19.76 C 9.65 g/m*3 19.76 C 0 km/h
2612 16-08-2010 19:00:00 18.6 C 10.06 g/m*3 18.6 C 0 km/h
2613 16-08-2010 20:00:00 17.9 C 10.63 g/m*3 17.9 C 0 km/h
2614 16-08-2010 21:00:00 17.44 C 11.32 g/m*3 17.44 C 0 km/h
2615 16-08-2010 22:00:00 17.58 C 11.83 g/m*3 17.58 C 0 km/h
2616 16-08-2010 23:00:00 17.76 C 12.05 g/m*3 17.76 C 0 km/h
2617 17-08-2010 00:00:00 17.62 C 11.95 g/m*3 17.62 C 0 km/h
2618 17-08-2010 01:00:00 16.68 C 12.29 g/m*3 16.68 C 0 km/h
2619 17-08-2010 02:00:00 16.48 C 12.37 g/m*3 16.48 C 0 km/h
2620 17-08-2010 03:00:00 16.42 C 11.79 g/m*3 16.42 C 0 km/h
2621 17-08-2010 04:00:00 16.42 C 11.18 g/m*3 16.42 C 0 km/h
2622 17-08-2010 05:00:00 15.62 C 11.34 g/m*3 15.62 C 0 km/h
2623 17-08-2010 06:00:00 15.84 C 11.23 g/m*3 15.84 C 0 km/h
2624 17-08-2010 07:00:00 16.36 C 10.83 g/m*3 16.36 C 0 km/h
2625 17-08-2010 08:00:00 16.72 C 10.33 g/m*3 16.72 C 0 km/h
Sensor: Nr:Datum:Temp:Abs-Feuchte:Windchill:Wind:
Aussen-T/F 2626 17-08-2010 09:00:00 16.98 C 9.65 g/m*3 16.98 C 0 km/h
2627 17-08-2010 10:00:00 17.06 C 9.35 g/m*3 17.06 C 0 km/h
2628 17-08-2010 11:00:00 17.58 C 9.2 g/m*3 17.58 C 0 km/h
2629 17-08-2010 12:00:00 16.62 C 10.13 g/m*3 16.62 C 0 km/h
2630 17-08-2010 13:00:00 17.3 C 11.73 g/m*3 17.3 C 0 km/h
2631 17-08-2010 14:00:00 17.74 C 9.16 g/m*3 17.74 C 0 km/h
2632 17-08-2010 15:00:00 17.08 C 8.75 g/m*3 17.08 C 0 km/h
2633 17-08-2010 16:00:00 14.7 C 9.74 g/m*3 14.7 C 0 km/h
2634 17-08-2010 17:00:00 14.42 C 9.98 g/m*3 14.42 C 0 km/h
2635 17-08-2010 18:00:00 14.8 C 11 g/m*3 14.8 C 0 km/h
2636 17-08-2010 19:00:00 14.84 C 11.05 g/m*3 14.84 C 0 km/h
2637 17-08-2010 20:00:00 14.32 C 11.02 g/m*3 14.32 C 0 km/h
2638 17-08-2010 21:00:00 14.38 C 11.31 g/m*3 14.38 C 0 km/h
2639 17-08-2010 22:00:00 14.62 C 10.75 g/m*3 14.62 C 0 km/h
2640 17-08-2010 23:00:00 15 C 10.05 g/m*3 15 C 0 km/h
2641 18-08-2010 00:00:00 15.52 C 9.66 g/m*3 15.52 C 0 km/h
2642 18-08-2010 01:00:00 15.76 C 9.43 g/m*3 15.76 C 0 km/h
2643 18-08-2010 02:00:00 15.54 C 9.43 g/m*3 15.54 C 0 km/h
2644 18-08-2010 03:00:00 15.46 C 9.49 g/m*3 15.46 C 0 km/h
2645 18-08-2010 04:00:00 15.2 C 9.55 g/m*3 15.2 C 0 km/h
2646 18-08-2010 05:00:00 14.96 C 9.8 g/m*3 14.96 C 0 km/h
2647 18-08-2010 06:00:00 15.08 C 9.56 g/m*3 15.08 C 0 km/h
2648 18-08-2010 07:00:00 15.44 C 9.69 g/m*3 15.44 C 0 km/h
2649 18-08-2010 08:00:00 16.16 C 9.88 g/m*3 16.16 C 0 km/h
2650 18-08-2010 09:00:00 17.1 C 10.16 g/m*3 17.1 C 0 km/h
Sensor: Nr:Datum:Temp:Abs-Feuchte:Windchill:Wind:
Aussen-T/F 2651 18-08-2010 10:00:00 18.16 C 10.2 g/m*3 18.16 C 0 km/h
2652 18-08-2010 11:00:00 18.7 C 10.18 g/m*3 18.7 C 0 km/h
2653 18-08-2010 12:00:00 18.82 C 10.67 g/m*3 18.82 C 0 km/h
2654 18-08-2010 13:00:00 20.8 C 10.25 g/m*3 20.8 C 0 km/h
2655 18-08-2010 14:00:00 22.84 C 9.04 g/m*3 22.84 C 0 km/h
2656 18-08-2010 15:00:00 22.24 C 9.01 g/m*3 22.24 C 0 km/h
2657 18-08-2010 16:00:00 23.68 C 9.02 g/m*3 23.68 C 0 km/h
2658 18-08-2010 17:00:00 23.88 C 8.86 g/m*3 23.88 C 0 km/h
2659 18-08-2010 18:00:00 22.36 C 9.15 g/m*3 22.36 C 0 km/h
2660 18-08-2010 19:00:00 20.68 C 9.35 g/m*3 20.68 C 0 km/h
2661 18-08-2010 20:00:00 19.44 C 10 g/m*3 19.44 C 0 km/h
2662 18-08-2010 21:00:00 18.82 C 10.19 g/m*3 18.82 C 0 km/h
2663 18-08-2010 22:00:00 17.6 C 10.59 g/m*3 17.6 C 0 km/h
2664 18-08-2010 23:00:00 17.58 C 10.19 g/m*3 17.58 C 0 km/h
2665 19-08-2010 00:00:00 17.36 C 9.14 g/m*3 17.36 C 0 km/h
2666 19-08-2010 01:00:00 16.86 C 9.18 g/m*3 16.86 C 0 km/h
2667 19-08-2010 02:00:00 16.32 C 8.81 g/m*3 16.32 C 0 km/h
2668 19-08-2010 03:00:00 15.9 C 9.21 g/m*3 15.9 C 0 km/h
2669 19-08-2010 04:00:00 15.54 C 9.38 g/m*3 15.54 C 0 km/h
2670 19-08-2010 05:00:00 15.1 C 9.31 g/m*3 15.1 C 0 km/h
2671 19-08-2010 06:00:00 14.18 C 8.9 g/m*3 14.18 C 0 km/h
2672 19-08-2010 07:00:00 13.92 C 8.21 g/m*3 13.92 C 0 km/h
2673 19-08-2010 08:00:00 14.78 C 8.05 g/m*3 14.78 C 0 km/h
2674 19-08-2010 09:00:00 15.72 C 8.06 g/m*3 15.72 C 0 km/h
2675 19-08-2010 10:00:00 17.9 C 7.7 g/m*3 17.9 C 0 km/h
Sensor: Nr:Datum:Temp:Abs-Feuchte:Windchill:Wind:
Aussen-T/F 2676 19-08-2010 11:00:00 20 C 7.26 g/m*3 20 C 0 km/h
2677 19-08-2010 12:00:00 21.44 C 6.65 g/m*3 21.44 C 0 km/h
2678 19-08-2010 13:00:00 22.64 C 6.16 g/m*3 22.64 C 0 km/h
2679 19-08-2010 14:00:00 23.04 C 6.02 g/m*3 23.04 C 0 km/h
2680 19-08-2010 15:00:00 23.74 C 6.22 g/m*3 23.74 C 0 km/h
2681 19-08-2010 16:00:00 23.28 C 7.64 g/m*3 23.28 C 0 km/h
2682 19-08-2010 17:00:00 23.9 C 7.53 g/m*3 23.9 C 0 km/h
2683 19-08-2010 18:00:00 25.42 C 5.75 g/m*3 25.42 C 0 km/h
2684 19-08-2010 19:00:00 25.24 C 6.63 g/m*3 25.24 C 0 km/h
2685 19-08-2010 20:00:00 20.5 C 7.15 g/m*3 20.5 C 0 km/h
2686 19-08-2010 21:00:00 18.08 C 7.78 g/m*3 18.08 C 0 km/h
2687 19-08-2010 22:00:00 16.86 C 8.01 g/m*3 16.86 C 0 km/h
2688 19-08-2010 23:00:00 15.62 C 8.36 g/m*3 15.62 C 0 km/h
2689 20-08-2010 00:00:00 14.72 C 8.55 g/m*3 14.72 C 0 km/h
2690 20-08-2010 01:00:00 14.04 C 8.61 g/m*3 14.04 C 0 km/h
2691 20-08-2010 02:00:00 13.34 C 8.59 g/m*3 13.34 C 0 km/h
2692 20-08-2010 03:00:00 12.8 C 8.62 g/m*3 12.8 C 0 km/h
2693 20-08-2010 04:00:00 12.26 C 8.58 g/m*3 12.26 C 0 km/h
2694 20-08-2010 05:00:00 11.9 C 8.56 g/m*3 11.9 C 0 km/h
2695 20-08-2010 06:00:00 11.48 C 8.54 g/m*3 11.48 C 0 km/h
2696 20-08-2010 07:00:00 11.76 C 8.78 g/m*3 11.76 C 0 km/h
2697 20-08-2010 08:00:00 12.54 C 9.19 g/m*3 12.54 C 0 km/h
2698 20-08-2010 09:00:00 14.5 C 9.85 g/m*3 14.5 C 0 km/h
2699 20-08-2010 10:00:00 18.02 C 10.3 g/m*3 18.02 C 0 km/h
2700 20-08-2010 11:00:00 20.98 C 10.87 g/m*3 20.98 C 0 km/h
Sensor: Nr:Datum:Temp:Abs-Feuchte:Windchill:Wind:
Aussen-T/F 2701 20-08-2010 12:00:00 23.76 C 10.86 g/m*3 23.76 C 0 km/h
2702 20-08-2010 13:00:00 26.76 C 9.04 g/m*3 26.76 C 0 km/h
2703 20-08-2010 14:00:00 28.36 C 7.82 g/m*3 28.36 C 0 km/h
2704 20-08-2010 15:00:00 29.54 C 7.45 g/m*3 29.54 C 0 km/h
2705 20-08-2010 16:00:00 30.72 C 7.57 g/m*3 30.72 C 0 km/h
2706 20-08-2010 17:00:00 31.16 C 7.29 g/m*3 31.16 C 0 km/h
2707 20-08-2010 18:00:00 31.22 C 7.64 g/m*3 31.22 C 0 km/h
2708 20-08-2010 19:00:00 29.58 C 8.42 g/m*3 29.58 C 0 km/h
2709 20-08-2010 20:00:00 25.1 C 9.07 g/m*3 25.1 C 0 km/h
2710 20-08-2010 21:00:00 23.08 C 9.58 g/m*3 23.08 C 0 km/h
2711 20-08-2010 22:00:00 22.025 C 10.2 g/m*3 22.03 C 0 km/h
2712 20-08-2010 23:00:00 20.9 C 10.64 g/m*3 20.9 C 0 km/h
2713 21-08-2010 00:00:00 19.76 C 10.77 g/m*3 19.76 C 0 km/h
2714 21-08-2010 01:00:00 18.84 C 11.01 g/m*3 18.84 C 0 km/h
2715 21-08-2010 02:00:00 18.16 C 11.04 g/m*3 18.16 C 0 km/h
2716 21-08-2010 03:00:00 17.66 C 11.11 g/m*3 17.66 C 0 km/h
2717 21-08-2010 04:00:00 17.06 C 11.12 g/m*3 17.06 C 0 km/h
2718 21-08-2010 05:00:00 16.46 C 10.95 g/m*3 16.46 C 0 km/h
2719 21-08-2010 06:00:00 16.04 C 10.9 g/m*3 16.04 C 0 km/h
2720 21-08-2010 07:00:00 16 C 11.06 g/m*3 16 C 0 km/h
2721 21-08-2010 08:00:00 16.78 C 11.54 g/m*3 16.78 C 0 km/h
2722 21-08-2010 09:00:00 18.42 C 12.22 g/m*3 18.42 C 0 km/h
2723 21-08-2010 10:00:00 21.4 C 12.86 g/m*3 21.4 C 0 km/h
2724 21-08-2010 11:00:00 24.76 C 12.17 g/m*3 24.76 C 0 km/h
2725 21-08-2010 12:00:00 27.54 C 9.81 g/m*3 27.54 C 0 km/h
Sensor: Nr:Datum:Temp:Abs-Feuchte:Windchill:Wind:
Aussen-T/F 2726 21-08-2010 13:00:00 29.12 C 9.19 g/m*3 29.12 C 0 km/h
2727 21-08-2010 14:00:00 30.42 C 8.69 g/m*3 30.42 C 0 km/h
2728 21-08-2010 15:00:00 31.28 C 8.51 g/m*3 31.28 C 0 km/h
2729 21-08-2010 16:00:00 32.14 C 7.89 g/m*3 32.14 C 0 km/h
2730 21-08-2010 17:00:00 32.38 C 7.58 g/m*3 32.38 C 0 km/h
2731 21-08-2010 18:00:00 32.42 C 7.39 g/m*3 32.42 C 0 km/h
2732 21-08-2010 19:00:00 31.66 C 7.96 g/m*3 31.66 C 0 km/h
2733 21-08-2010 20:00:00 28.82 C 9.33 g/m*3 28.82 C 0 km/h
2734 21-08-2010 21:00:00 25.72 C 10.26 g/m*3 25.72 C 0 km/h
2735 21-08-2010 22:00:00 24.34 C 10.87 g/m*3 24.34 C 0 km/h
2736 21-08-2010 23:00:00 23.16 C 11.24 g/m*3 23.16 C 0 km/h
2737 22-08-2010 00:00:00 22 C 11.45 g/m*3 22 C 0 km/h
2738 22-08-2010 01:00:00 21.04 C 11.68 g/m*3 21.04 C 0 km/h
2739 22-08-2010 02:00:00 20.14 C 11.88 g/m*3 20.14 C 0 km/h
2740 22-08-2010 03:00:00 19.52 C 12.1 g/m*3 19.52 C 0 km/h
2741 22-08-2010 04:00:00 19.16 C 12.11 g/m*3 19.16 C 0 km/h
2742 22-08-2010 05:00:00 18.54 C 12.08 g/m*3 18.54 C 0 km/h
2743 22-08-2010 06:00:00 18 C 12.01 g/m*3 18 C 0 km/h
2744 22-08-2010 07:00:00 18.3 C 12.2 g/m*3 18.3 C 0 km/h
2745 22-08-2010 08:00:00 18.96 C 12.62 g/m*3 18.96 C 0 km/h
2746 22-08-2010 09:00:00 20.32 C 12.64 g/m*3 20.32 C 0 km/h
2747 22-08-2010 10:00:00 23.1 C 12.69 g/m*3 23.1 C 0 km/h
2748 22-08-2010 11:00:00 24.88 C 12.71 g/m*3 24.88 C 0 km/h
2749 22-08-2010 12:00:00 27.46 C 11.67 g/m*3 27.46 C 0 km/h
2750 22-08-2010 13:00:00 28.44 C 10.53 g/m*3 28.44 C 0 km/h
Sensor: Nr:Datum:Temp:Abs-Feuchte:Windchill:Wind:
Aussen-T/F 2751 22-08-2010 14:00:00 28.74 C 10.48 g/m*3 28.74 C 0 km/h
2752 22-08-2010 15:00:00 25.76 C 12.2 g/m*3 25.76 C 0 km/h
2753 22-08-2010 16:00:00 27.8 C 11.89 g/m*3 27.8 C 0 km/h
2754 22-08-2010 17:00:00 26.68 C 11.88 g/m*3 26.68 C 0 km/h
2755 22-08-2010 18:00:00 26.28 C 11.72 g/m*3 26.28 C 0 km/h
2756 22-08-2010 19:00:00 25.52 C 11.57 g/m*3 25.52 C 0 km/h
2757 22-08-2010 20:00:00 24.42 C 10.65 g/m*3 24.42 C 0 km/h
2758 22-08-2010 21:00:00 23.16 C 11.49 g/m*3 23.16 C 0 km/h
2759 22-08-2010 22:00:00 22.66 C 11.69 g/m*3 22.66 C 0 km/h
2760 22-08-2010 23:00:00 21.52 C 11.89 g/m*3 21.52 C 0 km/h
2761 23-08-2010 00:00:00 20.88 C 12.01 g/m*3 20.88 C 0 km/h
2762 23-08-2010 01:00:00 20.38 C 12.16 g/m*3 20.38 C 0 km/h
2763 23-08-2010 02:00:00 20.02 C 12.32 g/m*3 20.02 C 0 km/h
2764 23-08-2010 03:00:00 19.82 C 12.31 g/m*3 19.82 C 0 km/h
2765 23-08-2010 04:00:00 19.52 C 12.33 g/m*3 19.52 C 0 km/h
2766 23-08-2010 05:00:00 19.44 C 12.21 g/m*3 19.44 C 0 km/h
2767 23-08-2010 06:00:00 19.48 C 12.34 g/m*3 19.48 C 0 km/h
2768 23-08-2010 07:00:00 19.92 C 12.49 g/m*3 19.92 C 0 km/h
2769 23-08-2010 08:00:00 19.74 C 13.31 g/m*3 19.74 C 0 km/h
2770 23-08-2010 09:00:00 19.44 C 14.52 g/m*3 19.44 C 0 km/h
2771 23-08-2010 10:00:00 20.64 C 15.07 g/m*3 20.64 C 0 km/h
2772 23-08-2010 11:00:00 22.26 C 14.78 g/m*3 22.26 C 0 km/h
2773 23-08-2010 12:00:00 23.08 C 15.61 g/m*3 23.08 C 0 km/h
2774 23-08-2010 13:00:00 23.68 C 14.36 g/m*3 23.68 C 0 km/h
2775 23-08-2010 14:00:00 24.34 C 14.28 g/m*3 24.34 C 0 km/h
Sensor: Nr:Datum:Temp:Abs-Feuchte:Windchill:Wind:
Aussen-T/F 2776 23-08-2010 15:00:00 25.86 C 12.32 g/m*3 25.86 C 0 km/h
2777 23-08-2010 16:00:00 25.94 C 11.4 g/m*3 25.94 C 0 km/h
2778 23-08-2010 17:00:00 23.58 C 11.98 g/m*3 23.58 C 0 km/h
2779 23-08-2010 18:00:00 21.12 C 13.76 g/m*3 21.12 C 0 km/h
2780 23-08-2010 19:00:00 20.76 C 13.77 g/m*3 20.76 C 0 km/h
2781 23-08-2010 20:00:00 20.34 C 12.94 g/m*3 20.34 C 0 km/h
2782 23-08-2010 21:00:00 19.8 C 12.61 g/m*3 19.8 C 0 km/h
2783 23-08-2010 22:00:00 19.58 C 12.24 g/m*3 19.58 C 0 km/h
2784 23-08-2010 23:00:00 19.3 C 11.94 g/m*3 19.3 C 0 km/h
2785 24-08-2010 00:00:00 19.18 C 12.09 g/m*3 19.18 C 0 km/h
2786 24-08-2010 01:00:00 19.2 C 12.43 g/m*3 19.2 C 0 km/h
2787 24-08-2010 02:00:00 19.68 C 12.28 g/m*3 19.68 C 0 km/h
2788 24-08-2010 03:00:00 18.34 C 11.85 g/m*3 18.34 C 0 km/h
2789 24-08-2010 04:00:00 18.06 C 9.53 g/m*3 18.06 C 0 km/h
2790 24-08-2010 05:00:00 17.24 C 9.51 g/m*3 17.24 C 0 km/h
2791 24-08-2010 06:00:00 17.08 C 9.48 g/m*3 17.08 C 0 km/h
2792 24-08-2010 07:00:00 16.44 C 9.23 g/m*3 16.44 C 0 km/h
2793 24-08-2010 08:00:00 16.16 C 8.45 g/m*3 16.16 C 0 km/h
2794 24-08-2010 09:00:00 16.76 C 7.3 g/m*3 16.76 C 0 km/h
2795 24-08-2010 10:00:00 17.88 C 7.23 g/m*3 17.88 C 0 km/h
2796 24-08-2010 11:00:00 19.08 C 6.88 g/m*3 19.08 C 0 km/h
2797 24-08-2010 12:00:00 20.04 C 6.34 g/m*3 20.04 C 0 km/h
2798 24-08-2010 13:00:00 21 C 5.94 g/m*3 21 C 0 km/h
2799 24-08-2010 14:00:00 21.46 C 5.49 g/m*3 21.46 C 0 km/h
2800 24-08-2010 15:00:00 21.82 C 5.11 g/m*3 21.82 C 0 km/h
Sensor: Nr:Datum:Temp:Abs-Feuchte:Windchill:Wind:
Aussen-T/F 2801 24-08-2010 16:00:00 23.04 C 4.61 g/m*3 23.04 C 0 km/h
2802 24-08-2010 17:00:00 23.22 C 4.7 g/m*3 23.22 C 0 km/h
2803 24-08-2010 18:00:00 22.92 C 5.11 g/m*3 22.92 C 0 km/h
2804 24-08-2010 19:00:00 21.68 C 5.18 g/m*3 21.68 C 0 km/h
2805 24-08-2010 20:00:00 19.76 C 5.79 g/m*3 19.76 C 0 km/h
2806 24-08-2010 21:00:00 18.28 C 6.12 g/m*3 18.28 C 0 km/h
2807 24-08-2010 22:00:00 17.4 C 6.28 g/m*3 17.4 C 0 km/h
2808 24-08-2010 23:00:00 16.78 C 6.43 g/m*3 16.78 C 0 km/h
2809 25-08-2010 00:00:00 16.16 C 6.55 g/m*3 16.16 C 0 km/h
2810 25-08-2010 01:00:00 15.52 C 6.8 g/m*3 15.52 C 0 km/h
2811 25-08-2010 02:00:00 14.66 C 7.11 g/m*3 14.66 C 0 km/h
2812 25-08-2010 03:00:00 13.76 C 7.56 g/m*3 13.76 C 0 km/h
2813 25-08-2010 04:00:00 13.4 C 7.7 g/m*3 13.4 C 0 km/h
2814 25-08-2010 05:00:00 13.38 C 7.52 g/m*3 13.38 C 0 km/h
2815 25-08-2010 06:00:00 12.94 C 7.71 g/m*3 12.94 C 0 km/h
2816 25-08-2010 07:00:00 12.76 C 7.84 g/m*3 12.76 C 0 km/h
2817 25-08-2010 08:00:00 13.54 C 7.86 g/m*3 13.54 C 0 km/h
2818 25-08-2010 09:00:00 14.92 C 7.91 g/m*3 14.92 C 0 km/h
2819 25-08-2010 10:00:00 16.3 C 7.8 g/m*3 16.3 C 0 km/h
2820 25-08-2010 11:00:00 17.9 C 7.82 g/m*3 17.9 C 0 km/h
2821 25-08-2010 12:00:00 20 C 7.19 g/m*3 20 C 0 km/h
2822 25-08-2010 13:00:00 20.82 C 6.67 g/m*3 20.82 C 0 km/h
2823 25-08-2010 14:00:00 21.46 C 6.43 g/m*3 21.46 C 0 km/h
2824 25-08-2010 15:00:00 23.54 C 6.1 g/m*3 23.54 C 0 km/h
2825 25-08-2010 16:00:00 24.46 C 5.67 g/m*3 24.46 C 0 km/h
Sensor: Nr:Datum:Temp:Abs-Feuchte:Windchill:Wind:
Aussen-T/F 2826 25-08-2010 17:00:00 23.2 C 6.65 g/m*3 23.2 C 0 km/h
2827 25-08-2010 18:00:00 21.9 C 7.1 g/m*3 21.9 C 0 km/h
2828 25-08-2010 19:00:00 20.22 C 7.91 g/m*3 20.22 C 0 km/h
2829 25-08-2010 20:00:00 19.04 C 8.23 g/m*3 19.04 C 0 km/h
2830 25-08-2010 21:00:00 18.12 C 8.35 g/m*3 18.12 C 0 km/h
2831 25-08-2010 22:00:00 17.56 C 8.5 g/m*3 17.56 C 0 km/h
2832 25-08-2010 23:00:00 17.3 C 8.81 g/m*3 17.3 C 0 km/h
2833 26-08-2010 00:00:00 17.28 C 9.06 g/m*3 17.28 C 0 km/h
2834 26-08-2010 01:00:00 17.48 C 9.11 g/m*3 17.48 C 0 km/h
2835 26-08-2010 02:00:00 16.88 C 9.97 g/m*3 16.88 C 0 km/h
2836 26-08-2010 03:00:00 16.86 C 10.04 g/m*3 16.86 C 0 km/h
2837 26-08-2010 04:00:00 16.94 C 9.86 g/m*3 16.94 C 0 km/h
2838 26-08-2010 05:00:00 18.28 C 10.31 g/m*3 18.28 C 0 km/h
2839 26-08-2010 06:00:00 18.18 C 10.53 g/m*3 18.18 C 0 km/h
2840 26-08-2010 07:00:00 19.26 C 10.69 g/m*3 19.26 C 0 km/h
2841 26-08-2010 08:00:00 20.2 C 11.12 g/m*3 20.2 C 0 km/h
2842 26-08-2010 09:00:00 21.52 C 11.33 g/m*3 21.52 C 0 km/h
2843 26-08-2010 10:00:00 22.76 C 11.19 g/m*3 22.76 C 0 km/h
2844 26-08-2010 11:00:00 23.76 C 11.16 g/m*3 23.76 C 0 km/h
2845 26-08-2010 12:00:00 23.54 C 11.15 g/m*3 23.54 C 0 km/h
2846 26-08-2010 13:00:00 22.96 C 11.2 g/m*3 22.96 C 0 km/h
2847 26-08-2010 14:00:00 23.8 C 11.19 g/m*3 23.8 C 0 km/h
2848 26-08-2010 15:00:00 23.68 C 11.32 g/m*3 23.68 C 0 km/h
2849 26-08-2010 16:00:00 23.94 C 11.28 g/m*3 23.94 C 0 km/h
2850 26-08-2010 17:00:00 23.62 C 11.29 g/m*3 23.62 C 0 km/h
Sensor: Nr:Datum:Temp:Abs-Feuchte:Windchill:Wind:
Aussen-T/F 2851 26-08-2010 18:00:00 23.18 C 11.67 g/m*3 23.18 C 0 km/h
2852 26-08-2010 19:00:00 21.66 C 13.36 g/m*3 21.66 C 0 km/h
2853 26-08-2010 20:00:00 20.94 C 14.49 g/m*3 20.94 C 0 km/h
2854 26-08-2010 21:00:00 20.42 C 14.03 g/m*3 20.42 C 0 km/h
2855 26-08-2010 22:00:00 19.76 C 14.62 g/m*3 19.76 C 0 km/h
2856 26-08-2010 23:00:00 19.44 C 14.95 g/m*3 19.44 C 0 km/h
2857 27-08-2010 00:00:00 18.98 C 14.91 g/m*3 18.98 C 0 km/h
2858 27-08-2010 01:00:00 18.76 C 14.97 g/m*3 18.76 C 0 km/h
2859 27-08-2010 02:00:00 18.62 C 14.98 g/m*3 18.62 C 0 km/h
2860 27-08-2010 03:00:00 18.38 C 14.77 g/m*3 18.38 C 0 km/h
2861 27-08-2010 04:00:00 18.34 C 14.73 g/m*3 18.34 C 0 km/h
2862 27-08-2010 05:00:00 18.4 C 14.88 g/m*3 18.4 C 0 km/h
2863 27-08-2010 06:00:00 18.82 C 15.32 g/m*3 18.82 C 0 km/h
2864 27-08-2010 07:00:00 18.68 C 15.03 g/m*3 18.68 C 0 km/h
2865 27-08-2010 08:00:00 18.58 C 14.94 g/m*3 18.58 C 0 km/h
2866 27-08-2010 09:00:00 19.26 C 15.06 g/m*3 19.26 C 0 km/h
2867 27-08-2010 10:00:00 19.32 C 14.35 g/m*3 19.32 C 0 km/h
2868 27-08-2010 11:00:00 18.16 C 13.58 g/m*3 18.16 C 0 km/h
2869 27-08-2010 12:00:00 20.1 C 13.52 g/m*3 20.1 C 0 km/h
2870 27-08-2010 13:00:00 22.92 C 12.6 g/m*3 22.92 C 0 km/h
2871 27-08-2010 14:00:00 20.76 C 12.07 g/m*3 20.76 C 0 km/h
2872 27-08-2010 15:00:00 18.92 C 13.49 g/m*3 18.92 C 0 km/h
2873 27-08-2010 16:00:00 21.9 C 12.89 g/m*3 21.9 C 0 km/h
2874 27-08-2010 17:00:00 21.3 C 11.71 g/m*3 21.3 C 0 km/h
2875 27-08-2010 18:00:00 16.8 C 12.01 g/m*3 16.8 C 0 km/h
Sensor: Nr:Datum:Temp:Abs-Feuchte:Windchill:Wind:
Aussen-T/F 2876 27-08-2010 19:00:00 15.64 C 10.93 g/m*3 15.64 C 0 km/h
2877 27-08-2010 20:00:00 15.12 C 10.44 g/m*3 15.12 C 0 km/h
2878 27-08-2010 21:00:00 14.58 C 10.17 g/m*3 14.58 C 0 km/h
2879 27-08-2010 22:00:00 14.74 C 10.02 g/m*3 14.74 C 0 km/h
2880 27-08-2010 23:00:00 13.96 C 9.34 g/m*3 13.96 C 0 km/h
2881 28-08-2010 00:00:00 13.78 C 9.21 g/m*3 13.78 C 0 km/h
2882 28-08-2010 01:00:00 13.1 C 9.88 g/m*3 13.1 C 0 km/h
2883 28-08-2010 02:00:00 13.14 C 9.82 g/m*3 13.14 C 0 km/h
2884 28-08-2010 03:00:00 13.1 C 9.56 g/m*3 13.1 C 0 km/h
2885 28-08-2010 04:00:00 12.54 C 9.3 g/m*3 12.54 C 0 km/h
2886 28-08-2010 05:00:00 12.12 C 9.15 g/m*3 12.12 C 0 km/h
2887 28-08-2010 06:00:00 11.58 C 8.76 g/m*3 11.58 C 0 km/h
2888 28-08-2010 07:00:00 11.72 C 8.88 g/m*3 11.72 C 0 km/h
2889 28-08-2010 08:00:00 13.08 C 8.94 g/m*3 13.08 C 0 km/h
2890 28-08-2010 09:00:00 14.22 C 8.58 g/m*3 14.22 C 0 km/h
2891 28-08-2010 10:00:00 15.14 C 8.35 g/m*3 15.14 C 0 km/h
2892 28-08-2010 11:00:00 16.44 C 7.81 g/m*3 16.44 C 0 km/h
2893 28-08-2010 12:00:00 15.42 C 8.71 g/m*3 15.42 C 0 km/h
2894 28-08-2010 13:00:00 16.24 C 10.62 g/m*3 16.24 C 0 km/h
2895 28-08-2010 14:00:00 15.6 C 7.69 g/m*3 15.6 C 0 km/h
2896 28-08-2010 15:00:00 16.72 C 7.46 g/m*3 16.72 C 0 km/h
2897 28-08-2010 16:00:00 15.1 C 8.08 g/m*3 15.1 C 0 km/h
2898 28-08-2010 17:00:00 15.6 C 8.67 g/m*3 15.6 C 0 km/h
2899 28-08-2010 18:00:00 17.56 C 7.42 g/m*3 17.56 C 0 km/h
2900 28-08-2010 19:00:00 15.26 C 8.34 g/m*3 15.26 C 0 km/h
Sensor: Nr:Datum:Temp:Abs-Feuchte:Windchill:Wind:
Aussen-T/F 2901 28-08-2010 20:00:00 13.1 C 9.04 g/m*3 13.1 C 0 km/h
2902 28-08-2010 21:00:00 12.46 C 9.12 g/m*3 12.46 C 0 km/h
2903 28-08-2010 22:00:00 12.24 C 8.96 g/m*3 12.24 C 0 km/h
2904 28-08-2010 23:00:00 12.36 C 8.72 g/m*3 12.36 C 0 km/h
2905 29-08-2010 00:00:00 11.9 C 8.47 g/m*3 11.9 C 0 km/h
2906 29-08-2010 01:00:00 11.5 C 8.45 g/m*3 11.5 C 0 km/h
2907 29-08-2010 02:00:00 11.74 C 8.54 g/m*3 11.74 C 0 km/h
2908 29-08-2010 03:00:00 11.76 C 8.48 g/m*3 11.76 C 0 km/h
2909 29-08-2010 04:00:00 11.5 C 8.39 g/m*3 11.5 C 0 km/h
2910 29-08-2010 05:00:00 11.74 C 8.33 g/m*3 11.74 C 0 km/h
2911 29-08-2010 06:00:00 12.1 C 8.3 g/m*3 12.1 C 0 km/h
2912 29-08-2010 07:00:00 12.2 C 8.33 g/m*3 12.2 C 0 km/h
2913 29-08-2010 08:00:00 12.44 C 8.35 g/m*3 12.44 C 0 km/h
2914 29-08-2010 09:00:00 14 C 8.18 g/m*3 14 C 0 km/h
2915 29-08-2010 10:00:00 15.4 C 8.04 g/m*3 15.4 C 0 km/h
2916 29-08-2010 11:00:00 16.26 C 7.92 g/m*3 16.26 C 0 km/h
2917 29-08-2010 12:00:00 15.12 C 9.04 g/m*3 15.12 C 0 km/h
2918 29-08-2010 13:00:00 16.04 C 8.71 g/m*3 16.04 C 0 km/h
2919 29-08-2010 14:00:00 16.46 C 8.4 g/m*3 16.46 C 0 km/h
2920 29-08-2010 15:00:00 15.08 C 8.92 g/m*3 15.08 C 0 km/h
2921 29-08-2010 16:00:00 15.76 C 8.51 g/m*3 15.76 C 0 km/h
2922 29-08-2010 17:00:00 14.96 C 8.31 g/m*3 14.96 C 0 km/h
2923 29-08-2010 18:00:00 13.06 C 9.31 g/m*3 13.06 C 0 km/h
2924 29-08-2010 19:00:00 12 C 9.29 g/m*3 12 C 0 km/h
2925 29-08-2010 20:00:00 11.78 C 8.96 g/m*3 11.78 C 0 km/h
Sensor: Nr:Datum:Temp:Abs-Feuchte:Windchill:Wind:
Aussen-T/F 2926 29-08-2010 21:00:00 11.64 C 8.71 g/m*3 11.64 C 0 km/h
2927 29-08-2010 22:00:00 9.2 C 8.02 g/m*3 9.2 C 0 km/h
2928 29-08-2010 23:00:00 9.12 C 8.16 g/m*3 9.12 C 0 km/h
2929 30-08-2010 00:00:00 9.2 C 7.98 g/m*3 9.2 C 0 km/h
2930 30-08-2010 01:00:00 9.94 C 7.84 g/m*3 9.94 C 0 km/h
2931 30-08-2010 02:00:00 10.52 C 7.77 g/m*3 10.52 C 0 km/h
2932 30-08-2010 03:00:00 10.82 C 7.66 g/m*3 10.82 C 0 km/h
2933 30-08-2010 04:00:00 10.26 C 7.99 g/m*3 10.26 C 0 km/h
2934 30-08-2010 05:00:00 9.62 C 8.02 g/m*3 9.62 C 0 km/h
2935 30-08-2010 06:00:00 10.06 C 8.47 g/m*3 10.06 C 0 km/h
2936 30-08-2010 07:00:00 9.96 C 8.4 g/m*3 9.96 C 0 km/h
2937 30-08-2010 08:00:00 10.82 C 8.63 g/m*3 10.82 C 0 km/h
2938 30-08-2010 09:00:00 10.98 C 8.64 g/m*3 10.98 C 0 km/h
2939 30-08-2010 10:00:00 11.86 C 8.83 g/m*3 11.86 C 0 km/h
2940 30-08-2010 11:00:00 13 C 8.32 g/m*3 13 C 0 km/h
2941 30-08-2010 12:00:00 14.02 C 7.63 g/m*3 14.02 C 0 km/h
2942 30-08-2010 13:00:00 16.04 C 6.77 g/m*3 16.04 C 0 km/h
2943 30-08-2010 14:00:00 16.28 C 7.73 g/m*3 16.28 C 0 km/h
2944 30-08-2010 15:00:00 17.48 C 7.8 g/m*3 17.48 C 0 km/h
2945 30-08-2010 16:00:00 15.86 C 9.16 g/m*3 15.86 C 0 km/h
2946 30-08-2010 17:00:00 15.04 C 9.23 g/m*3 15.04 C 0 km/h
2947 30-08-2010 18:00:00 14.32 C 8.76 g/m*3 14.32 C 0 km/h
2948 30-08-2010 19:00:00 14.04 C 8.97 g/m*3 14.04 C 0 km/h
2949 30-08-2010 20:00:00 13.76 C 8.72 g/m*3 13.76 C 0 km/h
2950 30-08-2010 21:00:00 12.72 C 9.56 g/m*3 12.72 C 0 km/h
Sensor: Nr:Datum:Temp:Abs-Feuchte:Windchill:Wind:
Aussen-T/F 2951 30-08-2010 22:00:00 12.72 C 9.92 g/m*3 12.72 C 0 km/h
2952 30-08-2010 23:00:00 12.3 C 9.69 g/m*3 12.3 C 0 km/h
2953 31-08-2010 00:00:00 12.22 C 9.62 g/m*3 12.22 C 0 km/h
2954 31-08-2010 01:00:00 12.42 C 9.45 g/m*3 12.42 C 0 km/h
2955 31-08-2010 02:00:00 12.36 C 9.31 g/m*3 12.36 C 0 km/h
2956 31-08-2010 03:00:00 12.1 C 9.07 g/m*3 12.1 C 0 km/h
2957 31-08-2010 04:00:00 11.52 C 9.06 g/m*3 11.52 C 0 km/h
2958 31-08-2010 05:00:00 11.38 C 9.04 g/m*3 11.38 C 0 km/h
2959 31-08-2010 06:00:00 11.7 C 9.22 g/m*3 11.7 C 0 km/h
2960 31-08-2010 07:00:00 12.2 C 9.09 g/m*3 12.2 C 0 km/h
2961 31-08-2010 08:00:00 12.64 C 9.07 g/m*3 12.64 C 0 km/h
2962 31-08-2010 09:00:00 13.58 C 8.86 g/m*3 13.58 C 0 km/h
2963 31-08-2010 10:00:00 14.14 C 8.35 g/m*3 14.14 C 0 km/h
2964 31-08-2010 11:00:00 15.6 C 8.09 g/m*3 15.6 C 0 km/h
2965 31-08-2010 12:00:00 16.88 C 7.93 g/m*3 16.88 C 0 km/h
2966 31-08-2010 13:00:00 17.96 C 6.99 g/m*3 17.96 C 0 km/h
2967 31-08-2010 14:00:00 20.16 C 6.45 g/m*3 20.16 C 0 km/h
2968 31-08-2010 15:00:00 21.2 C 5.86 g/m*3 21.2 C 0 km/h
2969 31-08-2010 16:00:00 21.46 C 5.64 g/m*3 21.46 C 0 km/h
2970 31-08-2010 17:00:00 21.82 C 5.57 g/m*3 21.82 C 0 km/h
2971 31-08-2010 18:00:00 22.26 C 5.67 g/m*3 22.26 C 0 km/h
2972 31-08-2010 19:00:00 20.32 C 6.55 g/m*3 20.32 C 0 km/h
2973 31-08-2010 20:00:00 16.38 C 7.17 g/m*3 16.38 C 0 km/h
2974 31-08-2010 21:00:00 14.44 C 7.61 g/m*3 14.44 C 0 km/h
2975 31-08-2010 22:00:00 13.24 C 8.1 g/m*3 13.24 C 0 km/h
Sensor: Nr:Datum:Temp:Abs-Feuchte:Windchill:Wind:
Aussen-T/F 2976 31-08-2010 23:00:00 12.32 C 8.09 g/m*3 12.32 C 0 km/h
2977 01-09-2010 00:00:00 11.58 C 8.08 g/m*3 11.58 C 0 km/h
2978 01-09-2010 01:00:00 10.98 C 8.1 g/m*3 10.98 C 0 km/h
2979 01-09-2010 02:00:00 10.36 C 7.96 g/m*3 10.36 C 0 km/h
2980 01-09-2010 03:00:00 9.74 C 7.97 g/m*3 9.74 C 0 km/h
2981 01-09-2010 04:00:00 9.14 C 7.86 g/m*3 9.14 C 0 km/h
2982 01-09-2010 05:00:00 8.92 C 7.95 g/m*3 8.92 C 0 km/h
2983 01-09-2010 06:00:00 8.94 C 8.04 g/m*3 8.94 C 0 km/h
2984 01-09-2010 07:00:00 9.02 C 7.98 g/m*3 9.02 C 0 km/h
2985 01-09-2010 08:00:00 9.26 C 8.05 g/m*3 9.26 C 0 km/h
2986 01-09-2010 09:00:00 10.22 C 8.14 g/m*3 10.22 C 0 km/h
2987 01-09-2010 10:00:00 12.1 C 8.56 g/m*3 12.1 C 0 km/h
2988 01-09-2010 11:00:00 14.26 C 8.78 g/m*3 14.26 C 0 km/h
2989 01-09-2010 12:00:00 17.24 C 8.54 g/m*3 17.24 C 0 km/h
2990 01-09-2010 13:00:00 19.52 C 7.96 g/m*3 19.52 C 0 km/h
2991 01-09-2010 14:00:00 21.18 C 7.03 g/m*3 21.18 C 0 km/h
2992 01-09-2010 15:00:00 23.6 C 6 g/m*3 23.6 C 0 km/h
2993 01-09-2010 16:00:00 23.8 C 6.02 g/m*3 23.8 C 0 km/h
2994 01-09-2010 17:00:00 22.04 C 6.38 g/m*3 22.04 C 0 km/h
2995 01-09-2010 18:00:00 21.1 C 6.96 g/m*3 21.1 C 0 km/h
2996 01-09-2010 19:00:00 19.62 C 7.88 g/m*3 19.62 C 0 km/h
2997 01-09-2010 20:00:00 17.36 C 8.72 g/m*3 17.36 C 0 km/h
2998 01-09-2010 21:00:00 16.24 C 8.85 g/m*3 16.24 C 0 km/h
2999 01-09-2010 22:00:00 15.55 C 8.82 g/m*3 15.55 C 0 km/h
3000 01-09-2010 23:00:00 14.16 C 8.28 g/m*3 14.16 C 0 km/h
Sensor: Nr:Datum:Temp:Abs-Feuchte:Windchill:Wind:
Aussen-T/F 3001 02-09-2010 00:00:00 13.02 C 8.22 g/m*3 13.02 C 0 km/h
3002 02-09-2010 01:00:00 12.32 C 8.37 g/m*3 12.32 C 0 km/h
3003 02-09-2010 02:00:00 11.6 C 8.56 g/m*3 11.6 C 0 km/h
3004 02-09-2010 03:00:00 11 C 8.31 g/m*3 11 C 0 km/h
3005 02-09-2010 04:00:00 10.44 C 8.29 g/m*3 10.44 C 0 km/h
3006 02-09-2010 05:00:00 10.32 C 8.5 g/m*3 10.32 C 0 km/h
3007 02-09-2010 06:00:00 10.34 C 8.6 g/m*3 10.34 C 0 km/h
3008 02-09-2010 07:00:00 10.68 C 8.81 g/m*3 10.68 C 0 km/h
3009 02-09-2010 08:00:00 11.34 C 8.96 g/m*3 11.34 C 0 km/h
3010 02-09-2010 09:00:00 12.4 C 8.98 g/m*3 12.4 C 0 km/h
3011 02-09-2010 10:00:00 14.02 C 8.65 g/m*3 14.02 C 0 km/h
3012 02-09-2010 11:00:00 15.46 C 9.02 g/m*3 15.46 C 0 km/h
3013 02-09-2010 12:00:00 18.66 C 8.75 g/m*3 18.66 C 0 km/h
3014 02-09-2010 13:00:00 20.84 C 7.37 g/m*3 20.84 C 0 km/h
3015 02-09-2010 14:00:00 22.2 C 7.22 g/m*3 22.2 C 0 km/h
3016 02-09-2010 15:00:00 21.42 C 6.91 g/m*3 21.42 C 0 km/h
3017 02-09-2010 16:00:00 20.6 C 6.91 g/m*3 20.6 C 0 km/h
3018 02-09-2010 17:00:00 19.54 C 7.13 g/m*3 19.54 C 0 km/h
3019 02-09-2010 18:00:00 18.66 C 7.41 g/m*3 18.66 C 0 km/h
3020 02-09-2010 19:00:00 17.64 C 8.93 g/m*3 17.64 C 0 km/h
3021 02-09-2010 20:00:00 15.14 C 10.01 g/m*3 15.14 C 0 km/h
3022 02-09-2010 21:00:00 14.42 C 9.85 g/m*3 14.42 C 0 km/h
3023 02-09-2010 22:00:00 13.84 C 9.34 g/m*3 13.84 C 0 km/h
3024 02-09-2010 23:00:00 12.98 C 9.2 g/m*3 12.98 C 0 km/h
3025 03-09-2010 00:00:00 12.42 C 9.1 g/m*3 12.42 C 0 km/h
Sensor: Nr:Datum:Temp:Abs-Feuchte:Windchill:Wind:
Aussen-T/F 3026 03-09-2010 01:00:00 11.82 C 8.92 g/m*3 11.82 C 0 km/h
3027 03-09-2010 02:00:00 11.24 C 8.76 g/m*3 11.24 C 0 km/h
3028 03-09-2010 03:00:00 10.72 C 8.63 g/m*3 10.72 C 0 km/h
3029 03-09-2010 04:00:00 10.34 C 8.6 g/m*3 10.34 C 0 km/h
3030 03-09-2010 05:00:00 10.4 C 8.75 g/m*3 10.4 C 0 km/h
3031 03-09-2010 06:00:00 11.08 C 9.24 g/m*3 11.08 C 0 km/h
3032 03-09-2010 07:00:00 11.36 C 9.32 g/m*3 11.36 C 0 km/h
3033 03-09-2010 08:00:00 11.64 C 9.34 g/m*3 11.64 C 0 km/h
3034 03-09-2010 09:00:00 12.44 C 9.29 g/m*3 12.44 C 0 km/h
3035 03-09-2010 10:00:00 13.58 C 9.22 g/m*3 13.58 C 0 km/h
3036 03-09-2010 11:00:00 15.9 C 8.94 g/m*3 15.9 C 0 km/h
3037 03-09-2010 12:00:00 17.86 C 8.47 g/m*3 17.86 C 0 km/h
3038 03-09-2010 13:00:00 19.68 C 8.18 g/m*3 19.68 C 0 km/h
3039 03-09-2010 14:00:00 20.4 C 7.64 g/m*3 20.4 C 0 km/h
3040 03-09-2010 15:00:00 22.78 C 7.02 g/m*3 22.78 C 0 km/h
3041 03-09-2010 16:00:00 25.12 C 6.58 g/m*3 25.12 C 0 km/h
3042 03-09-2010 17:00:00 24.12 C 6.53 g/m*3 24.12 C 0 km/h
3043 03-09-2010 18:00:00 22.7 C 8.12 g/m*3 22.7 C 0 km/h
3044 03-09-2010 19:00:00 20.7 C 8.86 g/m*3 20.7 C 0 km/h
3045 03-09-2010 20:00:00 18.62 C 8.25 g/m*3 18.62 C 0 km/h
3046 03-09-2010 21:00:00 16.32 C 8.56 g/m*3 16.32 C 0 km/h
3047 03-09-2010 22:00:00 15.36 C 8.86 g/m*3 15.36 C 0 km/h
3048 03-09-2010 23:00:00 15.34 C 9.22 g/m*3 15.34 C 0 km/h
3049 04-09-2010 00:00:00 15.1 C 9.29 g/m*3 15.1 C 0 km/h
3050 04-09-2010 01:00:00 14.82 C 9.41 g/m*3 14.82 C 0 km/h
Sensor: Nr:Datum:Temp:Abs-Feuchte:Windchill:Wind:
Aussen-T/F 3051 04-09-2010 02:00:00 14.28 C 9.4 g/m*3 14.28 C 0 km/h
3052 04-09-2010 03:00:00 13.72 C 9.41 g/m*3 13.72 C 0 km/h
3053 04-09-2010 04:00:00 13.2 C 9.48 g/m*3 13.2 C 0 km/h
3054 04-09-2010 05:00:00 13.1 C 9.59 g/m*3 13.1 C 0 km/h
3055 04-09-2010 06:00:00 12.54 C 9.3 g/m*3 12.54 C 0 km/h
3056 04-09-2010 07:00:00 12.08 C 9.25 g/m*3 12.08 C 0 km/h
3057 04-09-2010 08:00:00 12.8 C 9.77 g/m*3 12.8 C 0 km/h
3058 04-09-2010 09:00:00 14.44 C 9.96 g/m*3 14.44 C 0 km/h
3059 04-09-2010 10:00:00 16.3 C 9.49 g/m*3 16.3 C 0 km/h
3060 04-09-2010 11:00:00 18.88 C 8.77 g/m*3 18.88 C 0 km/h
3061 04-09-2010 12:00:00 18.86 C 7.89 g/m*3 18.86 C 0 km/h
3062 04-09-2010 13:00:00 19.58 C 7.62 g/m*3 19.58 C 0 km/h
3063 04-09-2010 14:00:00 22.2 C 6.71 g/m*3 22.2 C 0 km/h
3064 04-09-2010 15:00:00 22.88 C 6.29 g/m*3 22.88 C 0 km/h
3065 04-09-2010 16:00:00 22.42 C 5.53 g/m*3 22.42 C 0 km/h
3066 04-09-2010 17:00:00 23.12 C 4.88 g/m*3 23.12 C 0 km/h
3067 04-09-2010 18:00:00 22.74 C 4.37 g/m*3 22.74 C 0 km/h
3068 04-09-2010 19:00:00 19.74 C 5.55 g/m*3 19.74 C 0 km/h
3069 04-09-2010 20:00:00 16.14 C 6.54 g/m*3 16.14 C 0 km/h
3070 04-09-2010 21:00:00 14.92 C 6.94 g/m*3 14.92 C 0 km/h
3071 04-09-2010 22:00:00 14.16 C 7.26 g/m*3 14.16 C 0 km/h
3072 04-09-2010 23:00:00 13.12 C 7.59 g/m*3 13.12 C 0 km/h
3073 05-09-2010 00:00:00 12.16 C 7.62 g/m*3 12.16 C 0 km/h
3074 05-09-2010 01:00:00 11.22 C 7.53 g/m*3 11.22 C 0 km/h
3075 05-09-2010 02:00:00 10.44 C 7.52 g/m*3 10.44 C 0 km/h
Sensor: Nr:Datum:Temp:Abs-Feuchte:Windchill:Wind:
Aussen-T/F 3076 05-09-2010 03:00:00 9.72 C 7.4 g/m*3 9.72 C 0 km/h
3077 05-09-2010 04:00:00 9.12 C 7.27 g/m*3 9.12 C 0 km/h
3078 05-09-2010 05:00:00 8.64 C 7.27 g/m*3 8.64 C 0 km/h
3079 05-09-2010 06:00:00 8.08 C 7.25 g/m*3 8.08 C 0 km/h
3080 05-09-2010 07:00:00 8.4 C 7.52 g/m*3 8.4 C 0 km/h
3081 05-09-2010 08:00:00 9.82 C 7.91 g/m*3 9.82 C 0 km/h
3082 05-09-2010 09:00:00 11.1 C 7.88 g/m*3 11.1 C 0 km/h
3083 05-09-2010 10:00:00 12.36 C 8.44 g/m*3 12.36 C 0 km/h
3084 05-09-2010 11:00:00 15.42 C 8.16 g/m*3 15.42 C 0 km/h
3085 05-09-2010 12:00:00 18.02 C 6.52 g/m*3 18.02 C 0 km/h
3086 05-09-2010 13:00:00 20.14 C 5.92 g/m*3 20.14 C 0 km/h
3087 05-09-2010 14:00:00 23.5 C 5.2 g/m*3 23.5 C 0 km/h
3088 05-09-2010 15:00:00 24.16 C 4.83 g/m*3 24.16 C 0 km/h
3089 05-09-2010 16:00:00 24.4 C 4.67 g/m*3 24.4 C 0 km/h
3090 05-09-2010 17:00:00 24.6 C 5.04 g/m*3 24.6 C 0 km/h
3091 05-09-2010 18:00:00 24.84 C 5.29 g/m*3 24.84 C 0 km/h
3092 05-09-2010 19:00:00 19.38 C 6.4 g/m*3 19.38 C 0 km/h
3093 05-09-2010 20:00:00 16.44 C 6.38 g/m*3 16.44 C 0 km/h
3094 05-09-2010 21:00:00 14.9 C 6.81 g/m*3 14.9 C 0 km/h
3095 05-09-2010 22:00:00 14.12 C 7.1 g/m*3 14.12 C 0 km/h
3096 05-09-2010 23:00:00 13.94 C 6.92 g/m*3 13.94 C 0 km/h
3097 06-09-2010 00:00:00 13.22 C 7.08 g/m*3 13.22 C 0 km/h
3098 06-09-2010 01:00:00 12.36 C 7.11 g/m*3 12.36 C 0 km/h
3099 06-09-2010 02:00:00 11.62 C 7.2 g/m*3 11.62 C 0 km/h
3100 06-09-2010 03:00:00 11.1 C 7.15 g/m*3 11.1 C 0 km/h
Sensor: Nr:Datum:Temp:Abs-Feuchte:Windchill:Wind:
Aussen-T/F 3101 06-09-2010 04:00:00 10.7 C 7.09 g/m*3 10.7 C 0 km/h
3102 06-09-2010 05:00:00 10.24 C 7.02 g/m*3 10.24 C 0 km/h
3103 06-09-2010 06:00:00 9.56 C 7 g/m*3 9.56 C 0 km/h
3104 06-09-2010 07:00:00 9.28 C 7.07 g/m*3 9.28 C 0 km/h
3105 06-09-2010 08:00:00 9.68 C 7.22 g/m*3 9.68 C 0 km/h
3106 06-09-2010 09:00:00 10.94 C 7.52 g/m*3 10.94 C 0 km/h
3107 06-09-2010 10:00:00 13.48 C 7.52 g/m*3 13.48 C 0 km/h
3108 06-09-2010 11:00:00 16.32 C 7.14 g/m*3 16.32 C 0 km/h
3109 06-09-2010 12:00:00 18.64 C 5.58 g/m*3 18.64 C 0 km/h
3110 06-09-2010 13:00:00 20.24 C 5.4 g/m*3 20.24 C 0 km/h
3111 06-09-2010 14:00:00 22.34 C 4.51 g/m*3 22.34 C 0 km/h
3112 06-09-2010 15:00:00 24 C 4.35 g/m*3 24 C 0 km/h
3113 06-09-2010 16:00:00 23.88 C 4.32 g/m*3 23.88 C 0 km/h
3114 06-09-2010 17:00:00 24.42 C 4.46 g/m*3 24.42 C 0 km/h
3115 06-09-2010 18:00:00 21.44 C 5.34 g/m*3 21.44 C 0 km/h
3116 06-09-2010 19:00:00 18.72 C 5.87 g/m*3 18.72 C 0 km/h
3117 06-09-2010 20:00:00 17.1 C 5.62 g/m*3 17.1 C 0 km/h
3118 06-09-2010 21:00:00 16.22 C 5.44 g/m*3 16.22 C 0 km/h
3119 06-09-2010 22:00:00 15.5 C 5.6 g/m*3 15.5 C 0 km/h
3120 06-09-2010 23:00:00 15.2 C 5.63 g/m*3 15.2 C 0 km/h
3121 07-09-2010 00:00:00 15.38 C 5.51 g/m*3 15.38 C 0 km/h
3122 07-09-2010 01:00:00 15.42 C 5.39 g/m*3 15.42 C 0 km/h
3123 07-09-2010 02:00:00 15.46 C 5.38 g/m*3 15.46 C 0 km/h
3124 07-09-2010 03:00:00 14.34 C 6.03 g/m*3 14.34 C 0 km/h
3125 07-09-2010 04:00:00 13.06 C 7.01 g/m*3 13.06 C 0 km/h
Sensor: Nr:Datum:Temp:Abs-Feuchte:Windchill:Wind:
Aussen-T/F 3126 07-09-2010 05:00:00 12.98 C 7.11 g/m*3 12.98 C 0 km/h
3127 07-09-2010 06:00:00 12.5 C 7.04 g/m*3 12.5 C 0 km/h
3128 07-09-2010 07:00:00 12.12 C 7.09 g/m*3 12.12 C 0 km/h
3129 07-09-2010 08:00:00 11.56 C 8.11 g/m*3 11.56 C 0 km/h
3130 07-09-2010 09:00:00 11.46 C 8.41 g/m*3 11.46 C 0 km/h
3131 07-09-2010 10:00:00 11.46 C 8.88 g/m*3 11.46 C 0 km/h
3132 07-09-2010 11:00:00 11.64 C 9.21 g/m*3 11.64 C 0 km/h
3133 07-09-2010 12:00:00 12.42 C 9.5 g/m*3 12.42 C 0 km/h
3134 07-09-2010 13:00:00 12.78 C 9.31 g/m*3 12.78 C 0 km/h
3135 07-09-2010 14:00:00 13.36 C 9.37 g/m*3 13.36 C 0 km/h
3136 07-09-2010 15:00:00 14.58 C 9.12 g/m*3 14.58 C 0 km/h
3137 07-09-2010 16:00:00 15.52 C 9.11 g/m*3 15.52 C 0 km/h
3138 07-09-2010 17:00:00 14.88 C 9.06 g/m*3 14.88 C 0 km/h
3139 07-09-2010 18:00:00 13.98 C 9.08 g/m*3 13.98 C 0 km/h
3140 07-09-2010 19:00:00 13.78 C 9.38 g/m*3 13.78 C 0 km/h
3141 07-09-2010 20:00:00 13.24 C 9.55 g/m*3 13.24 C 0 km/h
3142 07-09-2010 21:00:00 12.96 C 9.89 g/m*3 12.96 C 0 km/h
3143 07-09-2010 22:00:00 12.86 C 10.03 g/m*3 12.86 C 0 km/h
3144 07-09-2010 23:00:00 12.92 C 10.16 g/m*3 12.92 C 0 km/h
3145 08-09-2010 00:00:00 12.88 C 10.24 g/m*3 12.88 C 0 km/h
3146 08-09-2010 01:00:00 13 C 10.37 g/m*3 13 C 0 km/h
3147 08-09-2010 02:00:00 13.2 C 10.61 g/m*3 13.2 C 0 km/h
3148 08-09-2010 03:00:00 13.56 C 10.92 g/m*3 13.56 C 0 km/h
3149 08-09-2010 04:00:00 13.56 C 10.92 g/m*3 13.56 C 0 km/h
3150 08-09-2010 05:00:00 14.16 C 11.4 g/m*3 14.16 C 0 km/h
Sensor: Nr:Datum:Temp:Abs-Feuchte:Windchill:Wind:
Aussen-T/F 3151 08-09-2010 06:00:00 14.36 C 11.44 g/m*3 14.36 C 0 km/h
3152 08-09-2010 07:00:00 14.22 C 11.25 g/m*3 14.22 C 0 km/h
3153 08-09-2010 08:00:00 14.22 C 11.25 g/m*3 14.22 C 0 km/h
3154 08-09-2010 09:00:00 15.22 C 11.62 g/m*3 15.22 C 0 km/h
3155 08-09-2010 10:00:00 15.52 C 11.41 g/m*3 15.52 C 0 km/h
3156 08-09-2010 11:00:00 15.24 C 11.03 g/m*3 15.24 C 0 km/h
3157 08-09-2010 12:00:00 14.74 C 11.26 g/m*3 14.74 C 0 km/h
3158 08-09-2010 13:00:00 16.22 C 12.12 g/m*3 16.22 C 0 km/h
3159 08-09-2010 14:00:00 17.58 C 11.56 g/m*3 17.58 C 0 km/h
3160 08-09-2010 15:00:00 17.94 C 11.17 g/m*3 17.94 C 0 km/h
3161 08-09-2010 16:00:00 18.54 C 10.69 g/m*3 18.54 C 0 km/h
3162 08-09-2010 17:00:00 19.88 C 10.23 g/m*3 19.88 C 0 km/h
3163 08-09-2010 18:00:00 19.06 C 10.24 g/m*3 19.06 C 0 km/h
3164 08-09-2010 19:00:00 18.2 C 10.54 g/m*3 18.2 C 0 km/h
3165 08-09-2010 20:00:00 16.8 C 10.52 g/m*3 16.8 C 0 km/h
3166 08-09-2010 21:00:00 15.72 C 9.7 g/m*3 15.72 C 0 km/h
3167 08-09-2010 22:00:00 14.78 C 9.79 g/m*3 14.78 C 0 km/h
3168 08-09-2010 23:00:00 14.48 C 10.01 g/m*3 14.48 C 0 km/h
3169 09-09-2010 00:00:00 14.38 C 10.2 g/m*3 14.38 C 0 km/h
3170 09-09-2010 01:00:00 15.04 C 10.08 g/m*3 15.04 C 0 km/h
3171 09-09-2010 02:00:00 15.14 C 9.93 g/m*3 15.14 C 0 km/h
3172 09-09-2010 03:00:00 15.32 C 9.78 g/m*3 15.32 C 0 km/h
3173 09-09-2010 04:00:00 15.22 C 9.33 g/m*3 15.22 C 0 km/h
3174 09-09-2010 05:00:00 14.9 C 9.02 g/m*3 14.9 C 0 km/h
3175 09-09-2010 06:00:00 14.78 C 8.88 g/m*3 14.78 C 0 km/h
Sensor: Nr:Datum:Temp:Abs-Feuchte:Windchill:Wind:
Aussen-T/F 3176 09-09-2010 07:00:00 14.58 C 9.07 g/m*3 14.58 C 0 km/h
3177 09-09-2010 08:00:00 14.8 C 9.1 g/m*3 14.8 C 0 km/h
3178 09-09-2010 09:00:00 15.26 C 9.09 g/m*3 15.26 C 0 km/h
3179 09-09-2010 10:00:00 16.76 C 9.1 g/m*3 16.76 C 0 km/h
3180 09-09-2010 11:00:00 17.78 C 8.88 g/m*3 17.78 C 0 km/h
3181 09-09-2010 12:00:00 18.64 C 8.17 g/m*3 18.64 C 0 km/h
3182 09-09-2010 13:00:00 18.8 C 8.21 g/m*3 18.8 C 0 km/h
3183 09-09-2010 14:00:00 18.98 C 8.59 g/m*3 18.98 C 0 km/h
3184 09-09-2010 15:00:00 19.38 C 9.13 g/m*3 19.38 C 0 km/h
3185 09-09-2010 16:00:00 17.1 C 10.92 g/m*3 17.1 C 0 km/h
3186 09-09-2010 17:00:00 17.92 C 11.62 g/m*3 17.92 C 0 km/h
3187 09-09-2010 18:00:00 17.7 C 10.47 g/m*3 17.7 C 0 km/h
3188 09-09-2010 19:00:00 16.54 C 9.46 g/m*3 16.54 C 0 km/h
3189 09-09-2010 20:00:00 15.4 C 9.78 g/m*3 15.4 C 0 km/h
3190 09-09-2010 21:00:00 14.8 C 10.26 g/m*3 14.8 C 0 km/h
3191 09-09-2010 22:00:00 14.74 C 10.17 g/m*3 14.74 C 0 km/h
3192 09-09-2010 23:00:00 14.98 C 9.71 g/m*3 14.98 C 0 km/h
3193 10-09-2010 00:00:00 14.66 C 9.92 g/m*3 14.66 C 0 km/h
3194 10-09-2010 01:00:00 14 C 9.77 g/m*3 14 C 0 km/h
3195 10-09-2010 02:00:00 13.9 C 9.95 g/m*3 13.9 C 0 km/h
3196 10-09-2010 03:00:00 13.9 C 10.07 g/m*3 13.9 C 0 km/h
3197 10-09-2010 04:00:00 13.84 C 10.25 g/m*3 13.84 C 0 km/h
3198 10-09-2010 05:00:00 13.06 C 9.99 g/m*3 13.06 C 0 km/h
3199 10-09-2010 06:00:00 13.12 C 10.24 g/m*3 13.12 C 0 km/h
3200 10-09-2010 07:00:00 13.18 C 9.84 g/m*3 13.18 C 0 km/h
Sensor: Nr:Datum:Temp:Abs-Feuchte:Windchill:Wind:
Aussen-T/F 3201 10-09-2010 08:00:00 13.32 C 9.95 g/m*3 13.32 C 0 km/h
3202 10-09-2010 09:00:00 14.6 C 9.54 g/m*3 14.6 C 0 km/h
3203 10-09-2010 10:00:00 16.16 C 9.35 g/m*3 16.16 C 0 km/h
3204 10-09-2010 11:00:00 17.88 C 9.21 g/m*3 17.88 C 0 km/h
3205 10-09-2010 12:00:00 18.74 C 9.18 g/m*3